<?xml version="1.0" encoding="UTF-8" standalone="no" ?>
<gpx xmlns="http://www.topografix.com/GPX/1/1" xmlns:xsi="http://www.w3.org/2001/XMLSchema-instance" xsi:schemaLocation="http://www.topografix.com/GPX/1/1 http://www.topografix.com/GPX/1/1/gpx.xsd" version="1.1" creator="VisuGPX - https://www.visugpx.com">
  <metadata>
    <name>VTTS44K581MDS</name>
  </metadata>
  <trk>
    <name><![CDATA[VTTS43K620MDS]]></name>
    <extensions>
      <line xmlns="http://www.topografix.com/GPX/gpx_style/0/2">
        <color>0000FF</color>
        <width>4</width>
      </line>
    </extensions>
    <trkseg>
      <trkpt lat="46.21226" lon="4.75632">
        <ele>197.67803743317</ele>
        <time>2022-05-07T09:28:54.000Z</time>
      </trkpt>
      <trkpt lat="46.21232" lon="4.75613">
        <ele>198.15619481694</ele>
        <time>2022-05-07T09:28:54.003Z</time>
      </trkpt>
      <trkpt lat="46.21183" lon="4.7558">
        <ele>199.21905147072</ele>
        <time>2022-05-07T09:28:54.017Z</time>
      </trkpt>
      <trkpt lat="46.21176" lon="4.75574">
        <ele>200.0734055888</ele>
        <time>2022-05-07T09:28:54.032Z</time>
      </trkpt>
      <trkpt lat="46.21135" lon="4.75546">
        <ele>201.37972013918</ele>
        <time>2022-05-07T09:28:54.056Z</time>
      </trkpt>
      <trkpt lat="46.21106" lon="4.75528">
        <ele>202.47932202225</ele>
        <time>2022-05-07T09:28:54.087Z</time>
      </trkpt>
      <trkpt lat="46.21096" lon="4.75524">
        <ele>203.21124889283</ele>
        <time>2022-05-07T09:28:54.120Z</time>
      </trkpt>
      <trkpt lat="46.21086" lon="4.75503">
        <ele>203.73753286809</ele>
        <time>2022-05-07T09:28:54.156Z</time>
      </trkpt>
      <trkpt lat="46.21087" lon="4.75496">
        <ele>203.86174220764</ele>
        <time>2022-05-07T09:28:54.193Z</time>
      </trkpt>
      <trkpt lat="46.21089" lon="4.75416">
        <ele>203.91565904024</ele>
        <time>2022-05-07T09:28:54.241Z</time>
      </trkpt>
      <trkpt lat="46.21055" lon="4.75383">
        <ele>203.36985713818</ele>
        <time>2022-05-07T09:28:54.298Z</time>
      </trkpt>
      <trkpt lat="46.21015" lon="4.75355">
        <ele>202.55657228821</ele>
        <time>2022-05-07T09:28:54.364Z</time>
      </trkpt>
      <trkpt lat="46.20995" lon="4.75343">
        <ele>201.58448550628</ele>
        <time>2022-05-07T09:28:54.434Z</time>
      </trkpt>
      <trkpt lat="46.20932" lon="4.75304">
        <ele>199.99998875253</ele>
        <time>2022-05-07T09:28:54.518Z</time>
      </trkpt>
      <trkpt lat="46.20869" lon="4.7524">
        <ele>198.21665100169</ele>
        <time>2022-05-07T09:28:54.617Z</time>
      </trkpt>
      <trkpt lat="46.20848" lon="4.75206">
        <ele>196.85464469329</ele>
        <time>2022-05-07T09:28:54.722Z</time>
      </trkpt>
      <trkpt lat="46.2079" lon="4.75133">
        <ele>195.69017665629</ele>
        <time>2022-05-07T09:28:54.843Z</time>
      </trkpt>
      <trkpt lat="46.20689" lon="4.7502">
        <ele>194.38444886096</ele>
        <time>2022-05-07T09:28:54.989Z</time>
      </trkpt>
      <trkpt lat="46.20677" lon="4.75006">
        <ele>193.46223034618</ele>
        <time>2022-05-07T09:28:55.138Z</time>
      </trkpt>
      <trkpt lat="46.20673" lon="4.75001">
        <ele>192.71518431726</ele>
        <time>2022-05-07T09:28:55.289Z</time>
      </trkpt>
      <trkpt lat="46.20583" lon="4.74882">
        <ele>192.2724548237</ele>
        <time>2022-05-07T09:28:55.464Z</time>
      </trkpt>
      <trkpt lat="46.20553" lon="4.74839">
        <ele>192.00113951437</ele>
        <time>2022-05-07T09:28:55.647Z</time>
      </trkpt>
      <trkpt lat="46.20538" lon="4.74817">
        <ele>191.90140693788</ele>
        <time>2022-05-07T09:28:55.835Z</time>
      </trkpt>
      <trkpt lat="46.20519" lon="4.74787">
        <ele>191.95851794659</ele>
        <time>2022-05-07T09:28:56.028Z</time>
      </trkpt>
      <trkpt lat="46.20487" lon="4.74735">
        <ele>192.38242397078</ele>
        <time>2022-05-07T09:28:56.231Z</time>
      </trkpt>
      <trkpt lat="46.20481" lon="4.74737">
        <ele>192.5160019075</ele>
        <time>2022-05-07T09:28:56.435Z</time>
      </trkpt>
      <trkpt lat="46.20436" lon="4.74741">
        <ele>192.66541183489</ele>
        <time>2022-05-07T09:28:56.648Z</time>
      </trkpt>
      <trkpt lat="46.20413" lon="4.74739">
        <ele>192.65676233444</ele>
        <time>2022-05-07T09:28:56.866Z</time>
      </trkpt>
      <trkpt lat="46.20385" lon="4.74735">
        <ele>192.53392782226</ele>
        <time>2022-05-07T09:28:57.090Z</time>
      </trkpt>
      <trkpt lat="46.20366" lon="4.74728">
        <ele>192.32788251864</ele>
        <time>2022-05-07T09:28:57.317Z</time>
      </trkpt>
      <trkpt lat="46.20314" lon="4.74703">
        <ele>191.76885230557</ele>
        <time>2022-05-07T09:28:57.555Z</time>
      </trkpt>
      <trkpt lat="46.20296" lon="4.74697">
        <ele>191.32476028537</ele>
        <time>2022-05-07T09:28:57.797Z</time>
      </trkpt>
      <trkpt lat="46.2027" lon="4.74695">
        <ele>190.82577605889</ele>
        <time>2022-05-07T09:28:58.044Z</time>
      </trkpt>
      <trkpt lat="46.20248" lon="4.74702">
        <ele>190.35796507622</ele>
        <time>2022-05-07T09:28:58.296Z</time>
      </trkpt>
      <trkpt lat="46.20219" lon="4.74702">
        <ele>189.75554967463</ele>
        <time>2022-05-07T09:28:58.554Z</time>
      </trkpt>
      <trkpt lat="46.20184" lon="4.74693">
        <ele>189.09622373059</ele>
        <time>2022-05-07T09:28:58.819Z</time>
      </trkpt>
      <trkpt lat="46.20103" lon="4.74653">
        <ele>188.47750233323</ele>
        <time>2022-05-07T09:28:59.101Z</time>
      </trkpt>
      <trkpt lat="46.20097" lon="4.74643">
        <ele>187.99044182826</ele>
        <time>2022-05-07T09:28:59.385Z</time>
      </trkpt>
      <trkpt lat="46.2011" lon="4.74616">
        <ele>187.5335449094</ele>
        <time>2022-05-07T09:28:59.673Z</time>
      </trkpt>
      <trkpt lat="46.20142" lon="4.74579">
        <ele>187.18213616146</ele>
        <time>2022-05-07T09:28:59.969Z</time>
      </trkpt>
      <trkpt lat="46.20154" lon="4.74568">
        <ele>186.92799499414</ele>
        <time>2022-05-07T09:29:00.268Z</time>
      </trkpt>
      <trkpt lat="46.20167" lon="4.7453">
        <ele>186.7712073772</ele>
        <time>2022-05-07T09:29:00.573Z</time>
      </trkpt>
      <trkpt lat="46.20166" lon="4.74503">
        <ele>186.69069380338</ele>
        <time>2022-05-07T09:29:00.882Z</time>
      </trkpt>
      <trkpt lat="46.20163" lon="4.74422">
        <ele>186.72551391755</ele>
        <time>2022-05-07T09:29:01.202Z</time>
      </trkpt>
      <trkpt lat="46.2016" lon="4.74403">
        <ele>186.77008718762</ele>
        <time>2022-05-07T09:29:01.525Z</time>
      </trkpt>
      <trkpt lat="46.20173" lon="4.74392">
        <ele>186.87993463734</ele>
        <time>2022-05-07T09:29:01.851Z</time>
      </trkpt>
      <trkpt lat="46.20193" lon="4.74398">
        <ele>187.07089964509</ele>
        <time>2022-05-07T09:29:02.181Z</time>
      </trkpt>
      <trkpt lat="46.20206" lon="4.74391">
        <ele>187.35425848845</ele>
        <time>2022-05-07T09:29:02.514Z</time>
      </trkpt>
      <trkpt lat="46.20198" lon="4.7436">
        <ele>187.69738001102</ele>
        <time>2022-05-07T09:29:02.851Z</time>
      </trkpt>
      <trkpt lat="46.20188" lon="4.74326">
        <ele>188.03804943343</ele>
        <time>2022-05-07T09:29:03.194Z</time>
      </trkpt>
      <trkpt lat="46.20164" lon="4.74294">
        <ele>188.43876325906</ele>
        <time>2022-05-07T09:29:03.543Z</time>
      </trkpt>
      <trkpt lat="46.20152" lon="4.74266">
        <ele>188.96092958959</ele>
        <time>2022-05-07T09:29:03.897Z</time>
      </trkpt>
      <trkpt lat="46.20142" lon="4.74244">
        <ele>189.54231468889</ele>
        <time>2022-05-07T09:29:04.254Z</time>
      </trkpt>
      <trkpt lat="46.2014" lon="4.7424">
        <ele>190.13557556518</ele>
        <time>2022-05-07T09:29:04.612Z</time>
      </trkpt>
      <trkpt lat="46.20139" lon="4.74237">
        <ele>190.77306602073</ele>
        <time>2022-05-07T09:29:04.970Z</time>
      </trkpt>
      <trkpt lat="46.20138" lon="4.74234">
        <ele>191.45216065213</ele>
        <time>2022-05-07T09:29:05.329Z</time>
      </trkpt>
      <trkpt lat="46.20139" lon="4.74231">
        <ele>192.17006661357</ele>
        <time>2022-05-07T09:29:05.688Z</time>
      </trkpt>
      <trkpt lat="46.20139" lon="4.74227">
        <ele>192.93201059163</ele>
        <time>2022-05-07T09:29:06.048Z</time>
      </trkpt>
      <trkpt lat="46.20141" lon="4.74222">
        <ele>193.72915712285</ele>
        <time>2022-05-07T09:29:06.409Z</time>
      </trkpt>
      <trkpt lat="46.20144" lon="4.74216">
        <ele>194.56081275671</ele>
        <time>2022-05-07T09:29:06.771Z</time>
      </trkpt>
      <trkpt lat="46.20149" lon="4.74204">
        <ele>195.45852535288</ele>
        <time>2022-05-07T09:29:07.135Z</time>
      </trkpt>
      <trkpt lat="46.20156" lon="4.74187">
        <ele>196.40417675097</ele>
        <time>2022-05-07T09:29:07.501Z</time>
      </trkpt>
      <trkpt lat="46.20171" lon="4.7418">
        <ele>197.35332052847</ele>
        <time>2022-05-07T09:29:07.871Z</time>
      </trkpt>
      <trkpt lat="46.20146" lon="4.74125">
        <ele>198.41353067537</ele>
        <time>2022-05-07T09:29:08.250Z</time>
      </trkpt>
      <trkpt lat="46.20135" lon="4.74094">
        <ele>199.40646524826</ele>
        <time>2022-05-07T09:29:08.634Z</time>
      </trkpt>
      <trkpt lat="46.20109" lon="4.74052">
        <ele>200.51775580908</ele>
        <time>2022-05-07T09:29:09.025Z</time>
      </trkpt>
      <trkpt lat="46.20083" lon="4.74031">
        <ele>201.63137678499</ele>
        <time>2022-05-07T09:29:09.422Z</time>
      </trkpt>
      <trkpt lat="46.20048" lon="4.74023">
        <ele>202.72358945428</ele>
        <time>2022-05-07T09:29:09.826Z</time>
      </trkpt>
      <trkpt lat="46.20016" lon="4.74033">
        <ele>203.76640243361</ele>
        <time>2022-05-07T09:29:10.237Z</time>
      </trkpt>
      <trkpt lat="46.19963" lon="4.74021">
        <ele>204.757930465</ele>
        <time>2022-05-07T09:29:10.659Z</time>
      </trkpt>
      <trkpt lat="46.19882" lon="4.73987">
        <ele>205.4918815502</ele>
        <time>2022-05-07T09:29:11.098Z</time>
      </trkpt>
      <trkpt lat="46.19817" lon="4.73973">
        <ele>206.25056998396</ele>
        <time>2022-05-07T09:29:11.550Z</time>
      </trkpt>
      <trkpt lat="46.19812" lon="4.73978">
        <ele>206.83571453636</ele>
        <time>2022-05-07T09:29:12.003Z</time>
      </trkpt>
      <trkpt lat="46.19804" lon="4.73983">
        <ele>207.31291950654</ele>
        <time>2022-05-07T09:29:12.458Z</time>
      </trkpt>
      <trkpt lat="46.19787" lon="4.73975">
        <ele>207.70142160446</ele>
        <time>2022-05-07T09:29:12.916Z</time>
      </trkpt>
      <trkpt lat="46.1973" lon="4.73969">
        <ele>208.04311813501</ele>
        <time>2022-05-07T09:29:13.386Z</time>
      </trkpt>
      <trkpt lat="46.19723" lon="4.7397">
        <ele>208.19934717388</ele>
        <time>2022-05-07T09:29:13.857Z</time>
      </trkpt>
      <trkpt lat="46.19721" lon="4.73972">
        <ele>208.22529200972</ele>
        <time>2022-05-07T09:29:14.329Z</time>
      </trkpt>
      <trkpt lat="46.1972" lon="4.73987">
        <ele>208.10397714029</ele>
        <time>2022-05-07T09:29:14.803Z</time>
      </trkpt>
      <trkpt lat="46.19715" lon="4.74099">
        <ele>207.55112464071</ele>
        <time>2022-05-07T09:29:15.292Z</time>
      </trkpt>
      <trkpt lat="46.19715" lon="4.74104">
        <ele>207.22157711731</ele>
        <time>2022-05-07T09:29:15.782Z</time>
      </trkpt>
      <trkpt lat="46.19714" lon="4.74109">
        <ele>206.80525007518</ele>
        <time>2022-05-07T09:29:16.273Z</time>
      </trkpt>
      <trkpt lat="46.19713" lon="4.74113">
        <ele>206.30218450738</ele>
        <time>2022-05-07T09:29:16.764Z</time>
      </trkpt>
      <trkpt lat="46.1971" lon="4.74116">
        <ele>205.71949883835</ele>
        <time>2022-05-07T09:29:17.256Z</time>
      </trkpt>
      <trkpt lat="46.19708" lon="4.74118">
        <ele>205.05710622336</ele>
        <time>2022-05-07T09:29:17.749Z</time>
      </trkpt>
      <trkpt lat="46.19679" lon="4.74114">
        <ele>204.33927799753</ele>
        <time>2022-05-07T09:29:18.247Z</time>
      </trkpt>
      <trkpt lat="46.19664" lon="4.74119">
        <ele>203.54320892897</ele>
        <time>2022-05-07T09:29:18.748Z</time>
      </trkpt>
      <trkpt lat="46.1966" lon="4.7418">
        <ele>202.62322584552</ele>
        <time>2022-05-07T09:29:19.258Z</time>
      </trkpt>
      <trkpt lat="46.19659" lon="4.74185">
        <ele>201.71623961738</ele>
        <time>2022-05-07T09:29:19.769Z</time>
      </trkpt>
      <trkpt lat="46.19659" lon="4.74196">
        <ele>200.75526352534</ele>
        <time>2022-05-07T09:29:20.281Z</time>
      </trkpt>
      <trkpt lat="46.19628" lon="4.74194">
        <ele>199.6666703369</ele>
        <time>2022-05-07T09:29:20.799Z</time>
      </trkpt>
      <trkpt lat="46.19605" lon="4.74193">
        <ele>198.66919240156</ele>
        <time>2022-05-07T09:29:21.322Z</time>
      </trkpt>
      <trkpt lat="46.19599" lon="4.7426">
        <ele>197.43176206905</ele>
        <time>2022-05-07T09:29:21.854Z</time>
      </trkpt>
      <trkpt lat="46.19596" lon="4.74313">
        <ele>196.22674518184</ele>
        <time>2022-05-07T09:29:22.394Z</time>
      </trkpt>
      <trkpt lat="46.19592" lon="4.74366">
        <ele>195.09257720803</ele>
        <time>2022-05-07T09:29:22.941Z</time>
      </trkpt>
      <trkpt lat="46.19589" lon="4.74381">
        <ele>194.01942107629</ele>
        <time>2022-05-07T09:29:23.490Z</time>
      </trkpt>
      <trkpt lat="46.1958" lon="4.74378">
        <ele>193.03889868432</ele>
        <time>2022-05-07T09:29:24.041Z</time>
      </trkpt>
      <trkpt lat="46.19577" lon="4.74376">
        <ele>192.08359987485</ele>
        <time>2022-05-07T09:29:24.593Z</time>
      </trkpt>
      <trkpt lat="46.19573" lon="4.74373">
        <ele>191.15642794949</ele>
        <time>2022-05-07T09:29:25.146Z</time>
      </trkpt>
      <trkpt lat="46.1957" lon="4.74369">
        <ele>190.26224596603</ele>
        <time>2022-05-07T09:29:25.700Z</time>
      </trkpt>
      <trkpt lat="46.19566" lon="4.74365">
        <ele>189.38569457045</ele>
        <time>2022-05-07T09:29:26.255Z</time>
      </trkpt>
      <trkpt lat="46.1954" lon="4.74318">
        <ele>188.47598897165</ele>
        <time>2022-05-07T09:29:26.818Z</time>
      </trkpt>
      <trkpt lat="46.19537" lon="4.74314">
        <ele>187.66924198579</ele>
        <time>2022-05-07T09:29:27.382Z</time>
      </trkpt>
      <trkpt lat="46.19534" lon="4.74309">
        <ele>186.90877272109</ele>
        <time>2022-05-07T09:29:27.947Z</time>
      </trkpt>
      <trkpt lat="46.19531" lon="4.74305">
        <ele>186.1849758259</ele>
        <time>2022-05-07T09:29:28.512Z</time>
      </trkpt>
      <trkpt lat="46.19528" lon="4.74303">
        <ele>185.48985765242</ele>
        <time>2022-05-07T09:29:29.078Z</time>
      </trkpt>
      <trkpt lat="46.19524" lon="4.74304">
        <ele>184.81266692876</ele>
        <time>2022-05-07T09:29:29.645Z</time>
      </trkpt>
      <trkpt lat="46.19521" lon="4.74307">
        <ele>184.17096683586</ele>
        <time>2022-05-07T09:29:30.213Z</time>
      </trkpt>
      <trkpt lat="46.19518" lon="4.74311">
        <ele>183.56401344241</ele>
        <time>2022-05-07T09:29:30.782Z</time>
      </trkpt>
      <trkpt lat="46.19512" lon="4.7433">
        <ele>182.95214300725</ele>
        <time>2022-05-07T09:29:31.353Z</time>
      </trkpt>
      <trkpt lat="46.1951" lon="4.74337">
        <ele>182.43702390672</ele>
        <time>2022-05-07T09:29:31.925Z</time>
      </trkpt>
      <trkpt lat="46.19508" lon="4.74343">
        <ele>181.97067373151</ele>
        <time>2022-05-07T09:29:32.498Z</time>
      </trkpt>
      <trkpt lat="46.19502" lon="4.74355">
        <ele>181.51486661599</ele>
        <time>2022-05-07T09:29:33.073Z</time>
      </trkpt>
      <trkpt lat="46.19499" lon="4.74362">
        <ele>181.14006008769</ele>
        <time>2022-05-07T09:29:33.650Z</time>
      </trkpt>
      <trkpt lat="46.19471" lon="4.74469">
        <ele>180.63670440018</ele>
        <time>2022-05-07T09:29:34.242Z</time>
      </trkpt>
      <trkpt lat="46.19469" lon="4.74478">
        <ele>180.38583048326</ele>
        <time>2022-05-07T09:29:34.836Z</time>
      </trkpt>
      <trkpt lat="46.19468" lon="4.74485">
        <ele>180.2007502082</ele>
        <time>2022-05-07T09:29:35.431Z</time>
      </trkpt>
      <trkpt lat="46.19466" lon="4.74492">
        <ele>180.07719518861</ele>
        <time>2022-05-07T09:29:36.027Z</time>
      </trkpt>
      <trkpt lat="46.19464" lon="4.74498">
        <ele>180.01600272635</ele>
        <time>2022-05-07T09:29:36.624Z</time>
      </trkpt>
      <trkpt lat="46.1946" lon="4.74501">
        <ele>180.02694698144</ele>
        <time>2022-05-07T09:29:37.222Z</time>
      </trkpt>
      <trkpt lat="46.19456" lon="4.74502">
        <ele>180.09691377889</ele>
        <time>2022-05-07T09:29:37.820Z</time>
      </trkpt>
      <trkpt lat="46.1941" lon="4.74483">
        <ele>180.3478577009</ele>
        <time>2022-05-07T09:29:38.428Z</time>
      </trkpt>
      <trkpt lat="46.19399" lon="4.74457">
        <ele>180.56378132555</ele>
        <time>2022-05-07T09:29:39.040Z</time>
      </trkpt>
      <trkpt lat="46.19412" lon="4.74402">
        <ele>180.76734076753</ele>
        <time>2022-05-07T09:29:39.660Z</time>
      </trkpt>
      <trkpt lat="46.19413" lon="4.74365">
        <ele>180.99127520844</ele>
        <time>2022-05-07T09:29:40.286Z</time>
      </trkpt>
      <trkpt lat="46.19408" lon="4.74339">
        <ele>181.28345857817</ele>
        <time>2022-05-07T09:29:40.915Z</time>
      </trkpt>
      <trkpt lat="46.19391" lon="4.74304">
        <ele>181.572198944</ele>
        <time>2022-05-07T09:29:41.550Z</time>
      </trkpt>
      <trkpt lat="46.19358" lon="4.74277">
        <ele>181.84745946938</ele>
        <time>2022-05-07T09:29:42.193Z</time>
      </trkpt>
      <trkpt lat="46.19279" lon="4.7421">
        <ele>182.20220834191</ele>
        <time>2022-05-07T09:29:42.854Z</time>
      </trkpt>
      <trkpt lat="46.19271" lon="4.74198">
        <ele>182.47091684558</ele>
        <time>2022-05-07T09:29:43.517Z</time>
      </trkpt>
      <trkpt lat="46.19258" lon="4.74166">
        <ele>182.70897882453</ele>
        <time>2022-05-07T09:29:44.186Z</time>
      </trkpt>
      <trkpt lat="46.19256" lon="4.74147">
        <ele>182.93159643691</ele>
        <time>2022-05-07T09:29:44.857Z</time>
      </trkpt>
      <trkpt lat="46.19254" lon="4.74138">
        <ele>183.1367291279</ele>
        <time>2022-05-07T09:29:45.530Z</time>
      </trkpt>
      <trkpt lat="46.1923" lon="4.74063">
        <ele>183.23191495643</ele>
        <time>2022-05-07T09:29:46.214Z</time>
      </trkpt>
      <trkpt lat="46.19227" lon="4.74028">
        <ele>183.37419890569</ele>
        <time>2022-05-07T09:29:46.903Z</time>
      </trkpt>
      <trkpt lat="46.19232" lon="4.73993">
        <ele>183.57453844281</ele>
        <time>2022-05-07T09:29:47.597Z</time>
      </trkpt>
      <trkpt lat="46.19234" lon="4.73985">
        <ele>183.72372367653</ele>
        <time>2022-05-07T09:29:48.292Z</time>
      </trkpt>
      <trkpt lat="46.19219" lon="4.73971">
        <ele>183.90695551485</ele>
        <time>2022-05-07T09:29:48.991Z</time>
      </trkpt>
      <trkpt lat="46.19217" lon="4.73973">
        <ele>184.01648991415</ele>
        <time>2022-05-07T09:29:49.690Z</time>
      </trkpt>
      <trkpt lat="46.19211" lon="4.74024">
        <ele>184.00411665001</ele>
        <time>2022-05-07T09:29:50.396Z</time>
      </trkpt>
      <trkpt lat="46.1921" lon="4.74038">
        <ele>184.09938783313</ele>
        <time>2022-05-07T09:29:51.104Z</time>
      </trkpt>
      <trkpt lat="46.19222" lon="4.74105">
        <ele>184.29014012861</ele>
        <time>2022-05-07T09:29:51.822Z</time>
      </trkpt>
      <trkpt lat="46.19224" lon="4.74122">
        <ele>184.38035031726</ele>
        <time>2022-05-07T09:29:52.542Z</time>
      </trkpt>
      <trkpt lat="46.19223" lon="4.74163">
        <ele>184.45728463653</ele>
        <time>2022-05-07T09:29:53.268Z</time>
      </trkpt>
      <trkpt lat="46.19219" lon="4.74177">
        <ele>184.52147950242</ele>
        <time>2022-05-07T09:29:53.996Z</time>
      </trkpt>
      <trkpt lat="46.19218" lon="4.74183">
        <ele>184.62175448911</ele>
        <time>2022-05-07T09:29:54.725Z</time>
      </trkpt>
      <trkpt lat="46.19212" lon="4.74197">
        <ele>184.71278634294</ele>
        <time>2022-05-07T09:29:55.456Z</time>
      </trkpt>
      <trkpt lat="46.19209" lon="4.74203">
        <ele>184.85345541774</ele>
        <time>2022-05-07T09:29:56.188Z</time>
      </trkpt>
      <trkpt lat="46.19205" lon="4.74209">
        <ele>185.02790579931</ele>
        <time>2022-05-07T09:29:56.921Z</time>
      </trkpt>
      <trkpt lat="46.19201" lon="4.74214">
        <ele>185.23297092171</ele>
        <time>2022-05-07T09:29:57.655Z</time>
      </trkpt>
      <trkpt lat="46.19197" lon="4.74216">
        <ele>185.4713082031</ele>
        <time>2022-05-07T09:29:58.390Z</time>
      </trkpt>
      <trkpt lat="46.19192" lon="4.74218">
        <ele>185.74261418303</ele>
        <time>2022-05-07T09:29:59.126Z</time>
      </trkpt>
      <trkpt lat="46.19187" lon="4.74218">
        <ele>186.04980599318</ele>
        <time>2022-05-07T09:29:59.863Z</time>
      </trkpt>
      <trkpt lat="46.19084" lon="4.74218">
        <ele>186.65285096928</ele>
        <time>2022-05-07T09:30:00.621Z</time>
      </trkpt>
      <trkpt lat="46.18981" lon="4.74206">
        <ele>187.16189002778</ele>
        <time>2022-05-07T09:30:01.400Z</time>
      </trkpt>
      <trkpt lat="46.18884" lon="4.74195">
        <ele>187.54895534853</ele>
        <time>2022-05-07T09:30:02.198Z</time>
      </trkpt>
      <trkpt lat="46.18798" lon="4.74176">
        <ele>187.93130694072</ele>
        <time>2022-05-07T09:30:03.014Z</time>
      </trkpt>
      <trkpt lat="46.18773" lon="4.74168">
        <ele>188.34093935618</ele>
        <time>2022-05-07T09:30:03.835Z</time>
      </trkpt>
      <trkpt lat="46.18694" lon="4.74134">
        <ele>188.99102732379</ele>
        <time>2022-05-07T09:30:04.672Z</time>
      </trkpt>
      <trkpt lat="46.18653" lon="4.74111">
        <ele>189.5538175011</ele>
        <time>2022-05-07T09:30:05.518Z</time>
      </trkpt>
      <trkpt lat="46.18641" lon="4.74092">
        <ele>190.0730243261</ele>
        <time>2022-05-07T09:30:06.368Z</time>
      </trkpt>
      <trkpt lat="46.1867" lon="4.74056">
        <ele>190.59245439627</ele>
        <time>2022-05-07T09:30:07.225Z</time>
      </trkpt>
      <trkpt lat="46.18678" lon="4.74043">
        <ele>191.14463015231</ele>
        <time>2022-05-07T09:30:08.085Z</time>
      </trkpt>
      <trkpt lat="46.18686" lon="4.7403">
        <ele>191.70519956264</ele>
        <time>2022-05-07T09:30:08.947Z</time>
      </trkpt>
      <trkpt lat="46.1868" lon="4.74001">
        <ele>192.30876577736</ele>
        <time>2022-05-07T09:30:09.813Z</time>
      </trkpt>
      <trkpt lat="46.18613" lon="4.73999">
        <ele>192.98171523864</ele>
        <time>2022-05-07T09:30:10.693Z</time>
      </trkpt>
      <trkpt lat="46.18598" lon="4.73989">
        <ele>193.53666493324</ele>
        <time>2022-05-07T09:30:11.576Z</time>
      </trkpt>
      <trkpt lat="46.18607" lon="4.73945">
        <ele>194.01876413993</ele>
        <time>2022-05-07T09:30:12.465Z</time>
      </trkpt>
      <trkpt lat="46.18609" lon="4.73926">
        <ele>194.54917055399</ele>
        <time>2022-05-07T09:30:13.357Z</time>
      </trkpt>
      <trkpt lat="46.18609" lon="4.73896">
        <ele>195.090219134</ele>
        <time>2022-05-07T09:30:14.253Z</time>
      </trkpt>
      <trkpt lat="46.18607" lon="4.73886">
        <ele>195.63738228417</ele>
        <time>2022-05-07T09:30:15.151Z</time>
      </trkpt>
      <trkpt lat="46.18605" lon="4.73876">
        <ele>196.16924110522</ele>
        <time>2022-05-07T09:30:16.050Z</time>
      </trkpt>
      <trkpt lat="46.18592" lon="4.7383">
        <ele>196.7787720995</ele>
        <time>2022-05-07T09:30:16.956Z</time>
      </trkpt>
      <trkpt lat="46.18588" lon="4.73783">
        <ele>197.35147959918</ele>
        <time>2022-05-07T09:30:17.869Z</time>
      </trkpt>
      <trkpt lat="46.18587" lon="4.73755">
        <ele>197.89556618445</ele>
        <time>2022-05-07T09:30:18.785Z</time>
      </trkpt>
      <trkpt lat="46.18568" lon="4.73746">
        <ele>198.33113774344</ele>
        <time>2022-05-07T09:30:19.705Z</time>
      </trkpt>
      <trkpt lat="46.18527" lon="4.73727">
        <ele>198.6902743944</ele>
        <time>2022-05-07T09:30:20.634Z</time>
      </trkpt>
      <trkpt lat="46.18523" lon="4.73725">
        <ele>198.99662193697</ele>
        <time>2022-05-07T09:30:21.564Z</time>
      </trkpt>
      <trkpt lat="46.1852" lon="4.73721">
        <ele>199.26271320594</ele>
        <time>2022-05-07T09:30:22.495Z</time>
      </trkpt>
      <trkpt lat="46.18518" lon="4.73716">
        <ele>199.48870591945</ele>
        <time>2022-05-07T09:30:23.427Z</time>
      </trkpt>
      <trkpt lat="46.18516" lon="4.7371">
        <ele>199.6733814127</ele>
        <time>2022-05-07T09:30:24.359Z</time>
      </trkpt>
      <trkpt lat="46.18515" lon="4.73697">
        <ele>199.82871514687</ele>
        <time>2022-05-07T09:30:25.293Z</time>
      </trkpt>
      <trkpt lat="46.18512" lon="4.7365">
        <ele>200.03150290475</ele>
        <time>2022-05-07T09:30:26.234Z</time>
      </trkpt>
      <trkpt lat="46.18511" lon="4.73626">
        <ele>200.15421841351</ele>
        <time>2022-05-07T09:30:27.178Z</time>
      </trkpt>
      <trkpt lat="46.18513" lon="4.73586">
        <ele>200.27005179541</ele>
        <time>2022-05-07T09:30:28.128Z</time>
      </trkpt>
      <trkpt lat="46.18527" lon="4.73551">
        <ele>200.33071711899</ele>
        <time>2022-05-07T09:30:29.083Z</time>
      </trkpt>
      <trkpt lat="46.18527" lon="4.73532">
        <ele>200.3320518091</ele>
        <time>2022-05-07T09:30:30.041Z</time>
      </trkpt>
      <trkpt lat="46.18495" lon="4.73519">
        <ele>200.16617076241</ele>
        <time>2022-05-07T09:30:31.006Z</time>
      </trkpt>
      <trkpt lat="46.18432" lon="4.73509">
        <ele>199.85007577236</ele>
        <time>2022-05-07T09:30:31.983Z</time>
      </trkpt>
      <trkpt lat="46.18416" lon="4.73506">
        <ele>199.77695575093</ele>
        <time>2022-05-07T09:30:32.964Z</time>
      </trkpt>
      <trkpt lat="46.1841" lon="4.73505">
        <ele>199.73819126618</ele>
        <time>2022-05-07T09:30:33.946Z</time>
      </trkpt>
      <trkpt lat="46.18405" lon="4.73504">
        <ele>199.72838251627</ele>
        <time>2022-05-07T09:30:34.929Z</time>
      </trkpt>
      <trkpt lat="46.18401" lon="4.73503">
        <ele>199.74604877096</ele>
        <time>2022-05-07T09:30:35.913Z</time>
      </trkpt>
      <trkpt lat="46.18397" lon="4.73502">
        <ele>199.79817027661</ele>
        <time>2022-05-07T09:30:36.897Z</time>
      </trkpt>
      <trkpt lat="46.18395" lon="4.73501">
        <ele>199.89361857721</ele>
        <time>2022-05-07T09:30:37.882Z</time>
      </trkpt>
      <trkpt lat="46.1839" lon="4.73493">
        <ele>200.03994707055</ele>
        <time>2022-05-07T09:30:38.868Z</time>
      </trkpt>
      <trkpt lat="46.18415" lon="4.73444">
        <ele>200.27731271816</ele>
        <time>2022-05-07T09:30:39.863Z</time>
      </trkpt>
      <trkpt lat="46.18416" lon="4.73419">
        <ele>200.58685307217</ele>
        <time>2022-05-07T09:30:40.861Z</time>
      </trkpt>
      <trkpt lat="46.18405" lon="4.73391">
        <ele>200.91081405703</ele>
        <time>2022-05-07T09:30:41.864Z</time>
      </trkpt>
      <trkpt lat="46.1839" lon="4.73371">
        <ele>201.23335019279</ele>
        <time>2022-05-07T09:30:42.871Z</time>
      </trkpt>
      <trkpt lat="46.18377" lon="4.73365">
        <ele>201.57527851569</ele>
        <time>2022-05-07T09:30:43.881Z</time>
      </trkpt>
      <trkpt lat="46.1836" lon="4.73375">
        <ele>201.93949101818</ele>
        <time>2022-05-07T09:30:44.894Z</time>
      </trkpt>
      <trkpt lat="46.18355" lon="4.73393">
        <ele>202.31854481011</ele>
        <time>2022-05-07T09:30:45.910Z</time>
      </trkpt>
      <trkpt lat="46.18324" lon="4.7341">
        <ele>202.84462630913</ele>
        <time>2022-05-07T09:30:46.933Z</time>
      </trkpt>
      <trkpt lat="46.18297" lon="4.73401">
        <ele>203.43958768453</ele>
        <time>2022-05-07T09:30:47.961Z</time>
      </trkpt>
      <trkpt lat="46.18278" lon="4.73388">
        <ele>203.98238688699</ele>
        <time>2022-05-07T09:30:48.993Z</time>
      </trkpt>
      <trkpt lat="46.18244" lon="4.73343">
        <ele>204.57396402639</ele>
        <time>2022-05-07T09:30:50.035Z</time>
      </trkpt>
      <trkpt lat="46.18231" lon="4.73332">
        <ele>205.07093128393</ele>
        <time>2022-05-07T09:30:51.080Z</time>
      </trkpt>
      <trkpt lat="46.18186" lon="4.73309">
        <ele>205.57407714447</ele>
        <time>2022-05-07T09:30:52.134Z</time>
      </trkpt>
      <trkpt lat="46.1818" lon="4.73311">
        <ele>206.00691372529</ele>
        <time>2022-05-07T09:30:53.189Z</time>
      </trkpt>
      <trkpt lat="46.18165" lon="4.733">
        <ele>206.41603728953</ele>
        <time>2022-05-07T09:30:54.248Z</time>
      </trkpt>
      <trkpt lat="46.181" lon="4.7326">
        <ele>206.86237060599</ele>
        <time>2022-05-07T09:30:55.321Z</time>
      </trkpt>
      <trkpt lat="46.18085" lon="4.73249">
        <ele>207.15958743463</ele>
        <time>2022-05-07T09:30:56.397Z</time>
      </trkpt>
      <trkpt lat="46.1808" lon="4.73246">
        <ele>207.45227135425</ele>
        <time>2022-05-07T09:30:57.474Z</time>
      </trkpt>
      <trkpt lat="46.18066" lon="4.73218">
        <ele>207.70537566</ele>
        <time>2022-05-07T09:30:58.556Z</time>
      </trkpt>
      <trkpt lat="46.1805" lon="4.7321">
        <ele>207.91527593218</ele>
        <time>2022-05-07T09:30:59.641Z</time>
      </trkpt>
      <trkpt lat="46.18029" lon="4.73205">
        <ele>208.09739401354</ele>
        <time>2022-05-07T09:31:00.731Z</time>
      </trkpt>
      <trkpt lat="46.1797" lon="4.73207">
        <ele>208.27858437462</ele>
        <time>2022-05-07T09:31:01.833Z</time>
      </trkpt>
      <trkpt lat="46.17932" lon="4.73209">
        <ele>208.30655687493</ele>
        <time>2022-05-07T09:31:02.942Z</time>
      </trkpt>
      <trkpt lat="46.17922" lon="4.73207">
        <ele>208.32273814008</ele>
        <time>2022-05-07T09:31:04.053Z</time>
      </trkpt>
      <trkpt lat="46.17866" lon="4.732">
        <ele>208.27969523787</ele>
        <time>2022-05-07T09:31:05.175Z</time>
      </trkpt>
      <trkpt lat="46.17824" lon="4.73184">
        <ele>208.21017175909</ele>
        <time>2022-05-07T09:31:06.306Z</time>
      </trkpt>
      <trkpt lat="46.17768" lon="4.73157">
        <ele>208.09752566195</ele>
        <time>2022-05-07T09:31:07.449Z</time>
      </trkpt>
      <trkpt lat="46.17754" lon="4.73126">
        <ele>207.88648071107</ele>
        <time>2022-05-07T09:31:08.597Z</time>
      </trkpt>
      <trkpt lat="46.17751" lon="4.731">
        <ele>207.54683535066</ele>
        <time>2022-05-07T09:31:09.749Z</time>
      </trkpt>
      <trkpt lat="46.17731" lon="4.73099">
        <ele>207.19481945856</ele>
        <time>2022-05-07T09:31:10.905Z</time>
      </trkpt>
      <trkpt lat="46.17726" lon="4.731">
        <ele>206.76951699315</ele>
        <time>2022-05-07T09:31:12.062Z</time>
      </trkpt>
      <trkpt lat="46.17722" lon="4.731">
        <ele>206.27465808919</ele>
        <time>2022-05-07T09:31:13.220Z</time>
      </trkpt>
      <trkpt lat="46.17717" lon="4.73099">
        <ele>205.71715521907</ele>
        <time>2022-05-07T09:31:14.379Z</time>
      </trkpt>
      <trkpt lat="46.17713" lon="4.73097">
        <ele>205.09633964904</ele>
        <time>2022-05-07T09:31:15.538Z</time>
      </trkpt>
      <trkpt lat="46.1771" lon="4.73093">
        <ele>204.41043008739</ele>
        <time>2022-05-07T09:31:16.698Z</time>
      </trkpt>
      <trkpt lat="46.17693" lon="4.73044">
        <ele>203.62709574934</ele>
        <time>2022-05-07T09:31:17.866Z</time>
      </trkpt>
      <trkpt lat="46.17673" lon="4.72982">
        <ele>202.77838771849</ele>
        <time>2022-05-07T09:31:19.043Z</time>
      </trkpt>
      <trkpt lat="46.17652" lon="4.72927">
        <ele>201.82994075745</ele>
        <time>2022-05-07T09:31:20.229Z</time>
      </trkpt>
      <trkpt lat="46.17646" lon="4.72915">
        <ele>200.9818099226</ele>
        <time>2022-05-07T09:31:21.417Z</time>
      </trkpt>
      <trkpt lat="46.17638" lon="4.72895">
        <ele>200.10904279532</ele>
        <time>2022-05-07T09:31:22.608Z</time>
      </trkpt>
      <trkpt lat="46.17595" lon="4.72784">
        <ele>199.1447642741</ele>
        <time>2022-05-07T09:31:23.817Z</time>
      </trkpt>
      <trkpt lat="46.17586" lon="4.72753">
        <ele>198.46926100422</ele>
        <time>2022-05-07T09:31:25.031Z</time>
      </trkpt>
      <trkpt lat="46.17582" lon="4.72738">
        <ele>197.75984491607</ele>
        <time>2022-05-07T09:31:26.247Z</time>
      </trkpt>
      <trkpt lat="46.17569" lon="4.72719">
        <ele>197.0563774761</ele>
        <time>2022-05-07T09:31:27.467Z</time>
      </trkpt>
      <trkpt lat="46.17559" lon="4.72719">
        <ele>196.38479231138</ele>
        <time>2022-05-07T09:31:28.689Z</time>
      </trkpt>
      <trkpt lat="46.17511" lon="4.72699">
        <ele>195.63131340534</ele>
        <time>2022-05-07T09:31:29.921Z</time>
      </trkpt>
      <trkpt lat="46.175" lon="4.72696">
        <ele>195.11064354885</ele>
        <time>2022-05-07T09:31:31.155Z</time>
      </trkpt>
      <trkpt lat="46.17495" lon="4.72693">
        <ele>194.70293892785</ele>
        <time>2022-05-07T09:31:32.390Z</time>
      </trkpt>
      <trkpt lat="46.17491" lon="4.7269">
        <ele>194.39429487009</ele>
        <time>2022-05-07T09:31:33.626Z</time>
      </trkpt>
      <trkpt lat="46.17487" lon="4.72685">
        <ele>194.19399355031</ele>
        <time>2022-05-07T09:31:34.863Z</time>
      </trkpt>
      <trkpt lat="46.17485" lon="4.72679">
        <ele>194.10143424044</ele>
        <time>2022-05-07T09:31:36.101Z</time>
      </trkpt>
      <trkpt lat="46.17484" lon="4.72673">
        <ele>194.1161845189</ele>
        <time>2022-05-07T09:31:37.340Z</time>
      </trkpt>
      <trkpt lat="46.17482" lon="4.72667">
        <ele>194.23408068852</ele>
        <time>2022-05-07T09:31:38.580Z</time>
      </trkpt>
      <trkpt lat="46.17479" lon="4.72661">
        <ele>194.45343854346</ele>
        <time>2022-05-07T09:31:39.821Z</time>
      </trkpt>
      <trkpt lat="46.17454" lon="4.72638">
        <ele>194.78449322443</ele>
        <time>2022-05-07T09:31:41.068Z</time>
      </trkpt>
      <trkpt lat="46.17442" lon="4.7262">
        <ele>195.26316883781</ele>
        <time>2022-05-07T09:31:42.318Z</time>
      </trkpt>
      <trkpt lat="46.17436" lon="4.72607">
        <ele>195.78868531104</ele>
        <time>2022-05-07T09:31:43.570Z</time>
      </trkpt>
      <trkpt lat="46.17429" lon="4.72596">
        <ele>196.40241137331</ele>
        <time>2022-05-07T09:31:44.824Z</time>
      </trkpt>
      <trkpt lat="46.17411" lon="4.72575">
        <ele>197.13092072332</ele>
        <time>2022-05-07T09:31:46.083Z</time>
      </trkpt>
      <trkpt lat="46.17359" lon="4.72519">
        <ele>197.98633154647</ele>
        <time>2022-05-07T09:31:47.355Z</time>
      </trkpt>
      <trkpt lat="46.17328" lon="4.72496">
        <ele>198.8486714777</ele>
        <time>2022-05-07T09:31:48.634Z</time>
      </trkpt>
      <trkpt lat="46.17289" lon="4.72477">
        <ele>200.46004969306</ele>
        <time>2022-05-07T09:31:49.921Z</time>
      </trkpt>
      <trkpt lat="46.17212" lon="4.72439">
        <ele>201.31290315388</ele>
        <time>2022-05-07T09:31:51.224Z</time>
      </trkpt>
      <trkpt lat="46.17192" lon="4.72431">
        <ele>202.17000238092</ele>
        <time>2022-05-07T09:31:52.532Z</time>
      </trkpt>
      <trkpt lat="46.17107" lon="4.72399">
        <ele>203.26766543476</ele>
        <time>2022-05-07T09:31:53.857Z</time>
      </trkpt>
      <trkpt lat="46.17085" lon="4.72391">
        <ele>204.01153208529</ele>
        <time>2022-05-07T09:31:55.187Z</time>
      </trkpt>
      <trkpt lat="46.1708" lon="4.72388">
        <ele>204.67027281633</ele>
        <time>2022-05-07T09:31:56.518Z</time>
      </trkpt>
      <trkpt lat="46.17061" lon="4.72382">
        <ele>205.21937039959</ele>
        <time>2022-05-07T09:31:57.853Z</time>
      </trkpt>
      <trkpt lat="46.17036" lon="4.72376">
        <ele>205.69288906841</ele>
        <time>2022-05-07T09:31:59.193Z</time>
      </trkpt>
      <trkpt lat="46.17011" lon="4.7238">
        <ele>206.08766844496</ele>
        <time>2022-05-07T09:32:00.538Z</time>
      </trkpt>
      <trkpt lat="46.17001" lon="4.72377">
        <ele>206.48211957951</ele>
        <time>2022-05-07T09:32:01.885Z</time>
      </trkpt>
      <trkpt lat="46.16919" lon="4.72345">
        <ele>206.84503401544</ele>
        <time>2022-05-07T09:32:03.249Z</time>
      </trkpt>
      <trkpt lat="46.16911" lon="4.72341">
        <ele>207.07832003819</ele>
        <time>2022-05-07T09:32:04.614Z</time>
      </trkpt>
      <trkpt lat="46.16903" lon="4.72349">
        <ele>207.25420279704</ele>
        <time>2022-05-07T09:32:05.981Z</time>
      </trkpt>
      <trkpt lat="46.16908" lon="4.72434">
        <ele>207.45366279234</ele>
        <time>2022-05-07T09:32:07.360Z</time>
      </trkpt>
      <trkpt lat="46.16915" lon="4.72564">
        <ele>207.31851021563</ele>
        <time>2022-05-07T09:32:08.757Z</time>
      </trkpt>
      <trkpt lat="46.16923" lon="4.72602">
        <ele>207.32633322542</ele>
        <time>2022-05-07T09:32:10.160Z</time>
      </trkpt>
      <trkpt lat="46.16923" lon="4.72718">
        <ele>207.27786269271</ele>
        <time>2022-05-07T09:32:11.579Z</time>
      </trkpt>
      <trkpt lat="46.16915" lon="4.72743">
        <ele>207.16601052651</ele>
        <time>2022-05-07T09:32:13.002Z</time>
      </trkpt>
      <trkpt lat="46.16867" lon="4.7273">
        <ele>207.03903473884</ele>
        <time>2022-05-07T09:32:14.435Z</time>
      </trkpt>
      <trkpt lat="46.16863" lon="4.72726">
        <ele>206.91015530416</ele>
        <time>2022-05-07T09:32:15.869Z</time>
      </trkpt>
      <trkpt lat="46.16846" lon="4.72716">
        <ele>206.76090435404</ele>
        <time>2022-05-07T09:32:17.306Z</time>
      </trkpt>
      <trkpt lat="46.16827" lon="4.72711">
        <ele>206.57454964765</ele>
        <time>2022-05-07T09:32:18.747Z</time>
      </trkpt>
      <trkpt lat="46.16803" lon="4.7271">
        <ele>206.43134433736</ele>
        <time>2022-05-07T09:32:20.193Z</time>
      </trkpt>
      <trkpt lat="46.16788" lon="4.72714">
        <ele>206.25445202172</ele>
        <time>2022-05-07T09:32:21.642Z</time>
      </trkpt>
      <trkpt lat="46.1676" lon="4.72725">
        <ele>206.06920360146</ele>
        <time>2022-05-07T09:32:23.097Z</time>
      </trkpt>
      <trkpt lat="46.16738" lon="4.72734">
        <ele>205.80873807941</ele>
        <time>2022-05-07T09:32:24.556Z</time>
      </trkpt>
      <trkpt lat="46.1672" lon="4.72729">
        <ele>205.58779288181</ele>
        <time>2022-05-07T09:32:26.019Z</time>
      </trkpt>
      <trkpt lat="46.16629" lon="4.72694">
        <ele>205.46854052937</ele>
        <time>2022-05-07T09:32:27.501Z</time>
      </trkpt>
      <trkpt lat="46.16612" lon="4.72682">
        <ele>205.33945604958</ele>
        <time>2022-05-07T09:32:28.987Z</time>
      </trkpt>
      <trkpt lat="46.16612" lon="4.72653">
        <ele>205.2340309092</ele>
        <time>2022-05-07T09:32:30.477Z</time>
      </trkpt>
      <trkpt lat="46.16613" lon="4.72631">
        <ele>205.15468859504</ele>
        <time>2022-05-07T09:32:31.970Z</time>
      </trkpt>
      <trkpt lat="46.16617" lon="4.72528">
        <ele>205.08954834772</ele>
        <time>2022-05-07T09:32:33.477Z</time>
      </trkpt>
      <trkpt lat="46.16633" lon="4.72482">
        <ele>205.13854028975</ele>
        <time>2022-05-07T09:32:34.991Z</time>
      </trkpt>
      <trkpt lat="46.16659" lon="4.72397">
        <ele>205.20574813577</ele>
        <time>2022-05-07T09:32:36.518Z</time>
      </trkpt>
      <trkpt lat="46.16666" lon="4.72303">
        <ele>205.31152993906</ele>
        <time>2022-05-07T09:32:38.058Z</time>
      </trkpt>
      <trkpt lat="46.16673" lon="4.72197">
        <ele>205.28941065603</ele>
        <time>2022-05-07T09:32:39.613Z</time>
      </trkpt>
      <trkpt lat="46.16664" lon="4.72151">
        <ele>205.32618382717</ele>
        <time>2022-05-07T09:32:41.175Z</time>
      </trkpt>
      <trkpt lat="46.16663" lon="4.72099">
        <ele>205.57736893229</ele>
        <time>2022-05-07T09:32:42.744Z</time>
      </trkpt>
      <trkpt lat="46.16668" lon="4.72047">
        <ele>205.85246761636</ele>
        <time>2022-05-07T09:32:44.320Z</time>
      </trkpt>
      <trkpt lat="46.16676" lon="4.71976">
        <ele>206.00141535919</ele>
        <time>2022-05-07T09:32:45.906Z</time>
      </trkpt>
      <trkpt lat="46.16666" lon="4.71886">
        <ele>206.36294861221</ele>
        <time>2022-05-07T09:32:47.505Z</time>
      </trkpt>
      <trkpt lat="46.16661" lon="4.71863">
        <ele>206.62150814344</ele>
        <time>2022-05-07T09:32:49.107Z</time>
      </trkpt>
      <trkpt lat="46.16615" lon="4.71862">
        <ele>206.79667540507</ele>
        <time>2022-05-07T09:32:50.719Z</time>
      </trkpt>
      <trkpt lat="46.16605" lon="4.71862">
        <ele>207.01587921909</ele>
        <time>2022-05-07T09:32:52.333Z</time>
      </trkpt>
      <trkpt lat="46.16591" lon="4.71859">
        <ele>207.26197787345</ele>
        <time>2022-05-07T09:32:53.949Z</time>
      </trkpt>
      <trkpt lat="46.16566" lon="4.71844">
        <ele>207.53992256952</ele>
        <time>2022-05-07T09:32:55.571Z</time>
      </trkpt>
      <trkpt lat="46.16515" lon="4.7181">
        <ele>207.6920850806</ele>
        <time>2022-05-07T09:32:57.204Z</time>
      </trkpt>
      <trkpt lat="46.16457" lon="4.71769">
        <ele>208.13658580872</ele>
        <time>2022-05-07T09:32:58.850Z</time>
      </trkpt>
      <trkpt lat="46.16449" lon="4.71765">
        <ele>208.63393773035</ele>
        <time>2022-05-07T09:33:00.498Z</time>
      </trkpt>
      <trkpt lat="46.16432" lon="4.71762">
        <ele>209.18893219011</ele>
        <time>2022-05-07T09:33:02.149Z</time>
      </trkpt>
      <trkpt lat="46.16366" lon="4.71753">
        <ele>209.69053202397</ele>
        <time>2022-05-07T09:33:03.813Z</time>
      </trkpt>
      <trkpt lat="46.1633" lon="4.7178">
        <ele>210.4397977079</ele>
        <time>2022-05-07T09:33:05.485Z</time>
      </trkpt>
      <trkpt lat="46.16319" lon="4.71803">
        <ele>211.14219376058</ele>
        <time>2022-05-07T09:33:07.161Z</time>
      </trkpt>
      <trkpt lat="46.1631" lon="4.71819">
        <ele>211.92488765967</ele>
        <time>2022-05-07T09:33:08.840Z</time>
      </trkpt>
      <trkpt lat="46.16277" lon="4.71831">
        <ele>212.91596788986</ele>
        <time>2022-05-07T09:33:10.526Z</time>
      </trkpt>
      <trkpt lat="46.16272" lon="4.71827">
        <ele>213.81988943236</ele>
        <time>2022-05-07T09:33:12.213Z</time>
      </trkpt>
      <trkpt lat="46.16199" lon="4.71776">
        <ele>215.21776554792</ele>
        <time>2022-05-07T09:33:13.916Z</time>
      </trkpt>
      <trkpt lat="46.16181" lon="4.71767">
        <ele>216.18254657473</ele>
        <time>2022-05-07T09:33:15.623Z</time>
      </trkpt>
      <trkpt lat="46.16124" lon="4.71771">
        <ele>217.135459414</ele>
        <time>2022-05-07T09:33:17.342Z</time>
      </trkpt>
      <trkpt lat="46.16078" lon="4.71777">
        <ele>218.06410770549</ele>
        <time>2022-05-07T09:33:19.070Z</time>
      </trkpt>
      <trkpt lat="46.16023" lon="4.71778">
        <ele>219.07046515205</ele>
        <time>2022-05-07T09:33:20.809Z</time>
      </trkpt>
      <trkpt lat="46.15967" lon="4.71784">
        <ele>219.8434333126</ele>
        <time>2022-05-07T09:33:22.559Z</time>
      </trkpt>
      <trkpt lat="46.15899" lon="4.71773">
        <ele>220.74198831701</ele>
        <time>2022-05-07T09:33:24.323Z</time>
      </trkpt>
      <trkpt lat="46.15893" lon="4.71763">
        <ele>221.56235166756</ele>
        <time>2022-05-07T09:33:26.089Z</time>
      </trkpt>
      <trkpt lat="46.15913" lon="4.71704">
        <ele>222.37025013415</ele>
        <time>2022-05-07T09:33:27.864Z</time>
      </trkpt>
      <trkpt lat="46.15925" lon="4.71639">
        <ele>223.00319087518</ele>
        <time>2022-05-07T09:33:29.648Z</time>
      </trkpt>
      <trkpt lat="46.15924" lon="4.7163">
        <ele>223.69813891718</ele>
        <time>2022-05-07T09:33:31.433Z</time>
      </trkpt>
      <trkpt lat="46.15921" lon="4.71617">
        <ele>224.3491177271</ele>
        <time>2022-05-07T09:33:33.220Z</time>
      </trkpt>
      <trkpt lat="46.15913" lon="4.71573">
        <ele>224.98709754525</ele>
        <time>2022-05-07T09:33:35.014Z</time>
      </trkpt>
      <trkpt lat="46.15905" lon="4.71534">
        <ele>225.56448974303</ele>
        <time>2022-05-07T09:33:36.813Z</time>
      </trkpt>
      <trkpt lat="46.15895" lon="4.71501">
        <ele>226.06395919216</ele>
        <time>2022-05-07T09:33:38.617Z</time>
      </trkpt>
      <trkpt lat="46.15886" lon="4.71485">
        <ele>226.50573374567</ele>
        <time>2022-05-07T09:33:40.424Z</time>
      </trkpt>
      <trkpt lat="46.15875" lon="4.71468">
        <ele>226.89798026999</ele>
        <time>2022-05-07T09:33:42.234Z</time>
      </trkpt>
      <trkpt lat="46.15872" lon="4.71458">
        <ele>227.22695077695</ele>
        <time>2022-05-07T09:33:44.046Z</time>
      </trkpt>
      <trkpt lat="46.15864" lon="4.71441">
        <ele>227.4895618791</ele>
        <time>2022-05-07T09:33:45.861Z</time>
      </trkpt>
      <trkpt lat="46.15842" lon="4.71339">
        <ele>227.84327946741</ele>
        <time>2022-05-07T09:33:47.691Z</time>
      </trkpt>
      <trkpt lat="46.15838" lon="4.71245">
        <ele>227.98039868113</ele>
        <time>2022-05-07T09:33:49.534Z</time>
      </trkpt>
      <trkpt lat="46.15837" lon="4.71196">
        <ele>228.0101021075</ele>
        <time>2022-05-07T09:33:51.384Z</time>
      </trkpt>
      <trkpt lat="46.15834" lon="4.71082">
        <ele>228.01677498054</ele>
        <time>2022-05-07T09:33:53.249Z</time>
      </trkpt>
      <trkpt lat="46.15833" lon="4.71037">
        <ele>230.4</ele>
        <time>2022-05-07T09:33:55.117Z</time>
      </trkpt>
      <trkpt lat="46.1583" lon="4.70934">
        <ele>232.3</ele>
        <time>2022-05-07T09:33:56.991Z</time>
      </trkpt>
      <trkpt lat="46.1583" lon="4.70801">
        <ele>233.9</ele>
        <time>2022-05-07T09:33:58.869Z</time>
      </trkpt>
      <trkpt lat="46.15827" lon="4.70685">
        <ele>235.8</ele>
        <time>2022-05-07T09:34:00.751Z</time>
      </trkpt>
      <trkpt lat="46.15831" lon="4.70547">
        <ele>236.9</ele>
        <time>2022-05-07T09:34:02.657Z</time>
      </trkpt>
      <trkpt lat="46.15818" lon="4.70481">
        <ele>235.9</ele>
        <time>2022-05-07T09:34:04.583Z</time>
      </trkpt>
      <trkpt lat="46.15822" lon="4.70359">
        <ele>236.6</ele>
        <time>2022-05-07T09:34:06.531Z</time>
      </trkpt>
      <trkpt lat="46.15836" lon="4.70299">
        <ele>236.2</ele>
        <time>2022-05-07T09:34:08.493Z</time>
      </trkpt>
      <trkpt lat="46.15784" lon="4.7029">
        <ele>233.3</ele>
        <time>2022-05-07T09:34:10.459Z</time>
      </trkpt>
      <trkpt lat="46.15764" lon="4.70309">
        <ele>232.1</ele>
        <time>2022-05-07T09:34:12.428Z</time>
      </trkpt>
      <trkpt lat="46.15729" lon="4.70299">
        <ele>230.2</ele>
        <time>2022-05-07T09:34:14.402Z</time>
      </trkpt>
      <trkpt lat="46.15738" lon="4.70174">
        <ele>229.2</ele>
        <time>2022-05-07T09:34:16.377Z</time>
      </trkpt>
      <trkpt lat="46.15787" lon="4.70002">
        <ele>230.3</ele>
        <time>2022-05-07T09:34:18.359Z</time>
      </trkpt>
      <trkpt lat="46.15848" lon="4.69805">
        <ele>232.5</ele>
      </trkpt>
      <trkpt lat="46.15805" lon="4.69706">
        <ele>228.9</ele>
        <time>2022-05-07T09:34:20.348Z</time>
      </trkpt>
      <trkpt lat="46.15784" lon="4.69683">
        <ele>226.6</ele>
        <time>2022-05-07T09:34:22.343Z</time>
      </trkpt>
      <trkpt lat="46.1576" lon="4.69678">
        <ele>225.7</ele>
        <time>2022-05-07T09:34:24.352Z</time>
      </trkpt>
      <trkpt lat="46.15724" lon="4.69715">
        <ele>226.2</ele>
        <time>2022-05-07T09:34:26.376Z</time>
      </trkpt>
      <trkpt lat="46.15711" lon="4.69556">
        <ele>233</ele>
        <time>2022-05-07T09:34:28.409Z</time>
      </trkpt>
      <trkpt lat="46.15549" lon="4.69472">
        <ele>235.2</ele>
        <time>2022-05-07T09:34:30.443Z</time>
      </trkpt>
      <trkpt lat="46.15537" lon="4.694">
        <ele>236.9</ele>
        <time>2022-05-07T09:34:32.481Z</time>
      </trkpt>
      <trkpt lat="46.15579" lon="4.69189">
        <ele>241</ele>
      </trkpt>
      <trkpt lat="46.15445" lon="4.69078">
        <ele>244</ele>
        <time>2022-05-07T09:34:34.527Z</time>
      </trkpt>
      <trkpt lat="46.1535" lon="4.68962">
        <ele>246</ele>
        <time>2022-05-07T09:34:36.574Z</time>
      </trkpt>
      <trkpt lat="46.15243" lon="4.68863">
        <ele>246.7</ele>
      </trkpt>
      <trkpt lat="46.15198" lon="4.68824">
        <ele>247.3</ele>
        <time>2022-05-07T09:35:12.309Z</time>
      </trkpt>
      <trkpt lat="46.15118" lon="4.6882">
        <ele>248.8</ele>
        <time>2022-05-07T09:35:18.881Z</time>
      </trkpt>
      <trkpt lat="46.15041" lon="4.68846">
        <ele>248.1</ele>
        <time>2022-05-07T09:35:23.288Z</time>
      </trkpt>
      <trkpt lat="46.14913" lon="4.6879">
        <ele>251</ele>
        <time>2022-05-07T09:35:25.498Z</time>
      </trkpt>
      <trkpt lat="46.14821" lon="4.68777">
        <ele>251</ele>
        <time>2022-05-07T09:35:27.711Z</time>
      </trkpt>
      <trkpt lat="46.14696" lon="4.68885">
        <ele>246.3</ele>
        <time>2022-05-07T09:35:34.379Z</time>
      </trkpt>
      <trkpt lat="46.14663" lon="4.68966">
        <ele>243.3</ele>
      </trkpt>
      <trkpt lat="46.14618" lon="4.69013">
        <ele>241.5</ele>
        <time>2022-05-07T09:36:48.512Z</time>
      </trkpt>
      <trkpt lat="46.14568" lon="4.69078">
        <ele>239.2</ele>
        <time>2022-05-07T09:36:50.915Z</time>
      </trkpt>
      <trkpt lat="46.14504" lon="4.69129">
        <ele>233.6699722587</ele>
        <time>2022-05-07T09:36:53.329Z</time>
      </trkpt>
      <trkpt lat="46.14501" lon="4.69119">
        <ele>234.35325587359</ele>
        <time>2022-05-07T09:36:55.745Z</time>
      </trkpt>
      <trkpt lat="46.14498" lon="4.69121">
        <ele>235.02703020115</ele>
        <time>2022-05-07T09:36:58.162Z</time>
      </trkpt>
      <trkpt lat="46.14436" lon="4.69152">
        <ele>235.5857812901</ele>
        <time>2022-05-07T09:37:00.592Z</time>
      </trkpt>
      <trkpt lat="46.14372" lon="4.69185">
        <ele>236.09703932264</ele>
        <time>2022-05-07T09:37:03.035Z</time>
      </trkpt>
      <trkpt lat="46.14321" lon="4.69205">
        <ele>236.8706599045</ele>
        <time>2022-05-07T09:37:05.489Z</time>
      </trkpt>
      <trkpt lat="46.14302" lon="4.69204">
        <ele>237.67931307304</ele>
        <time>2022-05-07T09:37:07.947Z</time>
      </trkpt>
      <trkpt lat="46.14283" lon="4.69205">
        <ele>238.50002250333</ele>
        <time>2022-05-07T09:37:10.409Z</time>
      </trkpt>
      <trkpt lat="46.14256" lon="4.69194">
        <ele>239.3137220076</ele>
        <time>2022-05-07T09:37:12.876Z</time>
      </trkpt>
      <trkpt lat="46.14208" lon="4.69186">
        <ele>240.13915240278</ele>
        <time>2022-05-07T09:37:15.353Z</time>
      </trkpt>
      <trkpt lat="46.14143" lon="4.69187">
        <ele>240.929855205</ele>
        <time>2022-05-07T09:37:17.843Z</time>
      </trkpt>
      <trkpt lat="46.14123" lon="4.69174">
        <ele>241.63479436065</ele>
        <time>2022-05-07T09:37:20.337Z</time>
      </trkpt>
      <trkpt lat="46.14117" lon="4.69165">
        <ele>242.26884205184</ele>
        <time>2022-05-07T09:37:22.833Z</time>
      </trkpt>
      <trkpt lat="46.14104" lon="4.69142">
        <ele>242.88395992452</ele>
        <time>2022-05-07T09:37:25.333Z</time>
      </trkpt>
      <trkpt lat="46.14103" lon="4.69112">
        <ele>243.34016484319</ele>
        <time>2022-05-07T09:37:27.837Z</time>
      </trkpt>
      <trkpt lat="46.14102" lon="4.69092">
        <ele>243.78195589441</ele>
        <time>2022-05-07T09:37:30.344Z</time>
      </trkpt>
      <trkpt lat="46.14095" lon="4.69035">
        <ele>244.1697169875</ele>
        <time>2022-05-07T09:37:32.859Z</time>
      </trkpt>
      <trkpt lat="46.14075" lon="4.6903">
        <ele>244.52713659857</ele>
        <time>2022-05-07T09:37:35.378Z</time>
      </trkpt>
      <trkpt lat="46.14054" lon="4.69022">
        <ele>244.80719159663</ele>
        <time>2022-05-07T09:37:37.902Z</time>
      </trkpt>
      <trkpt lat="46.14014" lon="4.69016">
        <ele>245.0041090478</ele>
        <time>2022-05-07T09:37:40.434Z</time>
      </trkpt>
      <trkpt lat="46.13959" lon="4.69012">
        <ele>244.98550389044</ele>
        <time>2022-05-07T09:37:42.977Z</time>
      </trkpt>
      <trkpt lat="46.13876" lon="4.69007">
        <ele>244.7317098335</ele>
        <time>2022-05-07T09:37:45.536Z</time>
      </trkpt>
      <trkpt lat="46.13865" lon="4.68991">
        <ele>244.58329515261</ele>
        <time>2022-05-07T09:37:48.098Z</time>
      </trkpt>
      <trkpt lat="46.1387" lon="4.68973">
        <ele>244.4580682879</ele>
        <time>2022-05-07T09:37:50.663Z</time>
      </trkpt>
      <trkpt lat="46.13876" lon="4.68953">
        <ele>244.21176152086</ele>
        <time>2022-05-07T09:37:53.231Z</time>
      </trkpt>
      <trkpt lat="46.13894" lon="4.68906">
        <ele>244.00822908032</ele>
        <time>2022-05-07T09:37:55.807Z</time>
      </trkpt>
      <trkpt lat="46.13911" lon="4.68859">
        <ele>243.08903538814</ele>
        <time>2022-05-07T09:37:58.390Z</time>
      </trkpt>
      <trkpt lat="46.13913" lon="4.68849">
        <ele>242.45146681289</ele>
        <time>2022-05-07T09:38:00.974Z</time>
      </trkpt>
      <trkpt lat="46.13897" lon="4.68844">
        <ele>241.64943171297</ele>
        <time>2022-05-07T09:38:03.562Z</time>
      </trkpt>
      <trkpt lat="46.13879" lon="4.68836">
        <ele>240.75504250684</ele>
        <time>2022-05-07T09:38:06.153Z</time>
      </trkpt>
      <trkpt lat="46.13833" lon="4.68811">
        <ele>239.70558202822</ele>
        <time>2022-05-07T09:38:08.754Z</time>
      </trkpt>
      <trkpt lat="46.13825" lon="4.68792">
        <ele>238.72673690845</ele>
        <time>2022-05-07T09:38:11.358Z</time>
      </trkpt>
      <trkpt lat="46.13804" lon="4.68775">
        <ele>237.68075854159</ele>
        <time>2022-05-07T09:38:13.967Z</time>
      </trkpt>
      <trkpt lat="46.13754" lon="4.68745">
        <ele>236.45958333443</ele>
        <time>2022-05-07T09:38:16.587Z</time>
      </trkpt>
      <trkpt lat="46.1378" lon="4.6871">
        <ele>235.50893782847</ele>
        <time>2022-05-07T09:38:19.214Z</time>
      </trkpt>
      <trkpt lat="46.13802" lon="4.68666">
        <ele>234.38809907153</ele>
        <time>2022-05-07T09:38:21.849Z</time>
      </trkpt>
      <trkpt lat="46.1378" lon="4.68653">
        <ele>233.20625849579</ele>
        <time>2022-05-07T09:38:24.488Z</time>
      </trkpt>
      <trkpt lat="46.13748" lon="4.68652">
        <ele>231.96616553443</ele>
        <time>2022-05-07T09:38:27.134Z</time>
      </trkpt>
      <trkpt lat="46.13731" lon="4.68653">
        <ele>230.79227634519</ele>
        <time>2022-05-07T09:38:29.783Z</time>
      </trkpt>
      <trkpt lat="46.13668" lon="4.68659">
        <ele>229.44407759251</ele>
        <time>2022-05-07T09:38:32.445Z</time>
      </trkpt>
      <trkpt lat="46.13618" lon="4.68665">
        <ele>228.29531223816</ele>
        <time>2022-05-07T09:38:35.117Z</time>
      </trkpt>
      <trkpt lat="46.13612" lon="4.68665">
        <ele>227.36158072976</ele>
        <time>2022-05-07T09:38:37.790Z</time>
      </trkpt>
      <trkpt lat="46.13577" lon="4.68666">
        <ele>226.44960268108</ele>
        <time>2022-05-07T09:38:40.470Z</time>
      </trkpt>
      <trkpt lat="46.13567" lon="4.68668">
        <ele>225.72338097067</ele>
        <time>2022-05-07T09:38:43.152Z</time>
      </trkpt>
      <trkpt lat="46.1356" lon="4.68672">
        <ele>225.1121518334</ele>
        <time>2022-05-07T09:38:45.836Z</time>
      </trkpt>
      <trkpt lat="46.1353" lon="4.68658">
        <ele>224.62957458697</ele>
        <time>2022-05-07T09:38:48.526Z</time>
      </trkpt>
      <trkpt lat="46.13504" lon="4.68646">
        <ele>224.32363378054</ele>
        <time>2022-05-07T09:38:51.221Z</time>
      </trkpt>
      <trkpt lat="46.13496" lon="4.687">
        <ele>224.0694630859</ele>
        <time>2022-05-07T09:38:53.924Z</time>
      </trkpt>
      <trkpt lat="46.13495" lon="4.68765">
        <ele>224.12548910508</ele>
        <time>2022-05-07T09:38:56.636Z</time>
      </trkpt>
      <trkpt lat="46.13482" lon="4.68849">
        <ele>224.22022108226</ele>
        <time>2022-05-07T09:38:59.360Z</time>
      </trkpt>
      <trkpt lat="46.13458" lon="4.68844">
        <ele>224.55348611901</ele>
        <time>2022-05-07T09:39:02.089Z</time>
      </trkpt>
      <trkpt lat="46.13419" lon="4.68837">
        <ele>225.03951843527</ele>
        <time>2022-05-07T09:39:04.826Z</time>
      </trkpt>
      <trkpt lat="46.1337" lon="4.68817">
        <ele>225.84766578659</ele>
        <time>2022-05-07T09:39:07.573Z</time>
      </trkpt>
      <trkpt lat="46.13311" lon="4.68799">
        <ele>226.90719397855</ele>
        <time>2022-05-07T09:39:10.332Z</time>
      </trkpt>
      <trkpt lat="46.13309" lon="4.68865">
        <ele>227.74098712651</ele>
        <time>2022-05-07T09:39:13.100Z</time>
      </trkpt>
      <trkpt lat="46.1328" lon="4.68882">
        <ele>228.84268843218</ele>
        <time>2022-05-07T09:39:15.874Z</time>
      </trkpt>
      <trkpt lat="46.13205" lon="4.6886">
        <ele>230.39935428999</ele>
        <time>2022-05-07T09:39:18.664Z</time>
      </trkpt>
      <trkpt lat="46.13193" lon="4.68755">
        <ele>232.05538686303</ele>
        <time>2022-05-07T09:39:21.469Z</time>
      </trkpt>
      <trkpt lat="46.13193" lon="4.68683">
        <ele>233.59793194887</ele>
        <time>2022-05-07T09:39:24.284Z</time>
      </trkpt>
      <trkpt lat="46.13204" lon="4.68615">
        <ele>235.24242278499</ele>
        <time>2022-05-07T09:39:27.108Z</time>
      </trkpt>
      <trkpt lat="46.13214" lon="4.68534">
        <ele>236.89888632356</ele>
        <time>2022-05-07T09:39:29.944Z</time>
      </trkpt>
      <trkpt lat="46.13211" lon="4.68497">
        <ele>238.47705934122</ele>
        <time>2022-05-07T09:39:32.785Z</time>
      </trkpt>
      <trkpt lat="46.13236" lon="4.68461">
        <ele>240.12610248756</ele>
        <time>2022-05-07T09:39:35.633Z</time>
      </trkpt>
      <trkpt lat="46.13254" lon="4.68421">
        <ele>241.70263106237</ele>
        <time>2022-05-07T09:39:38.488Z</time>
      </trkpt>
      <trkpt lat="46.13268" lon="4.68367">
        <ele>243.3108825088</ele>
        <time>2022-05-07T09:39:41.351Z</time>
      </trkpt>
      <trkpt lat="46.13286" lon="4.68295">
        <ele>244.93741675773</ele>
        <time>2022-05-07T09:39:44.224Z</time>
      </trkpt>
      <trkpt lat="46.133" lon="4.68231">
        <ele>246.60624836134</ele>
        <time>2022-05-07T09:39:47.107Z</time>
      </trkpt>
      <trkpt lat="46.13317" lon="4.6819">
        <ele>248.21578894851</ele>
        <time>2022-05-07T09:39:49.996Z</time>
      </trkpt>
      <trkpt lat="46.13323" lon="4.68165">
        <ele>249.71858567813</ele>
        <time>2022-05-07T09:39:52.889Z</time>
      </trkpt>
      <trkpt lat="46.13333" lon="4.68106">
        <ele>251.28876433907</ele>
        <time>2022-05-07T09:39:55.790Z</time>
      </trkpt>
      <trkpt lat="46.13347" lon="4.68079">
        <ele>252.738292771</ele>
        <time>2022-05-07T09:39:58.696Z</time>
      </trkpt>
      <trkpt lat="46.13367" lon="4.68049">
        <ele>254.11034344742</ele>
        <time>2022-05-07T09:40:01.608Z</time>
      </trkpt>
      <trkpt lat="46.13417" lon="4.67908">
        <ele>255.63361355851</ele>
        <time>2022-05-07T09:40:04.542Z</time>
      </trkpt>
      <trkpt lat="46.1342" lon="4.6789">
        <ele>256.97651218393</ele>
        <time>2022-05-07T09:40:07.478Z</time>
      </trkpt>
      <trkpt lat="46.13443" lon="4.67801">
        <ele>258.26049973507</ele>
        <time>2022-05-07T09:40:10.428Z</time>
      </trkpt>
      <trkpt lat="46.13445" lon="4.67793">
        <ele>259.47913535623</ele>
        <time>2022-05-07T09:40:13.379Z</time>
      </trkpt>
      <trkpt lat="46.1347" lon="4.67657">
        <ele>260.87141379948</ele>
        <time>2022-05-07T09:40:16.349Z</time>
      </trkpt>
      <trkpt lat="46.13491" lon="4.67568">
        <ele>262.10639026498</ele>
        <time>2022-05-07T09:40:19.333Z</time>
      </trkpt>
      <trkpt lat="46.13496" lon="4.67524">
        <ele>263.1911968604</ele>
        <time>2022-05-07T09:40:22.323Z</time>
      </trkpt>
      <trkpt lat="46.13528" lon="4.67487">
        <ele>264.2386862926</ele>
        <time>2022-05-07T09:40:25.321Z</time>
      </trkpt>
      <trkpt lat="46.13605" lon="4.67388">
        <ele>265.3433873332</ele>
        <time>2022-05-07T09:40:28.340Z</time>
      </trkpt>
      <trkpt lat="46.13673" lon="4.67303">
        <ele>266.40634259621</ele>
        <time>2022-05-07T09:40:31.377Z</time>
      </trkpt>
      <trkpt lat="46.13742" lon="4.67226">
        <ele>267.31913261737</ele>
        <time>2022-05-07T09:40:34.431Z</time>
      </trkpt>
      <trkpt lat="46.1377" lon="4.67199">
        <ele>268.23907416093</ele>
        <time>2022-05-07T09:40:37.492Z</time>
      </trkpt>
      <trkpt lat="46.13806" lon="4.67174">
        <ele>269.0787688841</ele>
        <time>2022-05-07T09:40:40.561Z</time>
      </trkpt>
      <trkpt lat="46.13901" lon="4.67097">
        <ele>270.14259726053</ele>
        <time>2022-05-07T09:40:43.652Z</time>
      </trkpt>
      <trkpt lat="46.13912" lon="4.67086">
        <ele>270.95252161066</ele>
        <time>2022-05-07T09:40:46.745Z</time>
      </trkpt>
      <trkpt lat="46.13914" lon="4.67072">
        <ele>271.70814467095</ele>
        <time>2022-05-07T09:40:49.840Z</time>
      </trkpt>
      <trkpt lat="46.13938" lon="4.6696">
        <ele>272.37666866856</ele>
        <time>2022-05-07T09:40:52.952Z</time>
      </trkpt>
      <trkpt lat="46.1393" lon="4.6692">
        <ele>273.13593697706</ele>
        <time>2022-05-07T09:40:56.069Z</time>
      </trkpt>
      <trkpt lat="46.139" lon="4.66855">
        <ele>273.86818017916</ele>
        <time>2022-05-07T09:40:59.197Z</time>
      </trkpt>
      <trkpt lat="46.13896" lon="4.66833">
        <ele>274.62332951519</ele>
        <time>2022-05-07T09:41:02.328Z</time>
      </trkpt>
      <trkpt lat="46.13886" lon="4.66789">
        <ele>275.35104093641</ele>
        <time>2022-05-07T09:41:05.466Z</time>
      </trkpt>
      <trkpt lat="46.13879" lon="4.66752">
        <ele>276.09594881409</ele>
        <time>2022-05-07T09:41:08.609Z</time>
      </trkpt>
      <trkpt lat="46.13861" lon="4.66702">
        <ele>276.93915380207</ele>
        <time>2022-05-07T09:41:11.760Z</time>
      </trkpt>
      <trkpt lat="46.13857" lon="4.6667">
        <ele>277.80060838476</ele>
        <time>2022-05-07T09:41:14.916Z</time>
      </trkpt>
      <trkpt lat="46.13853" lon="4.66656">
        <ele>278.65400197134</ele>
        <time>2022-05-07T09:41:18.074Z</time>
      </trkpt>
      <trkpt lat="46.13852" lon="4.66633">
        <ele>279.54008124779</ele>
        <time>2022-05-07T09:41:21.235Z</time>
      </trkpt>
      <trkpt lat="46.13857" lon="4.6661">
        <ele>280.46101592437</ele>
        <time>2022-05-07T09:41:24.399Z</time>
      </trkpt>
      <trkpt lat="46.13885" lon="4.6654">
        <ele>281.58058473027</ele>
        <time>2022-05-07T09:41:27.574Z</time>
      </trkpt>
      <trkpt lat="46.13897" lon="4.66515">
        <ele>282.56970424155</ele>
        <time>2022-05-07T09:41:30.754Z</time>
      </trkpt>
      <trkpt lat="46.13985" lon="4.66457">
        <ele>283.80800331658</ele>
        <time>2022-05-07T09:41:33.953Z</time>
      </trkpt>
      <trkpt lat="46.14004" lon="4.66429">
        <ele>284.86756956614</ele>
        <time>2022-05-07T09:41:37.157Z</time>
      </trkpt>
      <trkpt lat="46.14009" lon="4.66394">
        <ele>285.99464031271</ele>
        <time>2022-05-07T09:41:40.366Z</time>
      </trkpt>
      <trkpt lat="46.14011" lon="4.66378">
        <ele>287.04537117839</ele>
        <time>2022-05-07T09:41:43.578Z</time>
      </trkpt>
      <trkpt lat="46.14012" lon="4.66364">
        <ele>288.11178722352</ele>
        <time>2022-05-07T09:41:46.792Z</time>
      </trkpt>
      <trkpt lat="46.1402" lon="4.66324">
        <ele>289.16941170753</ele>
        <time>2022-05-07T09:41:50.011Z</time>
      </trkpt>
      <trkpt lat="46.14029" lon="4.66276">
        <ele>290.23072881731</ele>
        <time>2022-05-07T09:41:53.237Z</time>
      </trkpt>
      <trkpt lat="46.14034" lon="4.6625">
        <ele>291.28659829924</ele>
        <time>2022-05-07T09:41:56.467Z</time>
      </trkpt>
      <trkpt lat="46.14052" lon="4.66184">
        <ele>292.40334361633</ele>
        <time>2022-05-07T09:41:59.707Z</time>
      </trkpt>
      <trkpt lat="46.14057" lon="4.66144">
        <ele>293.4931686544</ele>
        <time>2022-05-07T09:42:02.953Z</time>
      </trkpt>
      <trkpt lat="46.14073" lon="4.66005">
        <ele>294.53501900721</ele>
        <time>2022-05-07T09:42:06.218Z</time>
      </trkpt>
      <trkpt lat="46.14084" lon="4.65987">
        <ele>295.53476769163</ele>
        <time>2022-05-07T09:42:09.487Z</time>
      </trkpt>
      <trkpt lat="46.14111" lon="4.65996">
        <ele>296.65202780677</ele>
        <time>2022-05-07T09:42:12.761Z</time>
      </trkpt>
      <trkpt lat="46.14119" lon="4.65991">
        <ele>297.6278449786</ele>
        <time>2022-05-07T09:42:16.037Z</time>
      </trkpt>
      <trkpt lat="46.1412" lon="4.65942">
        <ele>298.45718961747</ele>
        <time>2022-05-07T09:42:19.320Z</time>
      </trkpt>
      <trkpt lat="46.14121" lon="4.65927">
        <ele>299.30558720021</ele>
        <time>2022-05-07T09:42:22.605Z</time>
      </trkpt>
      <trkpt lat="46.14126" lon="4.65922">
        <ele>300.1663819057</ele>
        <time>2022-05-07T09:42:25.891Z</time>
      </trkpt>
      <trkpt lat="46.14167" lon="4.65938">
        <ele>301.09409652531</ele>
        <time>2022-05-07T09:42:29.185Z</time>
      </trkpt>
      <trkpt lat="46.14187" lon="4.65948">
        <ele>301.90675400553</ele>
        <time>2022-05-07T09:42:32.484Z</time>
      </trkpt>
      <trkpt lat="46.14211" lon="4.65961">
        <ele>302.74989768151</ele>
        <time>2022-05-07T09:42:35.788Z</time>
      </trkpt>
      <trkpt lat="46.14254" lon="4.6598">
        <ele>303.68838373983</ele>
        <time>2022-05-07T09:42:39.101Z</time>
      </trkpt>
      <trkpt lat="46.14262" lon="4.65988">
        <ele>304.30194493189</ele>
        <time>2022-05-07T09:42:42.416Z</time>
      </trkpt>
      <trkpt lat="46.14261" lon="4.65996">
        <ele>304.79632626184</ele>
        <time>2022-05-07T09:42:45.732Z</time>
      </trkpt>
      <trkpt lat="46.14269" lon="4.65996">
        <ele>305.21007148888</ele>
        <time>2022-05-07T09:42:49.050Z</time>
      </trkpt>
      <trkpt lat="46.14324" lon="4.65957">
        <ele>305.57109010715</ele>
        <time>2022-05-07T09:42:52.380Z</time>
      </trkpt>
      <trkpt lat="46.14364" lon="4.65955">
        <ele>305.87090167635</ele>
        <time>2022-05-07T09:42:55.718Z</time>
      </trkpt>
      <trkpt lat="46.14407" lon="4.65957">
        <ele>305.9600440998</ele>
        <time>2022-05-07T09:42:59.064Z</time>
      </trkpt>
      <trkpt lat="46.14417" lon="4.6596">
        <ele>305.97940477848</ele>
        <time>2022-05-07T09:43:02.412Z</time>
      </trkpt>
      <trkpt lat="46.14494" lon="4.6597">
        <ele>305.68118102131</ele>
        <time>2022-05-07T09:43:05.776Z</time>
      </trkpt>
      <trkpt lat="46.14513" lon="4.6598">
        <ele>305.56177666883</ele>
        <time>2022-05-07T09:43:09.144Z</time>
      </trkpt>
      <trkpt lat="46.14525" lon="4.65994">
        <ele>305.43690749612</ele>
        <time>2022-05-07T09:43:12.515Z</time>
      </trkpt>
      <trkpt lat="46.14586" lon="4.66073">
        <ele>305.32163014382</ele>
        <time>2022-05-07T09:43:15.902Z</time>
      </trkpt>
      <trkpt lat="46.14594" lon="4.66081">
        <ele>305.14760261021</ele>
        <time>2022-05-07T09:43:19.291Z</time>
      </trkpt>
      <trkpt lat="46.14602" lon="4.66091">
        <ele>304.96078521524</ele>
        <time>2022-05-07T09:43:22.683Z</time>
      </trkpt>
      <trkpt lat="46.14619" lon="4.66104">
        <ele>304.74331544187</ele>
        <time>2022-05-07T09:43:26.078Z</time>
      </trkpt>
      <trkpt lat="46.14636" lon="4.66099">
        <ele>304.57997617555</ele>
        <time>2022-05-07T09:43:29.477Z</time>
      </trkpt>
      <trkpt lat="46.14681" lon="4.66101">
        <ele>304.36702274644</ele>
        <time>2022-05-07T09:43:32.885Z</time>
      </trkpt>
      <trkpt lat="46.14695" lon="4.66095">
        <ele>304.24093002567</ele>
        <time>2022-05-07T09:43:36.296Z</time>
      </trkpt>
      <trkpt lat="46.1472" lon="4.66018">
        <ele>304.08941931071</ele>
        <time>2022-05-07T09:43:39.719Z</time>
      </trkpt>
      <trkpt lat="46.14727" lon="4.65973">
        <ele>304.03370017918</ele>
        <time>2022-05-07T09:43:43.148Z</time>
      </trkpt>
      <trkpt lat="46.14721" lon="4.65897">
        <ele>304.06951195127</ele>
        <time>2022-05-07T09:43:46.588Z</time>
      </trkpt>
      <trkpt lat="46.14695" lon="4.65829">
        <ele>304.1604365069</ele>
        <time>2022-05-07T09:43:50.038Z</time>
      </trkpt>
      <trkpt lat="46.14688" lon="4.65776">
        <ele>304.4445258527</ele>
        <time>2022-05-07T09:43:53.496Z</time>
      </trkpt>
      <trkpt lat="46.14685" lon="4.65711">
        <ele>304.72632673487</ele>
        <time>2022-05-07T09:43:56.963Z</time>
      </trkpt>
      <trkpt lat="46.14689" lon="4.65684">
        <ele>305.14481317853</ele>
        <time>2022-05-07T09:44:00.434Z</time>
      </trkpt>
      <trkpt lat="46.14701" lon="4.65691">
        <ele>305.60424409462</ele>
        <time>2022-05-07T09:44:03.907Z</time>
      </trkpt>
      <trkpt lat="46.14743" lon="4.65725">
        <ele>306.31975729198</ele>
        <time>2022-05-07T09:44:07.390Z</time>
      </trkpt>
      <trkpt lat="46.14758" lon="4.65739">
        <ele>306.9518739192</ele>
        <time>2022-05-07T09:44:10.877Z</time>
      </trkpt>
      <trkpt lat="46.14789" lon="4.65782">
        <ele>307.65918847704</ele>
        <time>2022-05-07T09:44:14.372Z</time>
      </trkpt>
      <trkpt lat="46.14796" lon="4.65788">
        <ele>308.37366071326</ele>
        <time>2022-05-07T09:44:17.869Z</time>
      </trkpt>
      <trkpt lat="46.14822" lon="4.65809">
        <ele>309.19411727562</ele>
        <time>2022-05-07T09:44:21.372Z</time>
      </trkpt>
      <trkpt lat="46.14887" lon="4.65857">
        <ele>309.98642802691</ele>
        <time>2022-05-07T09:44:24.890Z</time>
      </trkpt>
      <trkpt lat="46.14908" lon="4.6587">
        <ele>310.80483516</ele>
        <time>2022-05-07T09:44:28.412Z</time>
      </trkpt>
      <trkpt lat="46.14925" lon="4.65878">
        <ele>311.7203156473</ele>
        <time>2022-05-07T09:44:31.938Z</time>
      </trkpt>
      <trkpt lat="46.14945" lon="4.65917">
        <ele>312.69331875946</ele>
        <time>2022-05-07T09:44:35.470Z</time>
      </trkpt>
      <trkpt lat="46.14963" lon="4.65936">
        <ele>313.72019630882</ele>
        <time>2022-05-07T09:44:39.007Z</time>
      </trkpt>
      <trkpt lat="46.1498" lon="4.65947">
        <ele>314.77649312631</ele>
        <time>2022-05-07T09:44:42.548Z</time>
      </trkpt>
      <trkpt lat="46.14984" lon="4.65949">
        <ele>315.83039134203</ele>
        <time>2022-05-07T09:44:46.089Z</time>
      </trkpt>
      <trkpt lat="46.14989" lon="4.65951">
        <ele>316.90688204136</ele>
        <time>2022-05-07T09:44:49.631Z</time>
      </trkpt>
      <trkpt lat="46.15001" lon="4.65951">
        <ele>318.00606182895</ele>
        <time>2022-05-07T09:44:53.176Z</time>
      </trkpt>
      <trkpt lat="46.15006" lon="4.65949">
        <ele>319.07591754888</ele>
        <time>2022-05-07T09:44:56.722Z</time>
      </trkpt>
      <trkpt lat="46.15042" lon="4.65937">
        <ele>320.25464139193</ele>
        <time>2022-05-07T09:45:00.275Z</time>
      </trkpt>
      <trkpt lat="46.15077" lon="4.65943">
        <ele>321.48063654977</ele>
        <time>2022-05-07T09:45:03.835Z</time>
      </trkpt>
      <trkpt lat="46.15117" lon="4.65975">
        <ele>322.71749463015</ele>
        <time>2022-05-07T09:45:07.405Z</time>
      </trkpt>
      <trkpt lat="46.15174" lon="4.66017">
        <ele>323.72234478435</ele>
        <time>2022-05-07T09:45:10.987Z</time>
      </trkpt>
      <trkpt lat="46.15237" lon="4.66055">
        <ele>324.52674032531</ele>
        <time>2022-05-07T09:45:14.583Z</time>
      </trkpt>
      <trkpt lat="46.15259" lon="4.66068">
        <ele>325.30512722929</ele>
        <time>2022-05-07T09:45:18.184Z</time>
      </trkpt>
      <trkpt lat="46.15286" lon="4.6607">
        <ele>326.02606671773</ele>
        <time>2022-05-07T09:45:21.790Z</time>
      </trkpt>
      <trkpt lat="46.15381" lon="4.6607">
        <ele>326.82722338146</ele>
        <time>2022-05-07T09:45:25.415Z</time>
      </trkpt>
      <trkpt lat="46.15419" lon="4.66072">
        <ele>327.42286929468</ele>
        <time>2022-05-07T09:45:29.048Z</time>
      </trkpt>
      <trkpt lat="46.15458" lon="4.66073">
        <ele>327.7944002715</ele>
        <time>2022-05-07T09:45:32.689Z</time>
      </trkpt>
      <trkpt lat="46.15465" lon="4.66065">
        <ele>328.06626082997</ele>
        <time>2022-05-07T09:45:36.331Z</time>
      </trkpt>
      <trkpt lat="46.15457" lon="4.66047">
        <ele>328.20588664426</ele>
        <time>2022-05-07T09:45:39.976Z</time>
      </trkpt>
      <trkpt lat="46.15423" lon="4.65977">
        <ele>328.20244206469</ele>
        <time>2022-05-07T09:45:43.633Z</time>
      </trkpt>
      <trkpt lat="46.15414" lon="4.65959">
        <ele>328.04126792984</ele>
        <time>2022-05-07T09:45:47.293Z</time>
      </trkpt>
      <trkpt lat="46.15408" lon="4.65947">
        <ele>327.77168257871</ele>
        <time>2022-05-07T09:45:50.955Z</time>
      </trkpt>
      <trkpt lat="46.15357" lon="4.65874">
        <ele>327.18806600786</ele>
        <time>2022-05-07T09:45:54.632Z</time>
      </trkpt>
      <trkpt lat="46.15354" lon="4.65868">
        <ele>326.72834541016</ele>
        <time>2022-05-07T09:45:58.310Z</time>
      </trkpt>
      <trkpt lat="46.15295" lon="4.65766">
        <ele>326.0391279042</ele>
        <time>2022-05-07T09:46:02.006Z</time>
      </trkpt>
      <trkpt lat="46.15251" lon="4.65689">
        <ele>325.38858088496</ele>
        <time>2022-05-07T09:46:05.716Z</time>
      </trkpt>
      <trkpt lat="46.15214" lon="4.65626">
        <ele>324.82572753832</ele>
        <time>2022-05-07T09:46:09.438Z</time>
      </trkpt>
      <trkpt lat="46.15203" lon="4.65597">
        <ele>324.15402816151</ele>
        <time>2022-05-07T09:46:13.164Z</time>
      </trkpt>
      <trkpt lat="46.152" lon="4.65574">
        <ele>323.48916785487</ele>
        <time>2022-05-07T09:46:16.893Z</time>
      </trkpt>
      <trkpt lat="46.15192" lon="4.6546">
        <ele>322.87228348593</ele>
        <time>2022-05-07T09:46:20.638Z</time>
      </trkpt>
      <trkpt lat="46.15185" lon="4.65334">
        <ele>327.4</ele>
        <time>2022-05-07T09:46:24.398Z</time>
      </trkpt>
      <trkpt lat="46.1524" lon="4.65313">
        <ele>329.8</ele>
        <time>2022-05-07T09:46:28.169Z</time>
      </trkpt>
      <trkpt lat="46.15307" lon="4.65296">
        <ele>332.7</ele>
        <time>2022-05-07T09:46:31.941Z</time>
      </trkpt>
      <trkpt lat="46.15361" lon="4.65279">
        <ele>335</ele>
        <time>2022-05-07T09:46:35.723Z</time>
      </trkpt>
      <trkpt lat="46.15417" lon="4.65282">
        <ele>337.9</ele>
      </trkpt>
      <trkpt lat="46.15426" lon="4.65208">
        <ele>337.5</ele>
        <time>2022-05-07T09:46:39.506Z</time>
      </trkpt>
      <trkpt lat="46.15423" lon="4.65129">
        <ele>337.3</ele>
        <time>2022-05-07T09:46:43.296Z</time>
      </trkpt>
      <trkpt lat="46.15419" lon="4.65082">
        <ele>337.2</ele>
        <time>2022-05-07T09:47:29.192Z</time>
      </trkpt>
      <trkpt lat="46.15417" lon="4.65044">
        <ele>336.6</ele>
        <time>2022-05-07T09:47:36.902Z</time>
      </trkpt>
      <trkpt lat="46.1543" lon="4.65031">
        <ele>334.41675703514</ele>
        <time>2022-05-07T09:47:40.761Z</time>
      </trkpt>
      <trkpt lat="46.15435" lon="4.65028">
        <ele>336.41632806474</ele>
        <time>2022-05-07T09:47:44.621Z</time>
      </trkpt>
      <trkpt lat="46.15462" lon="4.6501">
        <ele>338.58438188092</ele>
        <time>2022-05-07T09:47:48.487Z</time>
      </trkpt>
      <trkpt lat="46.15525" lon="4.64971">
        <ele>340.91718982161</ele>
        <time>2022-05-07T09:47:52.367Z</time>
      </trkpt>
      <trkpt lat="46.15538" lon="4.64968">
        <ele>345.32599881976</ele>
        <time>2022-05-07T09:47:56.249Z</time>
      </trkpt>
      <trkpt lat="46.15567" lon="4.64962">
        <ele>347.66386013291</ele>
        <time>2022-05-07T09:48:00.137Z</time>
      </trkpt>
      <trkpt lat="46.15573" lon="4.64961">
        <ele>349.8466121833</ele>
        <time>2022-05-07T09:48:04.026Z</time>
      </trkpt>
      <trkpt lat="46.15614" lon="4.64954">
        <ele>352.0937729119</ele>
        <time>2022-05-07T09:48:07.924Z</time>
      </trkpt>
      <trkpt lat="46.15622" lon="4.64951">
        <ele>354.17876556073</ele>
        <time>2022-05-07T09:48:11.823Z</time>
      </trkpt>
      <trkpt lat="46.15642" lon="4.6495">
        <ele>356.30054500505</ele>
        <time>2022-05-07T09:48:15.726Z</time>
      </trkpt>
      <trkpt lat="46.15659" lon="4.64947">
        <ele>358.31316080956</ele>
        <time>2022-05-07T09:48:19.633Z</time>
      </trkpt>
      <trkpt lat="46.15683" lon="4.64944">
        <ele>360.27439407478</ele>
        <time>2022-05-07T09:48:23.545Z</time>
      </trkpt>
      <trkpt lat="46.15693" lon="4.64945">
        <ele>361.99142235792</ele>
        <time>2022-05-07T09:48:27.459Z</time>
      </trkpt>
      <trkpt lat="46.15759" lon="4.64951">
        <ele>363.8198885013</ele>
        <time>2022-05-07T09:48:31.386Z</time>
      </trkpt>
      <trkpt lat="46.15763" lon="4.64951">
        <ele>365.16151066071</ele>
        <time>2022-05-07T09:48:35.314Z</time>
      </trkpt>
      <trkpt lat="46.15814" lon="4.64956">
        <ele>366.33994256695</ele>
        <time>2022-05-07T09:48:39.252Z</time>
      </trkpt>
      <trkpt lat="46.15822" lon="4.64958">
        <ele>367.32793489464</ele>
        <time>2022-05-07T09:48:43.191Z</time>
      </trkpt>
      <trkpt lat="46.15885" lon="4.6496">
        <ele>368.08290278555</ele>
        <time>2022-05-07T09:48:47.143Z</time>
      </trkpt>
      <trkpt lat="46.15892" lon="4.64962">
        <ele>368.73306595613</ele>
        <time>2022-05-07T09:48:51.097Z</time>
      </trkpt>
      <trkpt lat="46.15901" lon="4.64966">
        <ele>369.20009919702</ele>
        <time>2022-05-07T09:48:55.052Z</time>
      </trkpt>
      <trkpt lat="46.15902" lon="4.64987">
        <ele>369.58177111106</ele>
        <time>2022-05-07T09:48:59.010Z</time>
      </trkpt>
      <trkpt lat="46.15901" lon="4.65046">
        <ele>369.80742534055</ele>
        <time>2022-05-07T09:49:02.977Z</time>
      </trkpt>
      <trkpt lat="46.15901" lon="4.65096">
        <ele>369.63784545641</ele>
        <time>2022-05-07T09:49:06.950Z</time>
      </trkpt>
      <trkpt lat="46.15925" lon="4.65182">
        <ele>369.25523802897</ele>
        <time>2022-05-07T09:49:10.936Z</time>
      </trkpt>
      <trkpt lat="46.1595" lon="4.65241">
        <ele>368.67718146002</ele>
        <time>2022-05-07T09:49:14.932Z</time>
      </trkpt>
      <trkpt lat="46.15955" lon="4.65304">
        <ele>367.81199275026</ele>
        <time>2022-05-07T09:49:18.937Z</time>
      </trkpt>
      <trkpt lat="46.15956" lon="4.65395">
        <ele>366.70903440297</ele>
        <time>2022-05-07T09:49:22.954Z</time>
      </trkpt>
      <trkpt lat="46.15964" lon="4.65429">
        <ele>365.60232711917</ele>
        <time>2022-05-07T09:49:26.976Z</time>
      </trkpt>
      <trkpt lat="46.15989" lon="4.65539">
        <ele>364.36158611611</ele>
        <time>2022-05-07T09:49:31.015Z</time>
      </trkpt>
      <trkpt lat="46.16006" lon="4.6561">
        <ele>363.14548624955</ele>
        <time>2022-05-07T09:49:35.064Z</time>
      </trkpt>
      <trkpt lat="46.16017" lon="4.65668">
        <ele>361.8423212861</ele>
        <time>2022-05-07T09:49:39.121Z</time>
      </trkpt>
      <trkpt lat="46.16028" lon="4.65716">
        <ele>360.42030300721</ele>
        <time>2022-05-07T09:49:43.185Z</time>
      </trkpt>
      <trkpt lat="46.16039" lon="4.65757">
        <ele>358.9021550695</ele>
        <time>2022-05-07T09:49:47.255Z</time>
      </trkpt>
      <trkpt lat="46.16044" lon="4.65774">
        <ele>357.51411911279</ele>
        <time>2022-05-07T09:49:51.328Z</time>
      </trkpt>
      <trkpt lat="46.16048" lon="4.65791">
        <ele>356.14599657827</ele>
        <time>2022-05-07T09:49:55.404Z</time>
      </trkpt>
      <trkpt lat="46.1605" lon="4.65803">
        <ele>354.84976345121</ele>
        <time>2022-05-07T09:49:59.481Z</time>
      </trkpt>
      <trkpt lat="46.16051" lon="4.65809">
        <ele>353.66785123201</ele>
        <time>2022-05-07T09:50:03.559Z</time>
      </trkpt>
      <trkpt lat="46.16066" lon="4.65835">
        <ele>352.3960719732</ele>
        <time>2022-05-07T09:50:07.642Z</time>
      </trkpt>
      <trkpt lat="46.16114" lon="4.65849">
        <ele>351.43237821009</ele>
        <time>2022-05-07T09:50:11.735Z</time>
      </trkpt>
      <trkpt lat="46.16141" lon="4.65856">
        <ele>350.57127345773</ele>
        <time>2022-05-07T09:50:15.833Z</time>
      </trkpt>
      <trkpt lat="46.16199" lon="4.65861">
        <ele>349.84157032458</ele>
        <time>2022-05-07T09:50:19.943Z</time>
      </trkpt>
      <trkpt lat="46.16209" lon="4.65859">
        <ele>349.38655993286</ele>
        <time>2022-05-07T09:50:24.055Z</time>
      </trkpt>
      <trkpt lat="46.16217" lon="4.65859">
        <ele>349.0814752927</ele>
        <time>2022-05-07T09:50:28.168Z</time>
      </trkpt>
      <trkpt lat="46.16226" lon="4.65889">
        <ele>348.92322666285</ele>
        <time>2022-05-07T09:50:32.286Z</time>
      </trkpt>
      <trkpt lat="46.16197" lon="4.65922">
        <ele>348.9692199186</ele>
        <time>2022-05-07T09:50:36.411Z</time>
      </trkpt>
      <trkpt lat="46.16148" lon="4.65954">
        <ele>349.26479196301</ele>
        <time>2022-05-07T09:50:40.547Z</time>
      </trkpt>
      <trkpt lat="46.16129" lon="4.65965">
        <ele>349.6734512315</ele>
        <time>2022-05-07T09:50:44.687Z</time>
      </trkpt>
      <trkpt lat="46.16061" lon="4.66004">
        <ele>350.27999596831</ele>
        <time>2022-05-07T09:50:48.842Z</time>
      </trkpt>
      <trkpt lat="46.16049" lon="4.66016">
        <ele>350.92351919558</ele>
        <time>2022-05-07T09:50:53.000Z</time>
      </trkpt>
      <trkpt lat="46.16045" lon="4.66032">
        <ele>351.75060041636</ele>
        <time>2022-05-07T09:50:57.160Z</time>
      </trkpt>
      <trkpt lat="46.16085" lon="4.66084">
        <ele>352.89276497028</ele>
        <time>2022-05-07T09:51:01.331Z</time>
      </trkpt>
      <trkpt lat="46.16095" lon="4.66094">
        <ele>353.88804758282</ele>
        <time>2022-05-07T09:51:05.504Z</time>
      </trkpt>
      <trkpt lat="46.16116" lon="4.66102">
        <ele>354.98132931736</ele>
        <time>2022-05-07T09:51:09.682Z</time>
      </trkpt>
      <trkpt lat="46.16183" lon="4.66113">
        <ele>356.277841713</ele>
        <time>2022-05-07T09:51:13.873Z</time>
      </trkpt>
      <trkpt lat="46.16228" lon="4.66134">
        <ele>357.50458004799</ele>
        <time>2022-05-07T09:51:18.074Z</time>
      </trkpt>
      <trkpt lat="46.16233" lon="4.66135">
        <ele>358.70526323043</ele>
        <time>2022-05-07T09:51:22.276Z</time>
      </trkpt>
      <trkpt lat="46.16258" lon="4.66135">
        <ele>359.88908567207</ele>
        <time>2022-05-07T09:51:26.483Z</time>
      </trkpt>
      <trkpt lat="46.16272" lon="4.66139">
        <ele>361.15397213509</ele>
        <time>2022-05-07T09:51:30.692Z</time>
      </trkpt>
      <trkpt lat="46.16303" lon="4.66151">
        <ele>362.46849156577</ele>
        <time>2022-05-07T09:51:34.908Z</time>
      </trkpt>
      <trkpt lat="46.16352" lon="4.66165">
        <ele>363.78826934099</ele>
        <time>2022-05-07T09:51:39.134Z</time>
      </trkpt>
      <trkpt lat="46.16424" lon="4.6618">
        <ele>365.19747316782</ele>
        <time>2022-05-07T09:51:43.374Z</time>
      </trkpt>
      <trkpt lat="46.16427" lon="4.66182">
        <ele>366.50133046536</ele>
        <time>2022-05-07T09:51:47.615Z</time>
      </trkpt>
      <trkpt lat="46.16436" lon="4.66185">
        <ele>367.82217975102</ele>
        <time>2022-05-07T09:51:51.858Z</time>
      </trkpt>
      <trkpt lat="46.16441" lon="4.6619">
        <ele>369.11938366074</ele>
        <time>2022-05-07T09:51:56.102Z</time>
      </trkpt>
      <trkpt lat="46.16451" lon="4.66199">
        <ele>370.42644785923</ele>
        <time>2022-05-07T09:52:00.349Z</time>
      </trkpt>
      <trkpt lat="46.16488" lon="4.66227">
        <ele>371.81658158001</ele>
        <time>2022-05-07T09:52:04.604Z</time>
      </trkpt>
      <trkpt lat="46.16554" lon="4.66278">
        <ele>373.44536994244</ele>
        <time>2022-05-07T09:52:08.874Z</time>
      </trkpt>
      <trkpt lat="46.16578" lon="4.66296">
        <ele>374.69232845793</ele>
        <time>2022-05-07T09:52:13.149Z</time>
      </trkpt>
      <trkpt lat="46.16636" lon="4.66336">
        <ele>375.77360960508</ele>
        <time>2022-05-07T09:52:17.437Z</time>
      </trkpt>
      <trkpt lat="46.16648" lon="4.66336">
        <ele>376.81699822786</ele>
        <time>2022-05-07T09:52:21.728Z</time>
      </trkpt>
      <trkpt lat="46.16655" lon="4.66322">
        <ele>377.87411699936</ele>
        <time>2022-05-07T09:52:26.021Z</time>
      </trkpt>
      <trkpt lat="46.16664" lon="4.66307">
        <ele>378.89508072623</ele>
        <time>2022-05-07T09:52:30.317Z</time>
      </trkpt>
      <trkpt lat="46.16688" lon="4.66313">
        <ele>379.79446236947</ele>
        <time>2022-05-07T09:52:34.618Z</time>
      </trkpt>
      <trkpt lat="46.16762" lon="4.66343">
        <ele>380.50338718163</ele>
        <time>2022-05-07T09:52:38.934Z</time>
      </trkpt>
      <trkpt lat="46.16841" lon="4.66333">
        <ele>381.49340040215</ele>
        <time>2022-05-07T09:52:43.266Z</time>
      </trkpt>
      <trkpt lat="46.16903" lon="4.66367">
        <ele>382.44504637676</ele>
        <time>2022-05-07T09:52:47.611Z</time>
      </trkpt>
      <trkpt lat="46.16966" lon="4.66388">
        <ele>383.09745642154</ele>
        <time>2022-05-07T09:52:51.969Z</time>
      </trkpt>
      <trkpt lat="46.16976" lon="4.66393">
        <ele>383.950060427</ele>
        <time>2022-05-07T09:52:56.329Z</time>
      </trkpt>
      <trkpt lat="46.16981" lon="4.66389">
        <ele>384.89773153601</ele>
        <time>2022-05-07T09:53:00.690Z</time>
      </trkpt>
      <trkpt lat="46.16988" lon="4.6635">
        <ele>386.04191404648</ele>
        <time>2022-05-07T09:53:05.057Z</time>
      </trkpt>
      <trkpt lat="46.16986" lon="4.66308">
        <ele>387.19746262985</ele>
        <time>2022-05-07T09:53:09.430Z</time>
      </trkpt>
      <trkpt lat="46.16981" lon="4.66265">
        <ele>388.2682752065</ele>
        <time>2022-05-07T09:53:13.809Z</time>
      </trkpt>
      <trkpt lat="46.16985" lon="4.66235">
        <ele>389.35900888065</ele>
        <time>2022-05-07T09:53:18.192Z</time>
      </trkpt>
      <trkpt lat="46.16988" lon="4.66213">
        <ele>390.54014396759</ele>
        <time>2022-05-07T09:53:22.578Z</time>
      </trkpt>
      <trkpt lat="46.16986" lon="4.66176">
        <ele>391.99173099297</ele>
        <time>2022-05-07T09:53:26.969Z</time>
      </trkpt>
      <trkpt lat="46.16989" lon="4.66151">
        <ele>393.30464593248</ele>
        <time>2022-05-07T09:53:31.364Z</time>
      </trkpt>
      <trkpt lat="46.16997" lon="4.6613">
        <ele>394.59030982351</ele>
        <time>2022-05-07T09:53:35.762Z</time>
      </trkpt>
      <trkpt lat="46.17003" lon="4.66101">
        <ele>395.93096012959</ele>
        <time>2022-05-07T09:53:40.164Z</time>
      </trkpt>
      <trkpt lat="46.17007" lon="4.66086">
        <ele>397.29778711659</ele>
        <time>2022-05-07T09:53:44.569Z</time>
      </trkpt>
      <trkpt lat="46.1701" lon="4.66071">
        <ele>398.66452419968</ele>
        <time>2022-05-07T09:53:48.976Z</time>
      </trkpt>
      <trkpt lat="46.17022" lon="4.66012">
        <ele>400.22475427431</ele>
        <time>2022-05-07T09:53:53.391Z</time>
      </trkpt>
      <trkpt lat="46.17023" lon="4.65986">
        <ele>401.65722727358</ele>
        <time>2022-05-07T09:53:57.810Z</time>
      </trkpt>
      <trkpt lat="46.17027" lon="4.65947">
        <ele>403.17133998404</ele>
        <time>2022-05-07T09:54:02.234Z</time>
      </trkpt>
      <trkpt lat="46.17026" lon="4.65931">
        <ele>404.541394886</ele>
        <time>2022-05-07T09:54:06.661Z</time>
      </trkpt>
      <trkpt lat="46.17019" lon="4.65885">
        <ele>406.04401183774</ele>
        <time>2022-05-07T09:54:11.094Z</time>
      </trkpt>
      <trkpt lat="46.17009" lon="4.65826">
        <ele>407.53503195936</ele>
        <time>2022-05-07T09:54:15.536Z</time>
      </trkpt>
      <trkpt lat="46.16994" lon="4.65703">
        <ele>416.3</ele>
        <time>2022-05-07T09:54:19.994Z</time>
      </trkpt>
      <trkpt lat="46.17044" lon="4.6572">
        <ele>418.6</ele>
        <time>2022-05-07T09:54:24.456Z</time>
      </trkpt>
      <trkpt lat="46.17126" lon="4.65738">
        <ele>425.8</ele>
        <time>2022-05-07T09:54:28.921Z</time>
      </trkpt>
      <trkpt lat="46.17158" lon="4.65748">
        <ele>429.2</ele>
        <time>2022-05-07T09:54:33.404Z</time>
      </trkpt>
      <trkpt lat="46.17246" lon="4.65792">
        <ele>425.5</ele>
        <time>2022-05-07T09:54:37.906Z</time>
      </trkpt>
      <trkpt lat="46.17291" lon="4.6582">
        <ele>423</ele>
        <time>2022-05-07T09:54:42.413Z</time>
      </trkpt>
      <trkpt lat="46.17312" lon="4.65816">
        <ele>421.8</ele>
        <time>2022-05-07T09:54:46.924Z</time>
      </trkpt>
      <trkpt lat="46.17349" lon="4.65839">
        <ele>419.3</ele>
      </trkpt>
      <trkpt lat="46.17355" lon="4.65833">
        <ele>418.6</ele>
      </trkpt>
      <trkpt lat="46.17332" lon="4.65673">
        <ele>414.8</ele>
      </trkpt>
      <trkpt lat="46.17314" lon="4.655">
        <ele>421.8</ele>
        <time>2022-05-07T09:54:51.450Z</time>
      </trkpt>
      <trkpt lat="46.17335" lon="4.65449">
        <ele>422.6</ele>
        <time>2022-05-07T09:54:55.981Z</time>
      </trkpt>
      <trkpt lat="46.17384" lon="4.65412">
        <ele>417.8</ele>
        <time>2022-05-07T09:55:00.519Z</time>
      </trkpt>
      <trkpt lat="46.17374" lon="4.65399">
        <ele>421.4</ele>
        <time>2022-05-07T09:55:05.072Z</time>
      </trkpt>
      <trkpt lat="46.17396" lon="4.65391">
        <ele>419.8</ele>
        <time>2022-05-07T09:55:09.636Z</time>
      </trkpt>
      <trkpt lat="46.1745" lon="4.65238">
        <ele>423.5</ele>
        <time>2022-05-07T09:55:14.205Z</time>
      </trkpt>
      <trkpt lat="46.1751" lon="4.65074">
        <ele>435.1</ele>
        <time>2022-05-07T09:55:18.790Z</time>
      </trkpt>
      <trkpt lat="46.17502" lon="4.65056">
        <ele>435.1</ele>
        <time>2022-05-07T09:55:23.379Z</time>
      </trkpt>
      <trkpt lat="46.17479" lon="4.65028">
        <ele>433.7</ele>
        <time>2022-05-07T09:55:27.976Z</time>
      </trkpt>
      <trkpt lat="46.17497" lon="4.64957">
        <ele>436.6</ele>
        <time>2022-05-07T09:55:32.586Z</time>
      </trkpt>
      <trkpt lat="46.17494" lon="4.64925">
        <ele>436.8</ele>
        <time>2022-05-07T09:55:37.197Z</time>
      </trkpt>
      <trkpt lat="46.17468" lon="4.64859">
        <ele>434.4</ele>
      </trkpt>
      <trkpt lat="46.17445" lon="4.64788">
        <ele>431.7</ele>
      </trkpt>
      <trkpt lat="46.1744" lon="4.64669">
        <ele>428.6</ele>
      </trkpt>
      <trkpt lat="46.17434" lon="4.64653">
        <ele>427.1</ele>
        <time>2022-05-07T09:55:41.820Z</time>
      </trkpt>
      <trkpt lat="46.17403" lon="4.64634">
        <ele>423.3</ele>
        <time>2022-05-07T09:55:46.457Z</time>
      </trkpt>
      <trkpt lat="46.17426" lon="4.64544">
        <ele>428.21758485532</ele>
        <time>2022-05-07T09:55:51.105Z</time>
      </trkpt>
      <trkpt lat="46.17426" lon="4.64524">
        <ele>429.37800176358</ele>
        <time>2022-05-07T09:55:55.756Z</time>
      </trkpt>
      <trkpt lat="46.17428" lon="4.64501">
        <ele>430.54779298729</ele>
        <time>2022-05-07T09:56:00.410Z</time>
      </trkpt>
      <trkpt lat="46.17435" lon="4.64478">
        <ele>431.89144684492</ele>
        <time>2022-05-07T09:56:05.068Z</time>
      </trkpt>
      <trkpt lat="46.17448" lon="4.6445">
        <ele>433.28283964397</ele>
        <time>2022-05-07T09:56:09.730Z</time>
      </trkpt>
      <trkpt lat="46.17475" lon="4.64408">
        <ele>434.82239366889</ele>
        <time>2022-05-07T09:56:14.400Z</time>
      </trkpt>
      <trkpt lat="46.17488" lon="4.64392">
        <ele>436.27723480585</ele>
        <time>2022-05-07T09:56:19.074Z</time>
      </trkpt>
      <trkpt lat="46.17496" lon="4.64385">
        <ele>437.68844293794</ele>
        <time>2022-05-07T09:56:23.750Z</time>
      </trkpt>
      <trkpt lat="46.17499" lon="4.64381">
        <ele>439.0411053984</ele>
        <time>2022-05-07T09:56:28.427Z</time>
      </trkpt>
      <trkpt lat="46.1751" lon="4.64367">
        <ele>440.49683221138</ele>
        <time>2022-05-07T09:56:33.106Z</time>
      </trkpt>
      <trkpt lat="46.17529" lon="4.64347">
        <ele>441.98308993929</ele>
        <time>2022-05-07T09:56:37.790Z</time>
      </trkpt>
      <trkpt lat="46.17576" lon="4.64308">
        <ele>443.52835260913</ele>
        <time>2022-05-07T09:56:42.485Z</time>
      </trkpt>
      <trkpt lat="46.17589" lon="4.643">
        <ele>444.84201383256</ele>
        <time>2022-05-07T09:56:47.183Z</time>
      </trkpt>
      <trkpt lat="46.17592" lon="4.64298">
        <ele>446.02129318147</ele>
        <time>2022-05-07T09:56:51.882Z</time>
      </trkpt>
      <trkpt lat="46.17594" lon="4.64298">
        <ele>447.14034495362</ele>
        <time>2022-05-07T09:56:56.581Z</time>
      </trkpt>
      <trkpt lat="46.17609" lon="4.64288">
        <ele>448.26121493758</ele>
        <time>2022-05-07T09:57:01.283Z</time>
      </trkpt>
      <trkpt lat="46.17629" lon="4.64257">
        <ele>449.3140272736</ele>
        <time>2022-05-07T09:57:05.991Z</time>
      </trkpt>
      <trkpt lat="46.17634" lon="4.64219">
        <ele>450.13146717444</ele>
        <time>2022-05-07T09:57:10.704Z</time>
      </trkpt>
      <trkpt lat="46.17666" lon="4.64166">
        <ele>450.9900218073</ele>
        <time>2022-05-07T09:57:15.427Z</time>
      </trkpt>
      <trkpt lat="46.17682" lon="4.64154">
        <ele>451.76402248884</ele>
        <time>2022-05-07T09:57:20.154Z</time>
      </trkpt>
      <trkpt lat="46.17698" lon="4.6414">
        <ele>452.50791865104</ele>
        <time>2022-05-07T09:57:24.885Z</time>
      </trkpt>
      <trkpt lat="46.17702" lon="4.64137">
        <ele>453.24911974678</ele>
        <time>2022-05-07T09:57:29.617Z</time>
      </trkpt>
      <trkpt lat="46.17711" lon="4.64113">
        <ele>453.89604803899</ele>
        <time>2022-05-07T09:57:34.352Z</time>
      </trkpt>
      <trkpt lat="46.17708" lon="4.64085">
        <ele>454.6042238995</ele>
        <time>2022-05-07T09:57:39.091Z</time>
      </trkpt>
      <trkpt lat="46.17715" lon="4.64072">
        <ele>455.31077787494</ele>
        <time>2022-05-07T09:57:43.833Z</time>
      </trkpt>
      <trkpt lat="46.17722" lon="4.64059">
        <ele>455.98952897093</ele>
        <time>2022-05-07T09:57:48.577Z</time>
      </trkpt>
      <trkpt lat="46.1775" lon="4.64017">
        <ele>456.80740695996</ele>
        <time>2022-05-07T09:57:53.329Z</time>
      </trkpt>
      <trkpt lat="46.17754" lon="4.64013">
        <ele>457.39802554513</ele>
        <time>2022-05-07T09:57:58.082Z</time>
      </trkpt>
      <trkpt lat="46.17757" lon="4.64009">
        <ele>457.97118794236</ele>
        <time>2022-05-07T09:58:02.836Z</time>
      </trkpt>
      <trkpt lat="46.17785" lon="4.6397">
        <ele>465.4</ele>
        <time>2022-05-07T09:58:07.590Z</time>
      </trkpt>
      <trkpt lat="46.17818" lon="4.63908">
        <ele>474.5</ele>
      </trkpt>
      <trkpt lat="46.17852" lon="4.63881">
        <ele>480.6</ele>
        <time>2022-05-07T09:58:45.659Z</time>
      </trkpt>
      <trkpt lat="46.17852" lon="4.63866">
        <ele>484</ele>
        <time>2022-05-07T09:58:50.424Z</time>
      </trkpt>
      <trkpt lat="46.17832" lon="4.63825">
        <ele>486.6</ele>
        <time>2022-05-07T09:58:55.195Z</time>
      </trkpt>
      <trkpt lat="46.17838" lon="4.63785">
        <ele>490.7</ele>
        <time>2022-05-07T09:58:59.969Z</time>
      </trkpt>
      <trkpt lat="46.17869" lon="4.63784">
        <ele>497.2</ele>
        <time>2022-05-07T09:59:04.745Z</time>
      </trkpt>
      <trkpt lat="46.17903" lon="4.63793">
        <ele>500.9</ele>
        <time>2022-05-07T09:59:09.523Z</time>
      </trkpt>
      <trkpt lat="46.17959" lon="4.63721">
        <ele>507.7</ele>
        <time>2022-05-07T09:59:14.304Z</time>
      </trkpt>
      <trkpt lat="46.18019" lon="4.63669">
        <ele>512</ele>
        <time>2022-05-07T09:59:19.093Z</time>
      </trkpt>
      <trkpt lat="46.18046" lon="4.63634">
        <ele>513</ele>
      </trkpt>
      <trkpt lat="46.1806" lon="4.63595">
        <ele>514.1</ele>
        <time>2022-05-07T10:00:26.372Z</time>
      </trkpt>
      <trkpt lat="46.18079" lon="4.63579">
        <ele>517.5</ele>
        <time>2022-05-07T10:00:31.189Z</time>
      </trkpt>
      <trkpt lat="46.18123" lon="4.63565">
        <ele>526.1</ele>
        <time>2022-05-07T10:00:36.008Z</time>
      </trkpt>
      <trkpt lat="46.18161" lon="4.63556">
        <ele>534.7</ele>
        <time>2022-05-07T10:00:40.829Z</time>
      </trkpt>
      <trkpt lat="46.18219" lon="4.6362">
        <ele>540.9</ele>
        <time>2022-05-07T10:01:34.212Z</time>
      </trkpt>
      <trkpt lat="46.18272" lon="4.63682">
        <ele>548.9</ele>
        <time>2022-05-07T10:01:39.090Z</time>
      </trkpt>
      <trkpt lat="46.18288" lon="4.63721">
        <ele>550.7</ele>
        <time>2022-05-07T10:02:03.538Z</time>
      </trkpt>
      <trkpt lat="46.18306" lon="4.63745">
        <ele>555.9</ele>
        <time>2022-05-07T10:02:08.437Z</time>
      </trkpt>
      <trkpt lat="46.18321" lon="4.63731">
        <ele>562.16989587643</ele>
        <time>2022-05-07T10:02:18.242Z</time>
      </trkpt>
      <trkpt lat="46.1836" lon="4.63718">
        <ele>564.65843262512</ele>
        <time>2022-05-07T10:02:23.155Z</time>
      </trkpt>
      <trkpt lat="46.18371" lon="4.6371">
        <ele>566.80279365839</ele>
        <time>2022-05-07T10:02:28.071Z</time>
      </trkpt>
      <trkpt lat="46.18389" lon="4.63696">
        <ele>568.75967769706</ele>
        <time>2022-05-07T10:02:32.991Z</time>
      </trkpt>
      <trkpt lat="46.18408" lon="4.6369">
        <ele>570.37681447326</ele>
        <time>2022-05-07T10:02:37.915Z</time>
      </trkpt>
      <trkpt lat="46.18412" lon="4.63688">
        <ele>571.69671609953</ele>
        <time>2022-05-07T10:02:42.840Z</time>
      </trkpt>
      <trkpt lat="46.18452" lon="4.63659">
        <ele>572.98486607547</ele>
        <time>2022-05-07T10:02:47.774Z</time>
      </trkpt>
      <trkpt lat="46.18465" lon="4.63658">
        <ele>573.80452315922</ele>
        <time>2022-05-07T10:02:52.710Z</time>
      </trkpt>
      <trkpt lat="46.18521" lon="4.63644">
        <ele>574.38110077455</ele>
        <time>2022-05-07T10:02:57.658Z</time>
      </trkpt>
      <trkpt lat="46.18542" lon="4.63635">
        <ele>574.51596052163</ele>
        <time>2022-05-07T10:03:02.610Z</time>
      </trkpt>
      <trkpt lat="46.18555" lon="4.63632">
        <ele>574.44022752561</ele>
        <time>2022-05-07T10:03:07.565Z</time>
      </trkpt>
      <trkpt lat="46.18575" lon="4.63631">
        <ele>574.04700310533</ele>
        <time>2022-05-07T10:03:12.524Z</time>
      </trkpt>
      <trkpt lat="46.18584" lon="4.63632">
        <ele>573.42133612033</ele>
        <time>2022-05-07T10:03:17.484Z</time>
      </trkpt>
      <trkpt lat="46.186" lon="4.63641">
        <ele>572.42612873511</ele>
        <time>2022-05-07T10:03:22.448Z</time>
      </trkpt>
      <trkpt lat="46.18613" lon="4.63649">
        <ele>571.30147228923</ele>
        <time>2022-05-07T10:03:27.415Z</time>
      </trkpt>
      <trkpt lat="46.18623" lon="4.6366">
        <ele>569.90731046651</ele>
        <time>2022-05-07T10:03:32.384Z</time>
      </trkpt>
      <trkpt lat="46.18637" lon="4.63673">
        <ele>568.28071209395</ele>
        <time>2022-05-07T10:03:37.357Z</time>
      </trkpt>
      <trkpt lat="46.1867" lon="4.63686">
        <ele>566.59040051647</ele>
        <time>2022-05-07T10:03:42.336Z</time>
      </trkpt>
      <trkpt lat="46.18687" lon="4.63692">
        <ele>564.86404539024</ele>
        <time>2022-05-07T10:03:47.319Z</time>
      </trkpt>
      <trkpt lat="46.18701" lon="4.63711">
        <ele>562.90597957115</ele>
        <time>2022-05-07T10:03:52.306Z</time>
      </trkpt>
      <trkpt lat="46.18716" lon="4.63725">
        <ele>560.91609934911</ele>
        <time>2022-05-07T10:03:57.296Z</time>
      </trkpt>
      <trkpt lat="46.18727" lon="4.63742">
        <ele>558.67917442169</ele>
        <time>2022-05-07T10:04:02.290Z</time>
      </trkpt>
      <trkpt lat="46.18732" lon="4.63766">
        <ele>556.12543480028</ele>
        <time>2022-05-07T10:04:07.287Z</time>
      </trkpt>
      <trkpt lat="46.18733" lon="4.638">
        <ele>553.50614660062</ele>
        <time>2022-05-07T10:04:12.289Z</time>
      </trkpt>
      <trkpt lat="46.18749" lon="4.63856">
        <ele>551.11246839196</ele>
        <time>2022-05-07T10:04:17.299Z</time>
      </trkpt>
      <trkpt lat="46.18773" lon="4.63908">
        <ele>548.76902586612</ele>
        <time>2022-05-07T10:04:22.318Z</time>
      </trkpt>
      <trkpt lat="46.18792" lon="4.63936">
        <ele>546.23643762023</ele>
        <time>2022-05-07T10:04:27.342Z</time>
      </trkpt>
      <trkpt lat="46.18796" lon="4.63946">
        <ele>543.71490191961</ele>
        <time>2022-05-07T10:04:32.368Z</time>
      </trkpt>
      <trkpt lat="46.18795" lon="4.63988">
        <ele>540.96907864136</ele>
        <time>2022-05-07T10:04:37.400Z</time>
      </trkpt>
      <trkpt lat="46.18785" lon="4.64018">
        <ele>538.39639182167</ele>
        <time>2022-05-07T10:04:42.436Z</time>
      </trkpt>
      <trkpt lat="46.18782" lon="4.64022">
        <ele>536.00707994473</ele>
        <time>2022-05-07T10:04:47.473Z</time>
      </trkpt>
      <trkpt lat="46.18781" lon="4.64027">
        <ele>533.68630371741</ele>
        <time>2022-05-07T10:04:52.511Z</time>
      </trkpt>
      <trkpt lat="46.18781" lon="4.64032">
        <ele>531.43744565115</ele>
        <time>2022-05-07T10:04:57.550Z</time>
      </trkpt>
      <trkpt lat="46.18796" lon="4.64051">
        <ele>529.31893324459</ele>
        <time>2022-05-07T10:05:02.593Z</time>
      </trkpt>
      <trkpt lat="46.18802" lon="4.6406">
        <ele>527.25856901697</ele>
        <time>2022-05-07T10:05:07.637Z</time>
      </trkpt>
      <trkpt lat="46.18805" lon="4.64079">
        <ele>525.17981425595</ele>
        <time>2022-05-07T10:05:12.684Z</time>
      </trkpt>
      <trkpt lat="46.18802" lon="4.64105">
        <ele>523.08141360015</ele>
        <time>2022-05-07T10:05:17.735Z</time>
      </trkpt>
      <trkpt lat="46.18796" lon="4.64145">
        <ele>521.08079045688</ele>
        <time>2022-05-07T10:05:22.791Z</time>
      </trkpt>
      <trkpt lat="46.1878" lon="4.64216">
        <ele>519.13382821158</ele>
        <time>2022-05-07T10:05:27.858Z</time>
      </trkpt>
      <trkpt lat="46.1876" lon="4.64245">
        <ele>517.4683082629</ele>
        <time>2022-05-07T10:05:32.930Z</time>
      </trkpt>
      <trkpt lat="46.18759" lon="4.64266">
        <ele>516.07898548169</ele>
        <time>2022-05-07T10:05:38.005Z</time>
      </trkpt>
      <trkpt lat="46.18787" lon="4.64292">
        <ele>514.94592382428</ele>
        <time>2022-05-07T10:05:43.087Z</time>
      </trkpt>
      <trkpt lat="46.18802" lon="4.64306">
        <ele>513.84471075175</ele>
        <time>2022-05-07T10:05:48.173Z</time>
      </trkpt>
      <trkpt lat="46.18827" lon="4.64318">
        <ele>512.82425114</ele>
        <time>2022-05-07T10:05:53.264Z</time>
      </trkpt>
      <trkpt lat="46.1886" lon="4.64311">
        <ele>512.19397242289</ele>
        <time>2022-05-07T10:05:58.362Z</time>
      </trkpt>
      <trkpt lat="46.18891" lon="4.64297">
        <ele>511.90542789319</ele>
        <time>2022-05-07T10:06:03.466Z</time>
      </trkpt>
      <trkpt lat="46.18899" lon="4.64294">
        <ele>511.63857889725</ele>
        <time>2022-05-07T10:06:08.572Z</time>
      </trkpt>
      <trkpt lat="46.18915" lon="4.64314">
        <ele>511.48843440421</ele>
        <time>2022-05-07T10:06:13.682Z</time>
      </trkpt>
      <trkpt lat="46.18912" lon="4.64325">
        <ele>511.41841337994</ele>
        <time>2022-05-07T10:06:18.794Z</time>
      </trkpt>
      <trkpt lat="46.18896" lon="4.64404">
        <ele>511.35542599995</ele>
        <time>2022-05-07T10:06:23.917Z</time>
      </trkpt>
      <trkpt lat="46.18899" lon="4.64452">
        <ele>511.52928777954</ele>
        <time>2022-05-07T10:06:29.047Z</time>
      </trkpt>
      <trkpt lat="46.18915" lon="4.6452">
        <ele>512.04242261172</ele>
        <time>2022-05-07T10:06:34.187Z</time>
      </trkpt>
      <trkpt lat="46.18918" lon="4.64525">
        <ele>512.72343142882</ele>
        <time>2022-05-07T10:06:39.328Z</time>
      </trkpt>
      <trkpt lat="46.18938" lon="4.64559">
        <ele>513.67626559373</ele>
        <time>2022-05-07T10:06:44.475Z</time>
      </trkpt>
      <trkpt lat="46.1894" lon="4.64561">
        <ele>514.5801076346</ele>
        <time>2022-05-07T10:06:49.622Z</time>
      </trkpt>
      <trkpt lat="46.18961" lon="4.64582">
        <ele>515.66728318536</ele>
        <time>2022-05-07T10:06:54.774Z</time>
      </trkpt>
      <trkpt lat="46.1898" lon="4.64588">
        <ele>516.89826502515</ele>
        <time>2022-05-07T10:06:59.930Z</time>
      </trkpt>
      <trkpt lat="46.18988" lon="4.64586">
        <ele>518.1696148122</ele>
        <time>2022-05-07T10:07:05.088Z</time>
      </trkpt>
      <trkpt lat="46.19033" lon="4.64584">
        <ele>519.52038623467</ele>
        <time>2022-05-07T10:07:10.255Z</time>
      </trkpt>
      <trkpt lat="46.19094" lon="4.64566">
        <ele>521.38478926545</ele>
        <time>2022-05-07T10:07:15.434Z</time>
      </trkpt>
      <trkpt lat="46.19101" lon="4.64569">
        <ele>523.92849203866</ele>
        <time>2022-05-07T10:07:20.615Z</time>
      </trkpt>
      <trkpt lat="46.1912" lon="4.64589">
        <ele>525.23187035444</ele>
        <time>2022-05-07T10:07:25.801Z</time>
      </trkpt>
      <trkpt lat="46.19122" lon="4.64593">
        <ele>526.4448191743</ele>
        <time>2022-05-07T10:07:30.987Z</time>
      </trkpt>
      <trkpt lat="46.19137" lon="4.64618">
        <ele>527.64318409921</ele>
        <time>2022-05-07T10:07:36.178Z</time>
      </trkpt>
      <trkpt lat="46.19139" lon="4.64625">
        <ele>528.77032346951</ele>
        <time>2022-05-07T10:07:41.370Z</time>
      </trkpt>
      <trkpt lat="46.19142" lon="4.64637">
        <ele>529.83884580478</ele>
        <time>2022-05-07T10:07:46.564Z</time>
      </trkpt>
      <trkpt lat="46.19143" lon="4.64649">
        <ele>530.84916154971</ele>
        <time>2022-05-07T10:07:51.759Z</time>
      </trkpt>
      <trkpt lat="46.1915" lon="4.64677">
        <ele>531.80193878054</ele>
        <time>2022-05-07T10:07:56.959Z</time>
      </trkpt>
      <trkpt lat="46.19156" lon="4.64691">
        <ele>532.85292164659</ele>
        <time>2022-05-07T10:08:02.161Z</time>
      </trkpt>
      <trkpt lat="46.19187" lon="4.64734">
        <ele>534.02212413137</ele>
        <time>2022-05-07T10:08:07.371Z</time>
      </trkpt>
      <trkpt lat="46.19191" lon="4.64739">
        <ele>535.10266665053</ele>
        <time>2022-05-07T10:08:12.582Z</time>
      </trkpt>
      <trkpt lat="46.19196" lon="4.64749">
        <ele>536.16229573381</ele>
        <time>2022-05-07T10:08:17.795Z</time>
      </trkpt>
      <trkpt lat="46.19201" lon="4.64758">
        <ele>537.20944531529</ele>
        <time>2022-05-07T10:08:23.010Z</time>
      </trkpt>
      <trkpt lat="46.19212" lon="4.6478">
        <ele>538.26621751564</ele>
        <time>2022-05-07T10:08:28.229Z</time>
      </trkpt>
      <trkpt lat="46.19226" lon="4.64824">
        <ele>539.17327119472</ele>
        <time>2022-05-07T10:08:33.454Z</time>
      </trkpt>
      <trkpt lat="46.19234" lon="4.64834">
        <ele>540.19897179855</ele>
        <time>2022-05-07T10:08:38.681Z</time>
      </trkpt>
      <trkpt lat="46.1924" lon="4.64837">
        <ele>541.20772312907</ele>
        <time>2022-05-07T10:08:43.910Z</time>
      </trkpt>
      <trkpt lat="46.1923" lon="4.64853">
        <ele>542.11189071565</ele>
        <time>2022-05-07T10:08:49.142Z</time>
      </trkpt>
      <trkpt lat="46.19211" lon="4.64878">
        <ele>543.14952311116</ele>
        <time>2022-05-07T10:08:54.379Z</time>
      </trkpt>
      <trkpt lat="46.19208" lon="4.64883">
        <ele>544.11434824281</ele>
        <time>2022-05-07T10:08:59.617Z</time>
      </trkpt>
      <trkpt lat="46.19158" lon="4.64952">
        <ele>545.35163874709</ele>
        <time>2022-05-07T10:09:04.869Z</time>
      </trkpt>
      <trkpt lat="46.19136" lon="4.64985">
        <ele>546.29572234262</ele>
        <time>2022-05-07T10:09:10.127Z</time>
      </trkpt>
      <trkpt lat="46.19132" lon="4.65004">
        <ele>547.25979176727</ele>
        <time>2022-05-07T10:09:15.388Z</time>
      </trkpt>
      <trkpt lat="46.19131" lon="4.65023">
        <ele>548.25730474826</ele>
        <time>2022-05-07T10:09:20.651Z</time>
      </trkpt>
      <trkpt lat="46.19135" lon="4.65082">
        <ele>549.41828533222</ele>
        <time>2022-05-07T10:09:25.923Z</time>
      </trkpt>
      <trkpt lat="46.19136" lon="4.65099">
        <ele>550.21417104574</ele>
        <time>2022-05-07T10:09:31.197Z</time>
      </trkpt>
      <trkpt lat="46.19152" lon="4.65166">
        <ele>551.05770827383</ele>
        <time>2022-05-07T10:09:36.481Z</time>
      </trkpt>
      <trkpt lat="46.19156" lon="4.65183">
        <ele>551.62028247245</ele>
        <time>2022-05-07T10:09:41.767Z</time>
      </trkpt>
      <trkpt lat="46.19161" lon="4.65234">
        <ele>551.98534438969</ele>
        <time>2022-05-07T10:09:47.060Z</time>
      </trkpt>
      <trkpt lat="46.19163" lon="4.6525">
        <ele>552.52787149075</ele>
        <time>2022-05-07T10:09:52.356Z</time>
      </trkpt>
      <trkpt lat="46.19162" lon="4.65253">
        <ele>552.92011973493</ele>
        <time>2022-05-07T10:09:57.652Z</time>
      </trkpt>
      <trkpt lat="46.19161" lon="4.65272">
        <ele>553.31432132792</ele>
        <time>2022-05-07T10:10:02.951Z</time>
      </trkpt>
      <trkpt lat="46.19158" lon="4.65328">
        <ele>553.49116005491</ele>
        <time>2022-05-07T10:10:08.258Z</time>
      </trkpt>
      <trkpt lat="46.19159" lon="4.65333">
        <ele>553.75927427118</ele>
        <time>2022-05-07T10:10:13.565Z</time>
      </trkpt>
      <trkpt lat="46.19161" lon="4.65339">
        <ele>554.00264667709</ele>
        <time>2022-05-07T10:10:18.873Z</time>
      </trkpt>
      <trkpt lat="46.19163" lon="4.65344">
        <ele>554.21021030359</ele>
        <time>2022-05-07T10:10:24.182Z</time>
      </trkpt>
      <trkpt lat="46.19166" lon="4.65357">
        <ele>554.40481127683</ele>
        <time>2022-05-07T10:10:29.493Z</time>
      </trkpt>
      <trkpt lat="46.19173" lon="4.65372">
        <ele>554.62208184257</ele>
        <time>2022-05-07T10:10:34.807Z</time>
      </trkpt>
      <trkpt lat="46.19186" lon="4.65412">
        <ele>554.79574334927</ele>
        <time>2022-05-07T10:10:40.127Z</time>
      </trkpt>
      <trkpt lat="46.1921" lon="4.65483">
        <ele>554.74466887659</ele>
        <time>2022-05-07T10:10:45.458Z</time>
      </trkpt>
      <trkpt lat="46.19225" lon="4.65517">
        <ele>554.66955584539</ele>
        <time>2022-05-07T10:10:50.794Z</time>
      </trkpt>
      <trkpt lat="46.19242" lon="4.65551">
        <ele>554.50847367228</ele>
        <time>2022-05-07T10:10:56.136Z</time>
      </trkpt>
      <trkpt lat="46.19286" lon="4.65602">
        <ele>554.53588901028</ele>
        <time>2022-05-07T10:11:01.489Z</time>
      </trkpt>
      <trkpt lat="46.19294" lon="4.6561">
        <ele>554.58465858711</ele>
        <time>2022-05-07T10:11:06.844Z</time>
      </trkpt>
      <trkpt lat="46.19321" lon="4.65663">
        <ele>554.35488079665</ele>
        <time>2022-05-07T10:11:12.208Z</time>
      </trkpt>
      <trkpt lat="46.19334" lon="4.65678">
        <ele>554.3786370768</ele>
        <time>2022-05-07T10:11:17.576Z</time>
      </trkpt>
      <trkpt lat="46.19356" lon="4.65692">
        <ele>554.4685172822</ele>
        <time>2022-05-07T10:11:22.949Z</time>
      </trkpt>
      <trkpt lat="46.19367" lon="4.65698">
        <ele>554.61042796431</ele>
        <time>2022-05-07T10:11:28.324Z</time>
      </trkpt>
      <trkpt lat="46.19389" lon="4.65723">
        <ele>554.77441882244</ele>
        <time>2022-05-07T10:11:33.705Z</time>
      </trkpt>
      <trkpt lat="46.19404" lon="4.65741">
        <ele>554.95978040303</ele>
        <time>2022-05-07T10:11:39.089Z</time>
      </trkpt>
      <trkpt lat="46.19416" lon="4.6575">
        <ele>555.12374118097</ele>
        <time>2022-05-07T10:11:44.476Z</time>
      </trkpt>
      <trkpt lat="46.19432" lon="4.65764">
        <ele>555.30242100759</ele>
        <time>2022-05-07T10:11:49.867Z</time>
      </trkpt>
      <trkpt lat="46.19456" lon="4.65796">
        <ele>555.55880463577</ele>
        <time>2022-05-07T10:11:55.264Z</time>
      </trkpt>
      <trkpt lat="46.1949" lon="4.65832">
        <ele>555.81333549936</ele>
        <time>2022-05-07T10:12:00.670Z</time>
      </trkpt>
      <trkpt lat="46.19511" lon="4.65855">
        <ele>556.03997333304</ele>
        <time>2022-05-07T10:12:06.081Z</time>
      </trkpt>
      <trkpt lat="46.19533" lon="4.65885">
        <ele>556.23977520246</ele>
        <time>2022-05-07T10:12:11.498Z</time>
      </trkpt>
      <trkpt lat="46.19546" lon="4.65904">
        <ele>556.25149958138</ele>
        <time>2022-05-07T10:12:16.919Z</time>
      </trkpt>
      <trkpt lat="46.19579" lon="4.6593">
        <ele>556.31586726411</ele>
        <time>2022-05-07T10:12:22.347Z</time>
      </trkpt>
      <trkpt lat="46.19593" lon="4.65946">
        <ele>556.17529529971</ele>
        <time>2022-05-07T10:12:27.779Z</time>
      </trkpt>
      <trkpt lat="46.19607" lon="4.65971">
        <ele>555.81847705092</ele>
        <time>2022-05-07T10:12:33.215Z</time>
      </trkpt>
      <trkpt lat="46.19623" lon="4.66002">
        <ele>555.20376182122</ele>
        <time>2022-05-07T10:12:38.657Z</time>
      </trkpt>
      <trkpt lat="46.19633" lon="4.66024">
        <ele>554.40401162236</ele>
        <time>2022-05-07T10:12:44.103Z</time>
      </trkpt>
      <trkpt lat="46.19638" lon="4.66048">
        <ele>553.42399590551</ele>
        <time>2022-05-07T10:12:49.552Z</time>
      </trkpt>
      <trkpt lat="46.19641" lon="4.66089">
        <ele>552.15194029999</ele>
        <time>2022-05-07T10:12:55.007Z</time>
      </trkpt>
      <trkpt lat="46.19643" lon="4.66107">
        <ele>551.0472938012</ele>
        <time>2022-05-07T10:13:00.464Z</time>
      </trkpt>
      <trkpt lat="46.19644" lon="4.66113">
        <ele>549.8898434162</ele>
        <time>2022-05-07T10:13:05.922Z</time>
      </trkpt>
      <trkpt lat="46.19646" lon="4.66124">
        <ele>548.59777448132</ele>
        <time>2022-05-07T10:13:11.382Z</time>
      </trkpt>
      <trkpt lat="46.19655" lon="4.66177">
        <ele>546.97009380648</ele>
        <time>2022-05-07T10:13:16.849Z</time>
      </trkpt>
      <trkpt lat="46.19654" lon="4.66193">
        <ele>545.39018359776</ele>
        <time>2022-05-07T10:13:22.318Z</time>
      </trkpt>
      <trkpt lat="46.1964" lon="4.66272">
        <ele>543.71798244284</ele>
        <time>2022-05-07T10:13:27.799Z</time>
      </trkpt>
      <trkpt lat="46.19629" lon="4.66317">
        <ele>542.25127548592</ele>
        <time>2022-05-07T10:13:33.286Z</time>
      </trkpt>
      <trkpt lat="46.19627" lon="4.66338">
        <ele>540.54958885598</ele>
        <time>2022-05-07T10:13:38.776Z</time>
      </trkpt>
      <trkpt lat="46.19626" lon="4.66375">
        <ele>538.54339789965</ele>
        <time>2022-05-07T10:13:44.272Z</time>
      </trkpt>
      <trkpt lat="46.19626" lon="4.66421">
        <ele>536.53565216081</ele>
        <time>2022-05-07T10:13:49.774Z</time>
      </trkpt>
      <trkpt lat="46.19623" lon="4.66469">
        <ele>534.57578043975</ele>
        <time>2022-05-07T10:13:55.283Z</time>
      </trkpt>
      <trkpt lat="46.19622" lon="4.66475">
        <ele>532.69206734929</ele>
        <time>2022-05-07T10:14:00.792Z</time>
      </trkpt>
      <trkpt lat="46.19614" lon="4.66504">
        <ele>530.71360624488</ele>
        <time>2022-05-07T10:14:06.306Z</time>
      </trkpt>
      <trkpt lat="46.19613" lon="4.66516">
        <ele>528.76554924439</ele>
        <time>2022-05-07T10:14:11.821Z</time>
      </trkpt>
      <trkpt lat="46.19616" lon="4.66535">
        <ele>526.71516812038</ele>
        <time>2022-05-07T10:14:17.339Z</time>
      </trkpt>
      <trkpt lat="46.1962" lon="4.66547">
        <ele>524.70176436035</ele>
        <time>2022-05-07T10:14:22.859Z</time>
      </trkpt>
      <trkpt lat="46.19639" lon="4.66583">
        <ele>522.48190837627</ele>
        <time>2022-05-07T10:14:28.385Z</time>
      </trkpt>
      <trkpt lat="46.19649" lon="4.66605">
        <ele>520.52188241672</ele>
        <time>2022-05-07T10:14:33.915Z</time>
      </trkpt>
      <trkpt lat="46.19666" lon="4.66629">
        <ele>518.44185726404</ele>
        <time>2022-05-07T10:14:39.450Z</time>
      </trkpt>
      <trkpt lat="46.1968" lon="4.66652">
        <ele>516.35489345119</ele>
        <time>2022-05-07T10:14:44.989Z</time>
      </trkpt>
      <trkpt lat="46.19688" lon="4.66671">
        <ele>514.39165921927</ele>
        <time>2022-05-07T10:14:50.531Z</time>
      </trkpt>
      <trkpt lat="46.19719" lon="4.66741">
        <ele>512.44530887895</ele>
        <time>2022-05-07T10:14:56.085Z</time>
      </trkpt>
      <trkpt lat="46.19726" lon="4.6675">
        <ele>510.47995793304</ele>
        <time>2022-05-07T10:15:01.641Z</time>
      </trkpt>
      <trkpt lat="46.19778" lon="4.6681">
        <ele>508.25183282067</ele>
        <time>2022-05-07T10:15:07.210Z</time>
      </trkpt>
      <trkpt lat="46.19803" lon="4.66834">
        <ele>506.17167251553</ele>
        <time>2022-05-07T10:15:12.785Z</time>
      </trkpt>
      <trkpt lat="46.19852" lon="4.66877">
        <ele>504.01092288738</ele>
        <time>2022-05-07T10:15:18.371Z</time>
      </trkpt>
      <trkpt lat="46.19898" lon="4.66913">
        <ele>502.0250258031</ele>
        <time>2022-05-07T10:15:23.968Z</time>
      </trkpt>
      <trkpt lat="46.19905" lon="4.66921">
        <ele>500.12137264093</ele>
        <time>2022-05-07T10:15:29.567Z</time>
      </trkpt>
      <trkpt lat="46.19934" lon="4.66957">
        <ele>498.05857377425</ele>
        <time>2022-05-07T10:15:35.173Z</time>
      </trkpt>
      <trkpt lat="46.19957" lon="4.66984">
        <ele>496.07689412281</ele>
        <time>2022-05-07T10:15:40.785Z</time>
      </trkpt>
      <trkpt lat="46.19962" lon="4.66994">
        <ele>494.20315135112</ele>
        <time>2022-05-07T10:15:46.399Z</time>
      </trkpt>
      <trkpt lat="46.1998" lon="4.67036">
        <ele>492.30107532925</ele>
        <time>2022-05-07T10:15:52.020Z</time>
      </trkpt>
      <trkpt lat="46.1999" lon="4.67062">
        <ele>490.43647141365</ele>
        <time>2022-05-07T10:15:57.645Z</time>
      </trkpt>
      <trkpt lat="46.19999" lon="4.67088">
        <ele>488.55718609777</ele>
        <time>2022-05-07T10:16:03.274Z</time>
      </trkpt>
      <trkpt lat="46.20006" lon="4.67114">
        <ele>486.73244381281</ele>
        <time>2022-05-07T10:16:08.907Z</time>
      </trkpt>
      <trkpt lat="46.2001" lon="4.67123">
        <ele>485.07093524129</ele>
        <time>2022-05-07T10:16:14.541Z</time>
      </trkpt>
      <trkpt lat="46.20015" lon="4.67131">
        <ele>483.47758988071</ele>
        <time>2022-05-07T10:16:20.177Z</time>
      </trkpt>
      <trkpt lat="46.20027" lon="4.67151">
        <ele>481.86001040083</ele>
        <time>2022-05-07T10:16:25.816Z</time>
      </trkpt>
      <trkpt lat="46.2003" lon="4.67154">
        <ele>480.42899787403</ele>
        <time>2022-05-07T10:16:31.456Z</time>
      </trkpt>
      <trkpt lat="46.20051" lon="4.67182">
        <ele>478.87976157068</ele>
        <time>2022-05-07T10:16:37.102Z</time>
      </trkpt>
      <trkpt lat="46.20062" lon="4.67192">
        <ele>477.54373684935</ele>
        <time>2022-05-07T10:16:42.751Z</time>
      </trkpt>
      <trkpt lat="46.20082" lon="4.67204">
        <ele>476.26556777793</ele>
        <time>2022-05-07T10:16:48.404Z</time>
      </trkpt>
      <trkpt lat="46.20095" lon="4.67222">
        <ele>475.08730683901</ele>
        <time>2022-05-07T10:16:54.060Z</time>
      </trkpt>
      <trkpt lat="46.20115" lon="4.67255">
        <ele>473.89745661038</ele>
        <time>2022-05-07T10:16:59.723Z</time>
      </trkpt>
      <trkpt lat="46.20115" lon="4.67285">
        <ele>472.9032032314</ele>
        <time>2022-05-07T10:17:05.390Z</time>
      </trkpt>
      <trkpt lat="46.20123" lon="4.67378">
        <ele>472.04620107322</ele>
        <time>2022-05-07T10:17:11.070Z</time>
      </trkpt>
      <trkpt lat="46.20135" lon="4.6742">
        <ele>471.17477739269</ele>
        <time>2022-05-07T10:17:16.756Z</time>
      </trkpt>
      <trkpt lat="46.20157" lon="4.67474">
        <ele>470.42268763499</ele>
        <time>2022-05-07T10:17:22.451Z</time>
      </trkpt>
      <trkpt lat="46.20181" lon="4.67571">
        <ele>470.01997911026</ele>
        <time>2022-05-07T10:17:28.160Z</time>
      </trkpt>
      <trkpt lat="46.202" lon="4.67666">
        <ele>469.56905026593</ele>
        <time>2022-05-07T10:17:33.883Z</time>
      </trkpt>
      <trkpt lat="46.20208" lon="4.67692">
        <ele>468.94194592611</ele>
        <time>2022-05-07T10:17:39.610Z</time>
      </trkpt>
      <trkpt lat="46.20251" lon="4.67753">
        <ele>468.54167651519</ele>
        <time>2022-05-07T10:17:45.349Z</time>
      </trkpt>
      <trkpt lat="46.2026" lon="4.67765">
        <ele>468.06030037133</ele>
        <time>2022-05-07T10:17:51.090Z</time>
      </trkpt>
      <trkpt lat="46.20271" lon="4.67777">
        <ele>467.59014388708</ele>
        <time>2022-05-07T10:17:56.834Z</time>
      </trkpt>
      <trkpt lat="46.20347" lon="4.67822">
        <ele>467.05952157357</ele>
        <time>2022-05-07T10:18:02.594Z</time>
      </trkpt>
      <trkpt lat="46.20371" lon="4.67852">
        <ele>466.71071780356</ele>
        <time>2022-05-07T10:18:08.361Z</time>
      </trkpt>
      <trkpt lat="46.20386" lon="4.67897">
        <ele>466.21129495825</ele>
        <time>2022-05-07T10:18:14.135Z</time>
      </trkpt>
      <trkpt lat="46.20391" lon="4.6791">
        <ele>465.66495686294</ele>
        <time>2022-05-07T10:18:19.911Z</time>
      </trkpt>
      <trkpt lat="46.20413" lon="4.67978">
        <ele>465.0371213152</ele>
        <time>2022-05-07T10:18:25.697Z</time>
      </trkpt>
      <trkpt lat="46.20426" lon="4.68005">
        <ele>464.33899434166</ele>
        <time>2022-05-07T10:18:31.488Z</time>
      </trkpt>
      <trkpt lat="46.20446" lon="4.68032">
        <ele>463.47237443664</ele>
        <time>2022-05-07T10:18:37.284Z</time>
      </trkpt>
      <trkpt lat="46.20451" lon="4.68037">
        <ele>462.56574872165</ele>
        <time>2022-05-07T10:18:43.082Z</time>
      </trkpt>
      <trkpt lat="46.20453" lon="4.68039">
        <ele>461.56759184685</ele>
        <time>2022-05-07T10:18:48.880Z</time>
      </trkpt>
      <trkpt lat="46.20469" lon="4.68054">
        <ele>460.40568729097</ele>
        <time>2022-05-07T10:18:54.682Z</time>
      </trkpt>
      <trkpt lat="46.20484" lon="4.68062">
        <ele>459.09931827262</ele>
        <time>2022-05-07T10:19:00.487Z</time>
      </trkpt>
      <trkpt lat="46.20488" lon="4.68064">
        <ele>457.78219812098</ele>
        <time>2022-05-07T10:19:06.293Z</time>
      </trkpt>
      <trkpt lat="46.20492" lon="4.68066">
        <ele>456.37873907855</ele>
        <time>2022-05-07T10:19:12.100Z</time>
      </trkpt>
      <trkpt lat="46.20496" lon="4.68068">
        <ele>454.8906448844</ele>
        <time>2022-05-07T10:19:17.908Z</time>
      </trkpt>
      <trkpt lat="46.20504" lon="4.6807">
        <ele>453.312936042</ele>
        <time>2022-05-07T10:19:23.717Z</time>
      </trkpt>
      <trkpt lat="46.20524" lon="4.68078">
        <ele>451.57033813287</ele>
        <time>2022-05-07T10:19:29.530Z</time>
      </trkpt>
      <trkpt lat="46.20549" lon="4.68088">
        <ele>449.79259918529</ele>
        <time>2022-05-07T10:19:35.349Z</time>
      </trkpt>
      <trkpt lat="46.20605" lon="4.68116">
        <ele>447.78635728605</ele>
        <time>2022-05-07T10:19:41.179Z</time>
      </trkpt>
      <trkpt lat="46.20628" lon="4.68128">
        <ele>446.05833552962</ele>
        <time>2022-05-07T10:19:47.014Z</time>
      </trkpt>
      <trkpt lat="46.20659" lon="4.6815">
        <ele>444.32158001675</ele>
        <time>2022-05-07T10:19:52.856Z</time>
      </trkpt>
      <trkpt lat="46.2069" lon="4.68175">
        <ele>442.69845141582</ele>
        <time>2022-05-07T10:19:58.705Z</time>
      </trkpt>
      <trkpt lat="46.207" lon="4.68224">
        <ele>441.16587019497</ele>
        <time>2022-05-07T10:20:04.561Z</time>
      </trkpt>
      <trkpt lat="46.20689" lon="4.68251">
        <ele>439.95247183107</ele>
        <time>2022-05-07T10:20:10.422Z</time>
      </trkpt>
      <trkpt lat="46.20682" lon="4.68265">
        <ele>438.77801829682</ele>
        <time>2022-05-07T10:20:16.285Z</time>
      </trkpt>
      <trkpt lat="46.20679" lon="4.68285">
        <ele>437.66254567539</ele>
        <time>2022-05-07T10:20:22.151Z</time>
      </trkpt>
      <trkpt lat="46.20691" lon="4.68287">
        <ele>436.7173349112</ele>
        <time>2022-05-07T10:20:28.019Z</time>
      </trkpt>
      <trkpt lat="46.20737" lon="4.6832">
        <ele>435.64233929031</ele>
        <time>2022-05-07T10:20:33.898Z</time>
      </trkpt>
      <trkpt lat="46.20768" lon="4.68349">
        <ele>434.91373068408</ele>
        <time>2022-05-07T10:20:39.784Z</time>
      </trkpt>
      <trkpt lat="46.20845" lon="4.68424">
        <ele>434.41193693784</ele>
        <time>2022-05-07T10:20:45.689Z</time>
      </trkpt>
      <trkpt lat="46.20871" lon="4.6843">
        <ele>434.22940387601</ele>
        <time>2022-05-07T10:20:51.599Z</time>
      </trkpt>
      <trkpt lat="46.20937" lon="4.68412">
        <ele>434.15648390195</ele>
        <time>2022-05-07T10:20:57.522Z</time>
      </trkpt>
      <trkpt lat="46.2102" lon="4.68344">
        <ele>434.33176607563</ele>
        <time>2022-05-07T10:21:03.464Z</time>
      </trkpt>
      <trkpt lat="46.21128" lon="4.6829">
        <ele>434.49661512321</ele>
        <time>2022-05-07T10:21:09.429Z</time>
      </trkpt>
      <trkpt lat="46.21134" lon="4.68288">
        <ele>434.78693870076</ele>
        <time>2022-05-07T10:21:15.396Z</time>
      </trkpt>
      <trkpt lat="46.21196" lon="4.68282">
        <ele>435.34341252764</ele>
        <time>2022-05-07T10:21:21.375Z</time>
      </trkpt>
      <trkpt lat="46.2122" lon="4.68301">
        <ele>435.84491798745</ele>
        <time>2022-05-07T10:21:27.360Z</time>
      </trkpt>
      <trkpt lat="46.21231" lon="4.68318">
        <ele>436.48016454317</ele>
        <time>2022-05-07T10:21:33.348Z</time>
      </trkpt>
      <trkpt lat="46.21302" lon="4.68407">
        <ele>437.41296485899</ele>
        <time>2022-05-07T10:21:39.355Z</time>
      </trkpt>
      <trkpt lat="46.21336" lon="4.68437">
        <ele>438.24223283253</ele>
        <time>2022-05-07T10:21:45.370Z</time>
      </trkpt>
      <trkpt lat="46.21371" lon="4.68488">
        <ele>439.25212053011</ele>
        <time>2022-05-07T10:21:51.395Z</time>
      </trkpt>
      <trkpt lat="46.21374" lon="4.68509">
        <ele>440.22471539614</ele>
        <time>2022-05-07T10:21:57.422Z</time>
      </trkpt>
      <trkpt lat="46.21377" lon="4.68531">
        <ele>441.21231472725</ele>
        <time>2022-05-07T10:22:03.453Z</time>
      </trkpt>
      <trkpt lat="46.2138" lon="4.68544">
        <ele>442.17107350728</ele>
        <time>2022-05-07T10:22:09.485Z</time>
      </trkpt>
      <trkpt lat="46.21389" lon="4.68609">
        <ele>443.19117855932</ele>
        <time>2022-05-07T10:22:15.527Z</time>
      </trkpt>
      <trkpt lat="46.214" lon="4.68683">
        <ele>443.93361019151</ele>
        <time>2022-05-07T10:22:21.579Z</time>
      </trkpt>
      <trkpt lat="46.21394" lon="4.68719">
        <ele>445.06802693277</ele>
        <time>2022-05-07T10:22:27.636Z</time>
      </trkpt>
      <trkpt lat="46.21392" lon="4.68742">
        <ele>446.04686324618</ele>
        <time>2022-05-07T10:22:33.697Z</time>
      </trkpt>
      <trkpt lat="46.214" lon="4.6879">
        <ele>446.96474384573</ele>
        <time>2022-05-07T10:22:39.764Z</time>
      </trkpt>
      <trkpt lat="46.21411" lon="4.6881">
        <ele>447.77023667834</ele>
        <time>2022-05-07T10:22:45.835Z</time>
      </trkpt>
      <trkpt lat="46.21421" lon="4.68821">
        <ele>448.51653951569</ele>
        <time>2022-05-07T10:22:51.908Z</time>
      </trkpt>
      <trkpt lat="46.21448" lon="4.68854">
        <ele>449.2856584745</ele>
        <time>2022-05-07T10:22:57.989Z</time>
      </trkpt>
      <trkpt lat="46.21465" lon="4.6887">
        <ele>450.08286538346</ele>
        <time>2022-05-07T10:23:04.074Z</time>
      </trkpt>
      <trkpt lat="46.21475" lon="4.68877">
        <ele>450.80314893465</ele>
        <time>2022-05-07T10:23:10.161Z</time>
      </trkpt>
      <trkpt lat="46.21491" lon="4.68891">
        <ele>451.54806185956</ele>
        <time>2022-05-07T10:23:16.252Z</time>
      </trkpt>
      <trkpt lat="46.21504" lon="4.68909">
        <ele>452.2507055466</ele>
        <time>2022-05-07T10:23:22.346Z</time>
      </trkpt>
      <trkpt lat="46.21522" lon="4.68964">
        <ele>453.0317336873</ele>
        <time>2022-05-07T10:23:28.449Z</time>
      </trkpt>
      <trkpt lat="46.21534" lon="4.69">
        <ele>453.71225207256</ele>
        <time>2022-05-07T10:23:34.557Z</time>
      </trkpt>
      <trkpt lat="46.2154" lon="4.69014">
        <ele>454.30865335297</ele>
        <time>2022-05-07T10:23:40.667Z</time>
      </trkpt>
      <trkpt lat="46.21543" lon="4.69026">
        <ele>454.93151019243</ele>
        <time>2022-05-07T10:23:46.779Z</time>
      </trkpt>
      <trkpt lat="46.21551" lon="4.69044">
        <ele>455.4951596689</ele>
        <time>2022-05-07T10:23:52.894Z</time>
      </trkpt>
      <trkpt lat="46.21559" lon="4.69064">
        <ele>456.07101398372</ele>
        <time>2022-05-07T10:23:59.012Z</time>
      </trkpt>
      <trkpt lat="46.21563" lon="4.69078">
        <ele>456.66695387948</ele>
        <time>2022-05-07T10:24:05.133Z</time>
      </trkpt>
      <trkpt lat="46.21571" lon="4.691">
        <ele>457.26152304232</ele>
        <time>2022-05-07T10:24:11.257Z</time>
      </trkpt>
      <trkpt lat="46.21597" lon="4.69153">
        <ele>457.90667812992</ele>
        <time>2022-05-07T10:24:17.390Z</time>
      </trkpt>
      <trkpt lat="46.21614" lon="4.69171">
        <ele>458.37940010122</ele>
        <time>2022-05-07T10:24:23.527Z</time>
      </trkpt>
      <trkpt lat="46.21629" lon="4.69179">
        <ele>458.79124915502</ele>
        <time>2022-05-07T10:24:29.667Z</time>
      </trkpt>
      <trkpt lat="46.2165" lon="4.69188">
        <ele>459.19605078423</ele>
        <time>2022-05-07T10:24:35.812Z</time>
      </trkpt>
      <trkpt lat="46.21656" lon="4.6919">
        <ele>459.62472771909</ele>
        <time>2022-05-07T10:24:41.958Z</time>
      </trkpt>
      <trkpt lat="46.21668" lon="4.69193">
        <ele>460.08845828254</ele>
        <time>2022-05-07T10:24:48.106Z</time>
      </trkpt>
      <trkpt lat="46.21685" lon="4.69199">
        <ele>460.61070301504</ele>
        <time>2022-05-07T10:24:54.258Z</time>
      </trkpt>
      <trkpt lat="46.21701" lon="4.69205">
        <ele>461.05759637222</ele>
        <time>2022-05-07T10:25:00.413Z</time>
      </trkpt>
      <trkpt lat="46.21747" lon="4.69223">
        <ele>461.46183917598</ele>
        <time>2022-05-07T10:25:06.578Z</time>
      </trkpt>
      <trkpt lat="46.21767" lon="4.69247">
        <ele>462.01650773648</ele>
        <time>2022-05-07T10:25:12.748Z</time>
      </trkpt>
      <trkpt lat="46.21772" lon="4.69274">
        <ele>462.72443375923</ele>
        <time>2022-05-07T10:25:18.922Z</time>
      </trkpt>
      <trkpt lat="46.21773" lon="4.69289">
        <ele>463.39476593098</ele>
        <time>2022-05-07T10:25:25.098Z</time>
      </trkpt>
      <trkpt lat="46.21774" lon="4.69304">
        <ele>464.08074423442</ele>
        <time>2022-05-07T10:25:31.276Z</time>
      </trkpt>
      <trkpt lat="46.21784" lon="4.69347">
        <ele>464.83391217318</ele>
        <time>2022-05-07T10:25:37.460Z</time>
      </trkpt>
      <trkpt lat="46.21813" lon="4.6941">
        <ele>465.16390753899</ele>
        <time>2022-05-07T10:25:43.655Z</time>
      </trkpt>
      <trkpt lat="46.21839" lon="4.69467">
        <ele>465.90821526644</ele>
        <time>2022-05-07T10:25:49.859Z</time>
      </trkpt>
      <trkpt lat="46.21841" lon="4.69481">
        <ele>466.76368169104</ele>
        <time>2022-05-07T10:25:56.065Z</time>
      </trkpt>
      <trkpt lat="46.21843" lon="4.69537">
        <ele>467.81345750607</ele>
        <time>2022-05-07T10:26:02.279Z</time>
      </trkpt>
      <trkpt lat="46.21844" lon="4.69564">
        <ele>468.56140167506</ele>
        <time>2022-05-07T10:26:08.497Z</time>
      </trkpt>
      <trkpt lat="46.21845" lon="4.696">
        <ele>469.28892081456</ele>
        <time>2022-05-07T10:26:14.720Z</time>
      </trkpt>
      <trkpt lat="46.21822" lon="4.69638">
        <ele>470.33776202998</ele>
        <time>2022-05-07T10:26:20.950Z</time>
      </trkpt>
      <trkpt lat="46.21809" lon="4.69656">
        <ele>471.37989824382</ele>
        <time>2022-05-07T10:26:27.184Z</time>
      </trkpt>
      <trkpt lat="46.21802" lon="4.69663">
        <ele>472.30049120734</ele>
        <time>2022-05-07T10:26:33.419Z</time>
      </trkpt>
      <trkpt lat="46.21796" lon="4.69671">
        <ele>473.22910921756</ele>
        <time>2022-05-07T10:26:39.656Z</time>
      </trkpt>
      <trkpt lat="46.21793" lon="4.69674">
        <ele>474.13226326579</ele>
        <time>2022-05-07T10:26:45.894Z</time>
      </trkpt>
      <trkpt lat="46.21758" lon="4.69716">
        <ele>475.08923409546</ele>
        <time>2022-05-07T10:26:52.141Z</time>
      </trkpt>
      <trkpt lat="46.21755" lon="4.69719">
        <ele>475.95757652819</ele>
        <time>2022-05-07T10:26:58.388Z</time>
      </trkpt>
      <trkpt lat="46.21746" lon="4.69726">
        <ele>476.81165594089</ele>
        <time>2022-05-07T10:27:04.637Z</time>
      </trkpt>
      <trkpt lat="46.2174" lon="4.69715">
        <ele>477.68953600841</ele>
        <time>2022-05-07T10:27:10.888Z</time>
      </trkpt>
      <trkpt lat="46.21739" lon="4.69711">
        <ele>478.48483827882</ele>
        <time>2022-05-07T10:27:17.140Z</time>
      </trkpt>
      <trkpt lat="46.21737" lon="4.69706">
        <ele>479.2391108186</ele>
        <time>2022-05-07T10:27:23.393Z</time>
      </trkpt>
      <trkpt lat="46.21734" lon="4.69702">
        <ele>479.93613096733</ele>
        <time>2022-05-07T10:27:29.647Z</time>
      </trkpt>
      <trkpt lat="46.21728" lon="4.69695">
        <ele>480.59457169686</ele>
        <time>2022-05-07T10:27:35.902Z</time>
      </trkpt>
      <trkpt lat="46.21719" lon="4.69691">
        <ele>481.16875265305</ele>
        <time>2022-05-07T10:27:42.159Z</time>
      </trkpt>
      <trkpt lat="46.21666" lon="4.69655">
        <ele>481.57755769287</ele>
        <time>2022-05-07T10:27:48.428Z</time>
      </trkpt>
      <trkpt lat="46.2165" lon="4.6962">
        <ele>481.99712283176</ele>
        <time>2022-05-07T10:27:54.703Z</time>
      </trkpt>
      <trkpt lat="46.21638" lon="4.69601">
        <ele>482.33095049038</ele>
        <time>2022-05-07T10:28:00.981Z</time>
      </trkpt>
      <trkpt lat="46.21598" lon="4.69579">
        <ele>482.62538365417</ele>
        <time>2022-05-07T10:28:07.268Z</time>
      </trkpt>
      <trkpt lat="46.21552" lon="4.69567">
        <ele>482.95027178345</ele>
        <time>2022-05-07T10:28:13.564Z</time>
      </trkpt>
      <trkpt lat="46.21524" lon="4.69571">
        <ele>482.8534151483</ele>
        <time>2022-05-07T10:28:19.866Z</time>
      </trkpt>
      <trkpt lat="46.21482" lon="4.69593">
        <ele>482.42102898662</ele>
        <time>2022-05-07T10:28:26.177Z</time>
      </trkpt>
      <trkpt lat="46.21452" lon="4.69611">
        <ele>481.98924032143</ele>
        <time>2022-05-07T10:28:32.494Z</time>
      </trkpt>
      <trkpt lat="46.21435" lon="4.69623">
        <ele>481.49636864772</ele>
        <time>2022-05-07T10:28:38.815Z</time>
      </trkpt>
      <trkpt lat="46.21423" lon="4.69637">
        <ele>480.86834051135</ele>
        <time>2022-05-07T10:28:45.139Z</time>
      </trkpt>
      <trkpt lat="46.21406" lon="4.69665">
        <ele>480.04460895108</ele>
        <time>2022-05-07T10:28:51.468Z</time>
      </trkpt>
      <trkpt lat="46.21386" lon="4.69702">
        <ele>479.07282616325</ele>
        <time>2022-05-07T10:28:57.804Z</time>
      </trkpt>
      <trkpt lat="46.21365" lon="4.69729">
        <ele>478.1806267648</ele>
        <time>2022-05-07T10:29:04.145Z</time>
      </trkpt>
      <trkpt lat="46.21335" lon="4.69782">
        <ele>476.9829946883</ele>
        <time>2022-05-07T10:29:10.496Z</time>
      </trkpt>
      <trkpt lat="46.2133" lon="4.69791">
        <ele>475.65328083517</ele>
        <time>2022-05-07T10:29:16.848Z</time>
      </trkpt>
      <trkpt lat="46.21304" lon="4.69832">
        <ele>474.17154279967</ele>
        <time>2022-05-07T10:29:23.208Z</time>
      </trkpt>
      <trkpt lat="46.21292" lon="4.69856">
        <ele>472.48649477945</ele>
        <time>2022-05-07T10:29:29.572Z</time>
      </trkpt>
      <trkpt lat="46.21275" lon="4.69902">
        <ele>470.44572462599</ele>
        <time>2022-05-07T10:29:35.944Z</time>
      </trkpt>
      <trkpt lat="46.21257" lon="4.69959">
        <ele>468.34169399041</ele>
        <time>2022-05-07T10:29:42.324Z</time>
      </trkpt>
      <trkpt lat="46.21238" lon="4.70007">
        <ele>466.13301015181</ele>
        <time>2022-05-07T10:29:48.712Z</time>
      </trkpt>
      <trkpt lat="46.21218" lon="4.70063">
        <ele>463.75416136734</ele>
        <time>2022-05-07T10:29:55.109Z</time>
      </trkpt>
      <trkpt lat="46.2119" lon="4.70104">
        <ele>461.52965128123</ele>
        <time>2022-05-07T10:30:01.514Z</time>
      </trkpt>
      <trkpt lat="46.21153" lon="4.70124">
        <ele>459.11176473597</ele>
        <time>2022-05-07T10:30:07.927Z</time>
      </trkpt>
      <trkpt lat="46.21102" lon="4.70132">
        <ele>456.55565183353</ele>
        <time>2022-05-07T10:30:14.350Z</time>
      </trkpt>
      <trkpt lat="46.21067" lon="4.70116">
        <ele>454.17319314356</ele>
        <time>2022-05-07T10:30:20.780Z</time>
      </trkpt>
      <trkpt lat="46.21042" lon="4.70114">
        <ele>451.48443963833</ele>
        <time>2022-05-07T10:30:27.215Z</time>
      </trkpt>
      <trkpt lat="46.21009" lon="4.7012">
        <ele>448.44885437733</ele>
        <time>2022-05-07T10:30:33.657Z</time>
      </trkpt>
      <trkpt lat="46.20977" lon="4.70092">
        <ele>445.5229424738</ele>
        <time>2022-05-07T10:30:40.106Z</time>
      </trkpt>
      <trkpt lat="46.20971" lon="4.70097">
        <ele>442.6531972306</ele>
        <time>2022-05-07T10:30:46.557Z</time>
      </trkpt>
      <trkpt lat="46.20973" lon="4.70118">
        <ele>439.77708741209</ele>
        <time>2022-05-07T10:30:53.011Z</time>
      </trkpt>
      <trkpt lat="46.20975" lon="4.70145">
        <ele>436.87520598053</ele>
        <time>2022-05-07T10:30:59.468Z</time>
      </trkpt>
      <trkpt lat="46.20976" lon="4.70168">
        <ele>433.96194643298</ele>
        <time>2022-05-07T10:31:05.929Z</time>
      </trkpt>
      <trkpt lat="46.20975" lon="4.70197">
        <ele>430.88555122824</ele>
        <time>2022-05-07T10:31:12.394Z</time>
      </trkpt>
      <trkpt lat="46.20974" lon="4.70232">
        <ele>427.56082682933</ele>
        <time>2022-05-07T10:31:18.864Z</time>
      </trkpt>
      <trkpt lat="46.20974" lon="4.70264">
        <ele>421.44838329274</ele>
        <time>2022-05-07T10:31:25.338Z</time>
      </trkpt>
      <trkpt lat="46.20975" lon="4.70305">
        <ele>418.20020427975</ele>
        <time>2022-05-07T10:31:31.818Z</time>
      </trkpt>
      <trkpt lat="46.20975" lon="4.7039">
        <ele>414.9804340324</ele>
        <time>2022-05-07T10:31:38.309Z</time>
      </trkpt>
      <trkpt lat="46.20974" lon="4.70429">
        <ele>412.06016290177</ele>
        <time>2022-05-07T10:31:44.806Z</time>
      </trkpt>
      <trkpt lat="46.20952" lon="4.70445">
        <ele>409.33953855295</ele>
        <time>2022-05-07T10:31:51.308Z</time>
      </trkpt>
      <trkpt lat="46.20946" lon="4.70449">
        <ele>406.68735038243</ele>
        <time>2022-05-07T10:31:57.811Z</time>
      </trkpt>
      <trkpt lat="46.20933" lon="4.70461">
        <ele>404.04232317154</ele>
        <time>2022-05-07T10:32:04.317Z</time>
      </trkpt>
      <trkpt lat="46.20922" lon="4.70476">
        <ele>401.43593611853</ele>
        <time>2022-05-07T10:32:10.826Z</time>
      </trkpt>
      <trkpt lat="46.20921" lon="4.70498">
        <ele>398.87944112099</ele>
        <time>2022-05-07T10:32:17.338Z</time>
      </trkpt>
      <trkpt lat="46.20924" lon="4.70518">
        <ele>396.36475701376</ele>
        <time>2022-05-07T10:32:23.853Z</time>
      </trkpt>
      <trkpt lat="46.20925" lon="4.70522">
        <ele>393.98142785149</ele>
        <time>2022-05-07T10:32:30.369Z</time>
      </trkpt>
      <trkpt lat="46.20931" lon="4.70548">
        <ele>391.53015368338</ele>
        <time>2022-05-07T10:32:36.889Z</time>
      </trkpt>
      <trkpt lat="46.20933" lon="4.70581">
        <ele>389.0165960897</ele>
        <time>2022-05-07T10:32:43.413Z</time>
      </trkpt>
      <trkpt lat="46.20934" lon="4.70614">
        <ele>386.52168516738</ele>
        <time>2022-05-07T10:32:49.942Z</time>
      </trkpt>
      <trkpt lat="46.20937" lon="4.70643">
        <ele>384.21501098866</ele>
        <time>2022-05-07T10:32:56.475Z</time>
      </trkpt>
      <trkpt lat="46.20938" lon="4.70654">
        <ele>382.02210051368</ele>
        <time>2022-05-07T10:33:03.009Z</time>
      </trkpt>
      <trkpt lat="46.2094" lon="4.70683">
        <ele>379.74606294111</ele>
        <time>2022-05-07T10:33:09.547Z</time>
      </trkpt>
      <trkpt lat="46.20944" lon="4.70716">
        <ele>377.48549574803</ele>
        <time>2022-05-07T10:33:16.090Z</time>
      </trkpt>
      <trkpt lat="46.20944" lon="4.7072">
        <ele>375.43973543059</ele>
        <time>2022-05-07T10:33:22.634Z</time>
      </trkpt>
      <trkpt lat="46.2094" lon="4.70754">
        <ele>373.18073875519</ele>
        <time>2022-05-07T10:33:29.182Z</time>
      </trkpt>
      <trkpt lat="46.2094" lon="4.70765">
        <ele>371.15255888718</ele>
        <time>2022-05-07T10:33:35.732Z</time>
      </trkpt>
      <trkpt lat="46.20937" lon="4.7081">
        <ele>368.96890184945</ele>
        <time>2022-05-07T10:33:42.288Z</time>
      </trkpt>
      <trkpt lat="46.20927" lon="4.7088">
        <ele>366.89062803099</ele>
        <time>2022-05-07T10:33:48.854Z</time>
      </trkpt>
      <trkpt lat="46.20924" lon="4.70891">
        <ele>364.93813440614</ele>
        <time>2022-05-07T10:33:55.422Z</time>
      </trkpt>
      <trkpt lat="46.2092" lon="4.709">
        <ele>362.97135925753</ele>
        <time>2022-05-07T10:34:01.991Z</time>
      </trkpt>
      <trkpt lat="46.20897" lon="4.70946">
        <ele>360.86964521237</ele>
        <time>2022-05-07T10:34:08.568Z</time>
      </trkpt>
      <trkpt lat="46.20883" lon="4.70997">
        <ele>358.76063156445</ele>
        <time>2022-05-07T10:34:15.153Z</time>
      </trkpt>
      <trkpt lat="46.20888" lon="4.71029">
        <ele>356.71167143618</ele>
        <time>2022-05-07T10:34:21.742Z</time>
      </trkpt>
      <trkpt lat="46.2091" lon="4.71066">
        <ele>354.62219160187</ele>
        <time>2022-05-07T10:34:28.338Z</time>
      </trkpt>
      <trkpt lat="46.20906" lon="4.71086">
        <ele>352.46997045651</ele>
        <time>2022-05-07T10:34:34.937Z</time>
      </trkpt>
      <trkpt lat="46.20899" lon="4.7111">
        <ele>350.26541775589</ele>
        <time>2022-05-07T10:34:41.540Z</time>
      </trkpt>
      <trkpt lat="46.20895" lon="4.71134">
        <ele>347.98228754837</ele>
        <time>2022-05-07T10:34:48.146Z</time>
      </trkpt>
      <trkpt lat="46.20894" lon="4.71154">
        <ele>345.65905609733</ele>
        <time>2022-05-07T10:34:54.755Z</time>
      </trkpt>
      <trkpt lat="46.20893" lon="4.71179">
        <ele>343.19503206141</ele>
        <time>2022-05-07T10:35:01.367Z</time>
      </trkpt>
      <trkpt lat="46.2089" lon="4.71212">
        <ele>340.54089575428</ele>
        <time>2022-05-07T10:35:07.984Z</time>
      </trkpt>
      <trkpt lat="46.20885" lon="4.7125">
        <ele>337.83321155537</ele>
        <time>2022-05-07T10:35:14.606Z</time>
      </trkpt>
      <trkpt lat="46.2088" lon="4.71288">
        <ele>335.06922061218</ele>
        <time>2022-05-07T10:35:21.234Z</time>
      </trkpt>
      <trkpt lat="46.20873" lon="4.71328">
        <ele>332.30133933996</ele>
        <time>2022-05-07T10:35:27.867Z</time>
      </trkpt>
      <trkpt lat="46.20868" lon="4.71358">
        <ele>329.48825446499</ele>
        <time>2022-05-07T10:35:34.505Z</time>
      </trkpt>
      <trkpt lat="46.20864" lon="4.71387">
        <ele>326.65787542034</ele>
        <time>2022-05-07T10:35:41.147Z</time>
      </trkpt>
      <trkpt lat="46.20852" lon="4.71471">
        <ele>323.40456495652</ele>
        <time>2022-05-07T10:35:47.801Z</time>
      </trkpt>
      <trkpt lat="46.20851" lon="4.7149">
        <ele>320.57113389041</ele>
        <time>2022-05-07T10:35:54.457Z</time>
      </trkpt>
      <trkpt lat="46.20875" lon="4.71501">
        <ele>317.81677759043</ele>
        <time>2022-05-07T10:36:01.118Z</time>
      </trkpt>
      <trkpt lat="46.20914" lon="4.71505">
        <ele>314.91450441324</ele>
        <time>2022-05-07T10:36:07.787Z</time>
      </trkpt>
      <trkpt lat="46.20945" lon="4.71507">
        <ele>312.02773890396</ele>
        <time>2022-05-07T10:36:14.462Z</time>
      </trkpt>
      <trkpt lat="46.20953" lon="4.71517">
        <ele>309.09847691284</ele>
        <time>2022-05-07T10:36:21.140Z</time>
      </trkpt>
      <trkpt lat="46.20946" lon="4.71544">
        <ele>306.07661361458</ele>
        <time>2022-05-07T10:36:27.822Z</time>
      </trkpt>
      <trkpt lat="46.2093" lon="4.71596">
        <ele>303.03947176036</ele>
        <time>2022-05-07T10:36:34.511Z</time>
      </trkpt>
      <trkpt lat="46.20921" lon="4.7162">
        <ele>300.14195823611</ele>
        <time>2022-05-07T10:36:41.204Z</time>
      </trkpt>
      <trkpt lat="46.20909" lon="4.71653">
        <ele>297.25790840485</ele>
        <time>2022-05-07T10:36:47.902Z</time>
      </trkpt>
      <trkpt lat="46.20876" lon="4.71729">
        <ele>294.31166402503</ele>
        <time>2022-05-07T10:36:54.613Z</time>
      </trkpt>
      <trkpt lat="46.20857" lon="4.71779">
        <ele>291.56166406541</ele>
        <time>2022-05-07T10:37:01.332Z</time>
      </trkpt>
      <trkpt lat="46.20868" lon="4.71803">
        <ele>288.72170575277</ele>
        <time>2022-05-07T10:37:08.055Z</time>
      </trkpt>
      <trkpt lat="46.20881" lon="4.71828">
        <ele>285.92122166844</ele>
        <time>2022-05-07T10:37:14.782Z</time>
      </trkpt>
      <trkpt lat="46.20906" lon="4.71851">
        <ele>283.1545607275</ele>
        <time>2022-05-07T10:37:21.515Z</time>
      </trkpt>
      <trkpt lat="46.20911" lon="4.71944">
        <ele>280.40322052158</ele>
        <time>2022-05-07T10:37:28.261Z</time>
      </trkpt>
      <trkpt lat="46.20911" lon="4.71995">
        <ele>277.73719682228</ele>
        <time>2022-05-07T10:37:35.014Z</time>
      </trkpt>
      <trkpt lat="46.20905" lon="4.72006">
        <ele>275.23670887561</ele>
        <time>2022-05-07T10:37:41.769Z</time>
      </trkpt>
      <trkpt lat="46.20906" lon="4.72017">
        <ele>272.74121084426</ele>
        <time>2022-05-07T10:37:48.526Z</time>
      </trkpt>
      <trkpt lat="46.20908" lon="4.72092">
        <ele>270.08491311224</ele>
        <time>2022-05-07T10:37:55.293Z</time>
      </trkpt>
      <trkpt lat="46.20903" lon="4.72213">
        <ele>267.39555572</ele>
        <time>2022-05-07T10:38:02.077Z</time>
      </trkpt>
      <trkpt lat="46.20897" lon="4.72325">
        <ele>265.16754203173</ele>
        <time>2022-05-07T10:38:08.876Z</time>
      </trkpt>
      <trkpt lat="46.20878" lon="4.72424">
        <ele>262.78460998795</ele>
        <time>2022-05-07T10:38:15.690Z</time>
      </trkpt>
      <trkpt lat="46.2086" lon="4.72515">
        <ele>260.50981085975</ele>
        <time>2022-05-07T10:38:22.517Z</time>
      </trkpt>
      <trkpt lat="46.20847" lon="4.72577">
        <ele>258.26247658718</ele>
        <time>2022-05-07T10:38:29.353Z</time>
      </trkpt>
      <trkpt lat="46.20812" lon="4.72712">
        <ele>256.03281611537</ele>
        <time>2022-05-07T10:38:36.209Z</time>
      </trkpt>
      <trkpt lat="46.20809" lon="4.72726">
        <ele>254.07366277106</ele>
        <time>2022-05-07T10:38:43.067Z</time>
      </trkpt>
      <trkpt lat="46.20784" lon="4.72743">
        <ele>252.11450915629</ele>
        <time>2022-05-07T10:38:49.930Z</time>
      </trkpt>
      <trkpt lat="46.2078" lon="4.72762">
        <ele>250.3333883924</ele>
        <time>2022-05-07T10:38:56.796Z</time>
      </trkpt>
      <trkpt lat="46.2077" lon="4.72813">
        <ele>248.4697352551</ele>
        <time>2022-05-07T10:39:03.670Z</time>
      </trkpt>
      <trkpt lat="46.20765" lon="4.72842">
        <ele>246.80790066635</ele>
        <time>2022-05-07T10:39:10.548Z</time>
      </trkpt>
      <trkpt lat="46.20759" lon="4.72868">
        <ele>248.9</ele>
      </trkpt>
      <trkpt lat="46.20762" lon="4.72878">
        <ele>248.5</ele>
        <time>2022-05-07T10:39:17.437Z</time>
      </trkpt>
      <trkpt lat="46.20788" lon="4.72884">
        <ele>249.9</ele>
      </trkpt>
      <trkpt lat="46.20808" lon="4.72889">
        <ele>251.1</ele>
      </trkpt>
      <trkpt lat="46.20808" lon="4.72903">
        <ele>250.6</ele>
      </trkpt>
      <trkpt lat="46.20801" lon="4.72952">
        <ele>248.6</ele>
      </trkpt>
      <trkpt lat="46.20794" lon="4.73">
        <ele>246.6</ele>
      </trkpt>
      <trkpt lat="46.20792" lon="4.73036">
        <ele>245.7</ele>
      </trkpt>
      <trkpt lat="46.20791" lon="4.73076">
        <ele>244.3</ele>
      </trkpt>
      <trkpt lat="46.20763" lon="4.73073">
        <ele>243.8</ele>
      </trkpt>
      <trkpt lat="46.20737" lon="4.73069">
        <ele>242.6</ele>
        <time>2022-05-07T10:39:24.340Z</time>
      </trkpt>
      <trkpt lat="46.20719" lon="4.73071">
        <ele>241.3</ele>
      </trkpt>
      <trkpt lat="46.20697" lon="4.73149">
        <ele>238.1</ele>
        <time>2022-05-07T10:39:31.263Z</time>
      </trkpt>
      <trkpt lat="46.20697" lon="4.73169">
        <ele>240.632366875</ele>
        <time>2022-05-07T10:39:38.189Z</time>
      </trkpt>
      <trkpt lat="46.20705" lon="4.73197">
        <ele>239.46073523217</ele>
        <time>2022-05-07T10:39:45.119Z</time>
      </trkpt>
      <trkpt lat="46.20726" lon="4.73231">
        <ele>238.43025876506</ele>
        <time>2022-05-07T10:39:52.055Z</time>
      </trkpt>
      <trkpt lat="46.2075" lon="4.73233">
        <ele>237.47133042416</ele>
        <time>2022-05-07T10:39:58.996Z</time>
      </trkpt>
      <trkpt lat="46.20789" lon="4.73237">
        <ele>236.57115765122</ele>
        <time>2022-05-07T10:40:05.945Z</time>
      </trkpt>
      <trkpt lat="46.20826" lon="4.73217">
        <ele>235.71432068212</ele>
        <time>2022-05-07T10:40:12.902Z</time>
      </trkpt>
      <trkpt lat="46.20866" lon="4.73188">
        <ele>234.87578603505</ele>
        <time>2022-05-07T10:40:19.868Z</time>
      </trkpt>
      <trkpt lat="46.20901" lon="4.73162">
        <ele>234.03131879361</ele>
        <time>2022-05-07T10:40:26.841Z</time>
      </trkpt>
      <trkpt lat="46.20951" lon="4.73151">
        <ele>233.23954304858</ele>
        <time>2022-05-07T10:40:33.825Z</time>
      </trkpt>
      <trkpt lat="46.20996" lon="4.7312">
        <ele>232.33057773142</ele>
        <time>2022-05-07T10:40:40.819Z</time>
      </trkpt>
      <trkpt lat="46.21001" lon="4.73075">
        <ele>231.53330514514</ele>
        <time>2022-05-07T10:40:47.819Z</time>
      </trkpt>
      <trkpt lat="46.21019" lon="4.73113">
        <ele>230.5927518246</ele>
        <time>2022-05-07T10:40:54.825Z</time>
      </trkpt>
      <trkpt lat="46.21026" lon="4.73139">
        <ele>229.66952575175</ele>
        <time>2022-05-07T10:41:01.835Z</time>
      </trkpt>
      <trkpt lat="46.21028" lon="4.73147">
        <ele>228.79219158855</ele>
        <time>2022-05-07T10:41:08.846Z</time>
      </trkpt>
      <trkpt lat="46.21034" lon="4.7322">
        <ele>227.92008406675</ele>
        <time>2022-05-07T10:41:15.868Z</time>
      </trkpt>
      <trkpt lat="46.21038" lon="4.73291">
        <ele>226.86550190092</ele>
        <time>2022-05-07T10:41:22.899Z</time>
      </trkpt>
      <trkpt lat="46.21054" lon="4.73345">
        <ele>225.82412264449</ele>
        <time>2022-05-07T10:41:29.939Z</time>
      </trkpt>
      <trkpt lat="46.21056" lon="4.73352">
        <ele>224.99021317543</ele>
        <time>2022-05-07T10:41:36.980Z</time>
      </trkpt>
      <trkpt lat="46.21064" lon="4.73431">
        <ele>224.03025716299</ele>
        <time>2022-05-07T10:41:44.032Z</time>
      </trkpt>
      <trkpt lat="46.21071" lon="4.73465">
        <ele>223.31193503313</ele>
        <time>2022-05-07T10:41:51.089Z</time>
      </trkpt>
      <trkpt lat="46.21073" lon="4.73494">
        <ele>222.65012249667</ele>
        <time>2022-05-07T10:41:58.150Z</time>
      </trkpt>
      <trkpt lat="46.21072" lon="4.73508">
        <ele>222.09227393121</ele>
        <time>2022-05-07T10:42:05.213Z</time>
      </trkpt>
      <trkpt lat="46.21082" lon="4.73527">
        <ele>221.58542731896</ele>
        <time>2022-05-07T10:42:12.279Z</time>
      </trkpt>
      <trkpt lat="46.21096" lon="4.73531">
        <ele>221.2001191097</ele>
        <time>2022-05-07T10:42:19.348Z</time>
      </trkpt>
      <trkpt lat="46.21176" lon="4.7357">
        <ele>220.65204070285</ele>
        <time>2022-05-07T10:42:26.434Z</time>
      </trkpt>
      <trkpt lat="46.21181" lon="4.73573">
        <ele>220.59082525414</ele>
        <time>2022-05-07T10:42:33.521Z</time>
      </trkpt>
      <trkpt lat="46.21191" lon="4.73579">
        <ele>220.67808304007</ele>
        <time>2022-05-07T10:42:40.610Z</time>
      </trkpt>
      <trkpt lat="46.21204" lon="4.73612">
        <ele>220.90006063434</ele>
        <time>2022-05-07T10:42:47.704Z</time>
      </trkpt>
      <trkpt lat="46.21211" lon="4.73657">
        <ele>221.41712079883</ele>
        <time>2022-05-07T10:42:54.805Z</time>
      </trkpt>
      <trkpt lat="46.21217" lon="4.737">
        <ele>222.10567452224</ele>
        <time>2022-05-07T10:43:01.912Z</time>
      </trkpt>
      <trkpt lat="46.21222" lon="4.73705">
        <ele>222.79269686961</ele>
        <time>2022-05-07T10:43:09.020Z</time>
      </trkpt>
      <trkpt lat="46.2123" lon="4.73674">
        <ele>223.55863621937</ele>
        <time>2022-05-07T10:43:16.133Z</time>
      </trkpt>
      <trkpt lat="46.21242" lon="4.73652">
        <ele>224.49575861712</ele>
        <time>2022-05-07T10:43:23.249Z</time>
      </trkpt>
      <trkpt lat="46.21274" lon="4.7362">
        <ele>225.56684369626</ele>
        <time>2022-05-07T10:43:30.373Z</time>
      </trkpt>
      <trkpt lat="46.21332" lon="4.7359">
        <ele>226.63130759444</ele>
        <time>2022-05-07T10:43:37.510Z</time>
      </trkpt>
      <trkpt lat="46.21409" lon="4.73558">
        <ele>227.98863308423</ele>
        <time>2022-05-07T10:43:44.663Z</time>
      </trkpt>
      <trkpt lat="46.21438" lon="4.73559">
        <ele>229.29391920919</ele>
        <time>2022-05-07T10:43:51.821Z</time>
      </trkpt>
      <trkpt lat="46.21479" lon="4.73575">
        <ele>230.53768342754</ele>
        <time>2022-05-07T10:43:58.988Z</time>
      </trkpt>
      <trkpt lat="46.21504" lon="4.73545">
        <ele>231.64232654845</ele>
        <time>2022-05-07T10:44:06.161Z</time>
      </trkpt>
      <trkpt lat="46.21516" lon="4.73549">
        <ele>232.64719765067</ele>
        <time>2022-05-07T10:44:13.337Z</time>
      </trkpt>
      <trkpt lat="46.21577" lon="4.73584">
        <ele>233.76129560109</ele>
        <time>2022-05-07T10:44:20.526Z</time>
      </trkpt>
      <trkpt lat="46.21664" lon="4.73637">
        <ele>234.80782651903</ele>
        <time>2022-05-07T10:44:27.734Z</time>
      </trkpt>
      <trkpt lat="46.21743" lon="4.73686">
        <ele>235.44201721145</ele>
        <time>2022-05-07T10:44:34.959Z</time>
      </trkpt>
      <trkpt lat="46.21753" lon="4.73692">
        <ele>235.78995572647</ele>
        <time>2022-05-07T10:44:42.186Z</time>
      </trkpt>
      <trkpt lat="46.21753" lon="4.73693">
        <ele>235.93795712049</ele>
        <time>2022-05-07T10:44:49.413Z</time>
      </trkpt>
      <trkpt lat="46.21767" lon="4.73701">
        <ele>235.87373328573</ele>
        <time>2022-05-07T10:44:56.643Z</time>
      </trkpt>
      <trkpt lat="46.2185" lon="4.73725">
        <ele>235.53874075692</ele>
        <time>2022-05-07T10:45:03.890Z</time>
      </trkpt>
      <trkpt lat="46.21935" lon="4.73706">
        <ele>234.95329971921</ele>
        <time>2022-05-07T10:45:11.155Z</time>
      </trkpt>
      <trkpt lat="46.21947" lon="4.73702">
        <ele>234.23959979807</ele>
        <time>2022-05-07T10:45:18.422Z</time>
      </trkpt>
      <trkpt lat="46.21969" lon="4.73708">
        <ele>233.23927582482</ele>
        <time>2022-05-07T10:45:25.694Z</time>
      </trkpt>
      <trkpt lat="46.21972" lon="4.73726">
        <ele>232.04231505457</ele>
        <time>2022-05-07T10:45:32.968Z</time>
      </trkpt>
      <trkpt lat="46.21975" lon="4.73757">
        <ele>230.53950822462</ele>
        <time>2022-05-07T10:45:40.246Z</time>
      </trkpt>
      <trkpt lat="46.21976" lon="4.73786">
        <ele>228.88777626693</ele>
        <time>2022-05-07T10:45:47.529Z</time>
      </trkpt>
      <trkpt lat="46.21977" lon="4.73819">
        <ele>227.14082680316</ele>
        <time>2022-05-07T10:45:54.816Z</time>
      </trkpt>
      <trkpt lat="46.21979" lon="4.73855">
        <ele>225.3400962494</ele>
        <time>2022-05-07T10:46:02.108Z</time>
      </trkpt>
      <trkpt lat="46.21979" lon="4.73861">
        <ele>223.69923107716</ele>
        <time>2022-05-07T10:46:09.401Z</time>
      </trkpt>
      <trkpt lat="46.21986" lon="4.73963">
        <ele>221.55848369735</ele>
        <time>2022-05-07T10:46:16.708Z</time>
      </trkpt>
      <trkpt lat="46.21993" lon="4.7397">
        <ele>219.94326947829</ele>
        <time>2022-05-07T10:46:24.017Z</time>
      </trkpt>
      <trkpt lat="46.22006" lon="4.7395">
        <ele>218.40537714918</ele>
        <time>2022-05-07T10:46:31.330Z</time>
      </trkpt>
      <trkpt lat="46.22025" lon="4.73923">
        <ele>216.9478997534</ele>
        <time>2022-05-07T10:46:38.648Z</time>
      </trkpt>
      <trkpt lat="46.22082" lon="4.73869">
        <ele>215.50895492434</ele>
        <time>2022-05-07T10:46:45.980Z</time>
      </trkpt>
      <trkpt lat="46.22117" lon="4.73837">
        <ele>214.09552389073</ele>
        <time>2022-05-07T10:46:53.320Z</time>
      </trkpt>
      <trkpt lat="46.22131" lon="4.73862">
        <ele>212.59124589537</ele>
        <time>2022-05-07T10:47:00.664Z</time>
      </trkpt>
      <trkpt lat="46.22177" lon="4.73914">
        <ele>211.14611415139</ele>
        <time>2022-05-07T10:47:08.020Z</time>
      </trkpt>
      <trkpt lat="46.22213" lon="4.73974">
        <ele>209.842200436</ele>
        <time>2022-05-07T10:47:15.387Z</time>
      </trkpt>
      <trkpt lat="46.22216" lon="4.73981">
        <ele>208.75443418875</ele>
        <time>2022-05-07T10:47:22.755Z</time>
      </trkpt>
      <trkpt lat="46.22219" lon="4.73995">
        <ele>207.76944804779</ele>
        <time>2022-05-07T10:47:30.125Z</time>
      </trkpt>
      <trkpt lat="46.2222" lon="4.74009">
        <ele>206.91246784072</ele>
        <time>2022-05-07T10:47:37.497Z</time>
      </trkpt>
      <trkpt lat="46.22223" lon="4.74031">
        <ele>206.17315679667</ele>
        <time>2022-05-07T10:47:44.872Z</time>
      </trkpt>
      <trkpt lat="46.22163" lon="4.74185">
        <ele>205.50747880439</ele>
        <time>2022-05-07T10:47:52.272Z</time>
      </trkpt>
      <trkpt lat="46.22114" lon="4.74309">
        <ele>205.24490837889</ele>
        <time>2022-05-07T10:47:59.692Z</time>
      </trkpt>
      <trkpt lat="46.22108" lon="4.74329">
        <ele>204.9465553173</ele>
        <time>2022-05-07T10:48:07.115Z</time>
      </trkpt>
      <trkpt lat="46.22101" lon="4.74341">
        <ele>204.79079934973</ele>
        <time>2022-05-07T10:48:14.540Z</time>
      </trkpt>
      <trkpt lat="46.22092" lon="4.7436">
        <ele>204.7193265913</ele>
        <time>2022-05-07T10:48:21.968Z</time>
      </trkpt>
      <trkpt lat="46.22082" lon="4.74375">
        <ele>204.83460491695</ele>
        <time>2022-05-07T10:48:29.399Z</time>
      </trkpt>
      <trkpt lat="46.22065" lon="4.74398">
        <ele>205.04166457199</ele>
        <time>2022-05-07T10:48:36.835Z</time>
      </trkpt>
      <trkpt lat="46.22064" lon="4.74409">
        <ele>205.37813319754</ele>
        <time>2022-05-07T10:48:44.272Z</time>
      </trkpt>
      <trkpt lat="46.22086" lon="4.74423">
        <ele>205.83037674138</ele>
        <time>2022-05-07T10:48:51.714Z</time>
      </trkpt>
      <trkpt lat="46.22142" lon="4.74457">
        <ele>206.43658153277</ele>
        <time>2022-05-07T10:48:59.168Z</time>
      </trkpt>
      <trkpt lat="46.22147" lon="4.74469">
        <ele>206.98375400056</ele>
        <time>2022-05-07T10:49:06.624Z</time>
      </trkpt>
      <trkpt lat="46.22147" lon="4.74472">
        <ele>207.49969423957</ele>
        <time>2022-05-07T10:49:14.081Z</time>
      </trkpt>
      <trkpt lat="46.22149" lon="4.7451">
        <ele>208.10117103826</ele>
        <time>2022-05-07T10:49:21.543Z</time>
      </trkpt>
      <trkpt lat="46.22146" lon="4.74539">
        <ele>208.65557100188</ele>
        <time>2022-05-07T10:49:29.009Z</time>
      </trkpt>
      <trkpt lat="46.22147" lon="4.74559">
        <ele>209.09270566145</ele>
        <time>2022-05-07T10:49:36.478Z</time>
      </trkpt>
      <trkpt lat="46.22168" lon="4.74618">
        <ele>209.63881875182</ele>
        <time>2022-05-07T10:49:43.956Z</time>
      </trkpt>
      <trkpt lat="46.22153" lon="4.74668">
        <ele>209.62291814959</ele>
        <time>2022-05-07T10:49:51.441Z</time>
      </trkpt>
      <trkpt lat="46.22143" lon="4.74678">
        <ele>209.44335168751</ele>
        <time>2022-05-07T10:49:58.929Z</time>
      </trkpt>
      <trkpt lat="46.22111" lon="4.74622">
        <ele>208.86163502906</ele>
        <time>2022-05-07T10:50:06.427Z</time>
      </trkpt>
      <trkpt lat="46.22091" lon="4.74626">
        <ele>208.56630348214</ele>
        <time>2022-05-07T10:50:13.929Z</time>
      </trkpt>
      <trkpt lat="46.22076" lon="4.74663">
        <ele>208.28170440701</ele>
        <time>2022-05-07T10:50:21.437Z</time>
      </trkpt>
      <trkpt lat="46.22046" lon="4.74695">
        <ele>207.90445342274</ele>
        <time>2022-05-07T10:50:28.952Z</time>
      </trkpt>
      <trkpt lat="46.2202" lon="4.74736">
        <ele>207.47328853723</ele>
        <time>2022-05-07T10:50:36.475Z</time>
      </trkpt>
      <trkpt lat="46.2197" lon="4.74831">
        <ele>206.94010027886</ele>
        <time>2022-05-07T10:50:44.015Z</time>
      </trkpt>
      <trkpt lat="46.21942" lon="4.74879">
        <ele>206.41587137153</ele>
        <time>2022-05-07T10:50:51.563Z</time>
      </trkpt>
      <trkpt lat="46.21935" lon="4.74885">
        <ele>205.81966691616</ele>
        <time>2022-05-07T10:50:59.113Z</time>
      </trkpt>
      <trkpt lat="46.21914" lon="4.74891">
        <ele>205.1501772931</ele>
        <time>2022-05-07T10:51:06.667Z</time>
      </trkpt>
      <trkpt lat="46.21841" lon="4.74857">
        <ele>204.33037304052</ele>
        <time>2022-05-07T10:51:14.237Z</time>
      </trkpt>
      <trkpt lat="46.21815" lon="4.7487">
        <ele>203.70569798648</ele>
        <time>2022-05-07T10:51:21.812Z</time>
      </trkpt>
      <trkpt lat="46.21804" lon="4.74895">
        <ele>203.04229625591</ele>
        <time>2022-05-07T10:51:29.391Z</time>
      </trkpt>
      <trkpt lat="46.21759" lon="4.75004">
        <ele>202.41866476645</ele>
        <time>2022-05-07T10:51:36.988Z</time>
      </trkpt>
      <trkpt lat="46.21714" lon="4.7511">
        <ele>201.708949802</ele>
        <time>2022-05-07T10:51:44.602Z</time>
      </trkpt>
      <trkpt lat="46.21701" lon="4.75133">
        <ele>201.20162035489</ele>
        <time>2022-05-07T10:51:52.220Z</time>
      </trkpt>
      <trkpt lat="46.21676" lon="4.75216">
        <ele>200.70569529406</ele>
        <time>2022-05-07T10:51:59.851Z</time>
      </trkpt>
      <trkpt lat="46.21616" lon="4.753">
        <ele>199.94843150269</ele>
        <time>2022-05-07T10:52:07.499Z</time>
      </trkpt>
      <trkpt lat="46.21567" lon="4.75393">
        <ele>199.39826905195</ele>
        <time>2022-05-07T10:52:15.163Z</time>
      </trkpt>
      <trkpt lat="46.2155" lon="4.7551">
        <ele>198.90375067555</ele>
        <time>2022-05-07T10:52:22.843Z</time>
      </trkpt>
      <trkpt lat="46.21543" lon="4.75539">
        <ele>198.13206194179</ele>
        <time>2022-05-07T10:52:30.528Z</time>
      </trkpt>
      <trkpt lat="46.2153" lon="4.75571">
        <ele>197.17841875751</ele>
        <time>2022-05-07T10:52:38.218Z</time>
      </trkpt>
      <trkpt lat="46.21507" lon="4.75599">
        <ele>196.21307806274</ele>
        <time>2022-05-07T10:52:45.914Z</time>
      </trkpt>
      <trkpt lat="46.21488" lon="4.75618">
        <ele>195.3857389403</ele>
        <time>2022-05-07T10:52:53.614Z</time>
      </trkpt>
      <trkpt lat="46.21476" lon="4.75635">
        <ele>194.70208780701</ele>
        <time>2022-05-07T10:53:01.318Z</time>
      </trkpt>
      <trkpt lat="46.21426" lon="4.75685">
        <ele>193.93069384294</ele>
        <time>2022-05-07T10:53:09.034Z</time>
      </trkpt>
      <trkpt lat="46.21388" lon="4.7573">
        <ele>193.19795459695</ele>
        <time>2022-05-07T10:53:16.760Z</time>
      </trkpt>
      <trkpt lat="46.21349" lon="4.75695">
        <ele>192.59715662776</ele>
        <time>2022-05-07T10:53:24.495Z</time>
      </trkpt>
      <trkpt lat="46.21312" lon="4.75669">
        <ele>192.2073461495</ele>
        <time>2022-05-07T10:53:32.238Z</time>
      </trkpt>
      <trkpt lat="46.2128" lon="4.75649">
        <ele>192.23975529708</ele>
        <time>2022-05-07T10:53:39.988Z</time>
      </trkpt>
      <trkpt lat="46.21252" lon="4.7563">
        <ele>192.20887238542</ele>
        <time>2022-05-07T10:53:47.744Z</time>
      </trkpt>
      <trkpt lat="46.21237" lon="4.75642">
        <ele>192.06645079806</ele>
        <time>2022-05-07T10:53:55.504Z</time>
      </trkpt>
    </trkseg>
  </trk>
</gpx>